<?xml version="1.0" encoding="UTF-8" standalone="no" ?>
<gpx xmlns="http://www.topografix.com/GPX/1/1" xmlns:xsi="http://www.w3.org/2001/XMLSchema-instance" xsi:schemaLocation="http://www.topografix.com/GPX/1/1 http://www.topografix.com/GPX/1/1/gpx.xsd" version="1.1" creator="VisuGPX - https://www.visugpx.com">
  <metadata>
    <name>83-Me-Aups</name>
    <desc><![CDATA[83-Me-Aups : La Peirière, les grottes Ste-Magdeleine
2022-06-08]]></desc>
  </metadata>
  <trk>
    <name><![CDATA[2022-06-08-01 Aup]]></name>
    <extensions>
      <line xmlns="http://www.topografix.com/GPX/gpx_style/0/2">
        <width>3</width>
      </line>
    </extensions>
    <trkseg>
      <trkpt lat="43.6274" lon="6.22413">
        <ele>508.1</ele>
        <time>2022-06-08T06:40:45.000Z</time>
      </trkpt>
      <trkpt lat="43.6274" lon="6.22412">
        <ele>508.1</ele>
        <time>2022-06-08T06:40:46.000Z</time>
      </trkpt>
      <trkpt lat="43.62744" lon="6.22415">
        <ele>507.4</ele>
        <time>2022-06-08T06:40:57.000Z</time>
      </trkpt>
      <trkpt lat="43.62749" lon="6.22415">
        <ele>507.5</ele>
        <time>2022-06-08T06:41:01.000Z</time>
      </trkpt>
      <trkpt lat="43.62754" lon="6.2242">
        <ele>507.7</ele>
        <time>2022-06-08T06:41:06.000Z</time>
      </trkpt>
      <trkpt lat="43.62756" lon="6.22425">
        <ele>507.8</ele>
        <time>2022-06-08T06:41:12.000Z</time>
      </trkpt>
      <trkpt lat="43.62762" lon="6.22425">
        <ele>507.8</ele>
        <time>2022-06-08T06:41:18.000Z</time>
      </trkpt>
      <trkpt lat="43.62767" lon="6.22423">
        <ele>507.8</ele>
        <time>2022-06-08T06:41:20.000Z</time>
      </trkpt>
      <trkpt lat="43.62771" lon="6.22421">
        <ele>507.8</ele>
        <time>2022-06-08T06:41:22.000Z</time>
      </trkpt>
      <trkpt lat="43.62777" lon="6.2242">
        <ele>507.8</ele>
        <time>2022-06-08T06:41:25.000Z</time>
      </trkpt>
      <trkpt lat="43.62782" lon="6.22419">
        <ele>507.8</ele>
        <time>2022-06-08T06:41:28.000Z</time>
      </trkpt>
      <trkpt lat="43.62787" lon="6.2242">
        <ele>507.7</ele>
        <time>2022-06-08T06:41:32.000Z</time>
      </trkpt>
      <trkpt lat="43.62793" lon="6.2242">
        <ele>507.4</ele>
        <time>2022-06-08T06:41:38.000Z</time>
      </trkpt>
      <trkpt lat="43.62798" lon="6.22423">
        <ele>507</ele>
        <time>2022-06-08T06:41:48.000Z</time>
      </trkpt>
      <trkpt lat="43.62803" lon="6.22425">
        <ele>508.3</ele>
        <time>2022-06-08T06:41:53.000Z</time>
      </trkpt>
      <trkpt lat="43.62809" lon="6.22424">
        <ele>508.3</ele>
        <time>2022-06-08T06:41:58.000Z</time>
      </trkpt>
      <trkpt lat="43.62815" lon="6.22425">
        <ele>508.3</ele>
        <time>2022-06-08T06:42:03.000Z</time>
      </trkpt>
      <trkpt lat="43.62819" lon="6.22428">
        <ele>508.6</ele>
        <time>2022-06-08T06:42:08.000Z</time>
      </trkpt>
      <trkpt lat="43.62824" lon="6.22431">
        <ele>508.9</ele>
        <time>2022-06-08T06:42:12.000Z</time>
      </trkpt>
      <trkpt lat="43.62829" lon="6.22433">
        <ele>509.1</ele>
        <time>2022-06-08T06:42:15.000Z</time>
      </trkpt>
      <trkpt lat="43.62834" lon="6.22434">
        <ele>509</ele>
        <time>2022-06-08T06:42:18.000Z</time>
      </trkpt>
      <trkpt lat="43.62839" lon="6.22435">
        <ele>509.3</ele>
        <time>2022-06-08T06:42:21.000Z</time>
      </trkpt>
      <trkpt lat="43.62844" lon="6.22437">
        <ele>509.1</ele>
        <time>2022-06-08T06:42:24.000Z</time>
      </trkpt>
      <trkpt lat="43.62848" lon="6.22441">
        <ele>509.4</ele>
        <time>2022-06-08T06:42:28.000Z</time>
      </trkpt>
      <trkpt lat="43.62852" lon="6.22444">
        <ele>509.9</ele>
        <time>2022-06-08T06:42:35.000Z</time>
      </trkpt>
      <trkpt lat="43.62855" lon="6.2245">
        <ele>509</ele>
        <time>2022-06-08T06:42:40.000Z</time>
      </trkpt>
      <trkpt lat="43.62859" lon="6.22454">
        <ele>509</ele>
        <time>2022-06-08T06:42:44.000Z</time>
      </trkpt>
      <trkpt lat="43.62862" lon="6.22459">
        <ele>510.2</ele>
        <time>2022-06-08T06:42:47.000Z</time>
      </trkpt>
      <trkpt lat="43.62862" lon="6.22466">
        <ele>510.5</ele>
        <time>2022-06-08T06:42:52.000Z</time>
      </trkpt>
      <trkpt lat="43.62866" lon="6.2247">
        <ele>511.3</ele>
        <time>2022-06-08T06:42:56.000Z</time>
      </trkpt>
      <trkpt lat="43.62871" lon="6.22476">
        <ele>511</ele>
        <time>2022-06-08T06:43:01.000Z</time>
      </trkpt>
      <trkpt lat="43.62874" lon="6.22482">
        <ele>511.5</ele>
        <time>2022-06-08T06:43:05.000Z</time>
      </trkpt>
      <trkpt lat="43.62879" lon="6.22484">
        <ele>512</ele>
        <time>2022-06-08T06:43:08.000Z</time>
      </trkpt>
      <trkpt lat="43.62879" lon="6.22492">
        <ele>513</ele>
        <time>2022-06-08T06:43:24.000Z</time>
      </trkpt>
      <trkpt lat="43.62876" lon="6.22497">
        <ele>513.5</ele>
        <time>2022-06-08T06:43:31.000Z</time>
      </trkpt>
      <trkpt lat="43.62881" lon="6.22498">
        <ele>514.4</ele>
        <time>2022-06-08T06:43:43.000Z</time>
      </trkpt>
      <trkpt lat="43.62886" lon="6.22494">
        <ele>514.5</ele>
        <time>2022-06-08T06:43:47.000Z</time>
      </trkpt>
      <trkpt lat="43.6289" lon="6.22488">
        <ele>513.9</ele>
        <time>2022-06-08T06:43:50.000Z</time>
      </trkpt>
      <trkpt lat="43.62896" lon="6.22482">
        <ele>514.3</ele>
        <time>2022-06-08T06:43:53.000Z</time>
      </trkpt>
      <trkpt lat="43.62892" lon="6.2248">
        <ele>514.9</ele>
        <time>2022-06-08T06:44:02.000Z</time>
      </trkpt>
      <trkpt lat="43.62894" lon="6.22473">
        <ele>515.1</ele>
        <time>2022-06-08T06:44:16.000Z</time>
      </trkpt>
      <trkpt lat="43.62897" lon="6.22468">
        <ele>515.5</ele>
        <time>2022-06-08T06:44:19.000Z</time>
      </trkpt>
      <trkpt lat="43.629" lon="6.22464">
        <ele>515.7</ele>
        <time>2022-06-08T06:44:22.000Z</time>
      </trkpt>
      <trkpt lat="43.62904" lon="6.22459">
        <ele>515.8</ele>
        <time>2022-06-08T06:44:26.000Z</time>
      </trkpt>
      <trkpt lat="43.62908" lon="6.22453">
        <ele>515.7</ele>
        <time>2022-06-08T06:44:34.000Z</time>
      </trkpt>
      <trkpt lat="43.62913" lon="6.22447">
        <ele>515.7</ele>
        <time>2022-06-08T06:44:43.000Z</time>
      </trkpt>
      <trkpt lat="43.62916" lon="6.22442">
        <ele>515.6</ele>
        <time>2022-06-08T06:44:46.000Z</time>
      </trkpt>
      <trkpt lat="43.62919" lon="6.22434">
        <ele>515.3</ele>
        <time>2022-06-08T06:44:51.000Z</time>
      </trkpt>
      <trkpt lat="43.62923" lon="6.2243">
        <ele>514.6</ele>
        <time>2022-06-08T06:44:54.000Z</time>
      </trkpt>
      <trkpt lat="43.62927" lon="6.22425">
        <ele>514.7</ele>
        <time>2022-06-08T06:44:57.000Z</time>
      </trkpt>
      <trkpt lat="43.62931" lon="6.2242">
        <ele>514.9</ele>
        <time>2022-06-08T06:45:05.000Z</time>
      </trkpt>
      <trkpt lat="43.62937" lon="6.22416">
        <ele>514.5</ele>
        <time>2022-06-08T06:45:07.000Z</time>
      </trkpt>
      <trkpt lat="43.62942" lon="6.22414">
        <ele>514.6</ele>
        <time>2022-06-08T06:45:13.000Z</time>
      </trkpt>
      <trkpt lat="43.62948" lon="6.22414">
        <ele>515.5</ele>
        <time>2022-06-08T06:45:16.000Z</time>
      </trkpt>
      <trkpt lat="43.62953" lon="6.22413">
        <ele>515.8</ele>
        <time>2022-06-08T06:45:25.000Z</time>
      </trkpt>
      <trkpt lat="43.62951" lon="6.22419">
        <ele>515.9</ele>
        <time>2022-06-08T06:45:29.000Z</time>
      </trkpt>
      <trkpt lat="43.62957" lon="6.2242">
        <ele>515.3</ele>
        <time>2022-06-08T06:45:37.000Z</time>
      </trkpt>
      <trkpt lat="43.62962" lon="6.22416">
        <ele>515.9</ele>
        <time>2022-06-08T06:45:41.000Z</time>
      </trkpt>
      <trkpt lat="43.62966" lon="6.22413">
        <ele>516.1</ele>
        <time>2022-06-08T06:45:46.000Z</time>
      </trkpt>
      <trkpt lat="43.62971" lon="6.22409">
        <ele>516</ele>
        <time>2022-06-08T06:45:59.000Z</time>
      </trkpt>
      <trkpt lat="43.62976" lon="6.22408">
        <ele>516</ele>
        <time>2022-06-08T06:46:07.000Z</time>
      </trkpt>
      <trkpt lat="43.62974" lon="6.22414">
        <ele>516.3</ele>
        <time>2022-06-08T06:46:25.000Z</time>
      </trkpt>
      <trkpt lat="43.62979" lon="6.22412">
        <ele>516.2</ele>
        <time>2022-06-08T06:46:40.000Z</time>
      </trkpt>
      <trkpt lat="43.62984" lon="6.2241">
        <ele>515.2</ele>
        <time>2022-06-08T06:46:47.000Z</time>
      </trkpt>
      <trkpt lat="43.62988" lon="6.2241">
        <ele>515.7</ele>
        <time>2022-06-08T06:46:49.000Z</time>
      </trkpt>
      <trkpt lat="43.62993" lon="6.22408">
        <ele>516.2</ele>
        <time>2022-06-08T06:46:52.000Z</time>
      </trkpt>
      <trkpt lat="43.62999" lon="6.22408">
        <ele>516.6</ele>
        <time>2022-06-08T06:46:55.000Z</time>
      </trkpt>
      <trkpt lat="43.63004" lon="6.2241">
        <ele>516.3</ele>
        <time>2022-06-08T06:47:03.000Z</time>
      </trkpt>
      <trkpt lat="43.63007" lon="6.22417">
        <ele>516.8</ele>
        <time>2022-06-08T06:47:10.000Z</time>
      </trkpt>
      <trkpt lat="43.63011" lon="6.22419">
        <ele>517.8</ele>
        <time>2022-06-08T06:47:16.000Z</time>
      </trkpt>
      <trkpt lat="43.63017" lon="6.22418">
        <ele>518.3</ele>
        <time>2022-06-08T06:47:23.000Z</time>
      </trkpt>
      <trkpt lat="43.63021" lon="6.22416">
        <ele>518.5</ele>
        <time>2022-06-08T06:47:40.000Z</time>
      </trkpt>
      <trkpt lat="43.63026" lon="6.22413">
        <ele>518.6</ele>
        <time>2022-06-08T06:47:44.000Z</time>
      </trkpt>
      <trkpt lat="43.6303" lon="6.22413">
        <ele>518.6</ele>
        <time>2022-06-08T06:47:49.000Z</time>
      </trkpt>
      <trkpt lat="43.63035" lon="6.22409">
        <ele>518.6</ele>
        <time>2022-06-08T06:47:55.000Z</time>
      </trkpt>
      <trkpt lat="43.63039" lon="6.22407">
        <ele>518.5</ele>
        <time>2022-06-08T06:48:04.000Z</time>
      </trkpt>
      <trkpt lat="43.63044" lon="6.22404">
        <ele>518.7</ele>
        <time>2022-06-08T06:48:11.000Z</time>
      </trkpt>
      <trkpt lat="43.6305" lon="6.22405">
        <ele>519</ele>
        <time>2022-06-08T06:48:14.000Z</time>
      </trkpt>
      <trkpt lat="43.63054" lon="6.22402">
        <ele>518.8</ele>
        <time>2022-06-08T06:48:19.000Z</time>
      </trkpt>
      <trkpt lat="43.63059" lon="6.22402">
        <ele>519.2</ele>
        <time>2022-06-08T06:48:23.000Z</time>
      </trkpt>
      <trkpt lat="43.63064" lon="6.22396">
        <ele>519.7</ele>
        <time>2022-06-08T06:48:27.000Z</time>
      </trkpt>
      <trkpt lat="43.63068" lon="6.22391">
        <ele>519.8</ele>
        <time>2022-06-08T06:48:32.000Z</time>
      </trkpt>
      <trkpt lat="43.63072" lon="6.22388">
        <ele>519.5</ele>
        <time>2022-06-08T06:48:36.000Z</time>
      </trkpt>
      <trkpt lat="43.63075" lon="6.22381">
        <ele>519.7</ele>
        <time>2022-06-08T06:48:41.000Z</time>
      </trkpt>
      <trkpt lat="43.63077" lon="6.22374">
        <ele>520.3</ele>
        <time>2022-06-08T06:48:46.000Z</time>
      </trkpt>
      <trkpt lat="43.63078" lon="6.22367">
        <ele>520.6</ele>
        <time>2022-06-08T06:48:49.000Z</time>
      </trkpt>
      <trkpt lat="43.63079" lon="6.22359">
        <ele>520.6</ele>
        <time>2022-06-08T06:48:53.000Z</time>
      </trkpt>
      <trkpt lat="43.6308" lon="6.22352">
        <ele>520.8</ele>
        <time>2022-06-08T06:48:58.000Z</time>
      </trkpt>
      <trkpt lat="43.63078" lon="6.22346">
        <ele>520.9</ele>
        <time>2022-06-08T06:49:05.000Z</time>
      </trkpt>
      <trkpt lat="43.6308" lon="6.2234">
        <ele>520.9</ele>
        <time>2022-06-08T06:49:18.000Z</time>
      </trkpt>
      <trkpt lat="43.63084" lon="6.22336">
        <ele>520.9</ele>
        <time>2022-06-08T06:49:23.000Z</time>
      </trkpt>
      <trkpt lat="43.63083" lon="6.22327">
        <ele>520</ele>
        <time>2022-06-08T06:49:30.000Z</time>
      </trkpt>
      <trkpt lat="43.63076" lon="6.2233">
        <ele>521</ele>
        <time>2022-06-08T06:49:35.000Z</time>
      </trkpt>
      <trkpt lat="43.63074" lon="6.22323">
        <ele>520</ele>
        <time>2022-06-08T06:49:47.000Z</time>
      </trkpt>
      <trkpt lat="43.63082" lon="6.22331">
        <ele>521</ele>
        <time>2022-06-08T06:49:55.000Z</time>
      </trkpt>
      <trkpt lat="43.63089" lon="6.22331">
        <ele>521</ele>
        <time>2022-06-08T06:49:59.000Z</time>
      </trkpt>
      <trkpt lat="43.63095" lon="6.22329">
        <ele>521.2</ele>
        <time>2022-06-08T06:50:02.000Z</time>
      </trkpt>
      <trkpt lat="43.63099" lon="6.22325">
        <ele>521</ele>
        <time>2022-06-08T06:50:05.000Z</time>
      </trkpt>
      <trkpt lat="43.63103" lon="6.22325">
        <ele>520.7</ele>
        <time>2022-06-08T06:50:10.000Z</time>
      </trkpt>
      <trkpt lat="43.63108" lon="6.22327">
        <ele>520</ele>
        <time>2022-06-08T06:50:14.000Z</time>
      </trkpt>
      <trkpt lat="43.63113" lon="6.22331">
        <ele>520</ele>
        <time>2022-06-08T06:50:25.000Z</time>
      </trkpt>
      <trkpt lat="43.63121" lon="6.22331">
        <ele>521</ele>
        <time>2022-06-08T06:50:32.000Z</time>
      </trkpt>
      <trkpt lat="43.63126" lon="6.22329">
        <ele>521.1</ele>
        <time>2022-06-08T06:50:34.000Z</time>
      </trkpt>
      <trkpt lat="43.63131" lon="6.22326">
        <ele>521</ele>
        <time>2022-06-08T06:50:37.000Z</time>
      </trkpt>
      <trkpt lat="43.63131" lon="6.22332">
        <ele>521</ele>
        <time>2022-06-08T06:50:43.000Z</time>
      </trkpt>
      <trkpt lat="43.63137" lon="6.22331">
        <ele>520.9</ele>
        <time>2022-06-08T06:50:48.000Z</time>
      </trkpt>
      <trkpt lat="43.63141" lon="6.22327">
        <ele>520.9</ele>
        <time>2022-06-08T06:50:50.000Z</time>
      </trkpt>
      <trkpt lat="43.63147" lon="6.22325">
        <ele>521</ele>
        <time>2022-06-08T06:50:56.000Z</time>
      </trkpt>
      <trkpt lat="43.63152" lon="6.22324">
        <ele>521.4</ele>
        <time>2022-06-08T06:50:59.000Z</time>
      </trkpt>
      <trkpt lat="43.63157" lon="6.22324">
        <ele>520.9</ele>
        <time>2022-06-08T06:51:03.000Z</time>
      </trkpt>
      <trkpt lat="43.63174" lon="6.22318">
        <ele>521</ele>
        <time>2022-06-08T06:51:09.000Z</time>
      </trkpt>
      <trkpt lat="43.63181" lon="6.22317">
        <ele>521.5</ele>
        <time>2022-06-08T06:51:14.000Z</time>
      </trkpt>
      <trkpt lat="43.63184" lon="6.22322">
        <ele>521.7</ele>
        <time>2022-06-08T06:51:21.000Z</time>
      </trkpt>
      <trkpt lat="43.6319" lon="6.2232">
        <ele>521.2</ele>
        <time>2022-06-08T06:51:24.000Z</time>
      </trkpt>
      <trkpt lat="43.63196" lon="6.22319">
        <ele>521.7</ele>
        <time>2022-06-08T06:51:28.000Z</time>
      </trkpt>
      <trkpt lat="43.632" lon="6.22318">
        <ele>521.9</ele>
        <time>2022-06-08T06:51:31.000Z</time>
      </trkpt>
      <trkpt lat="43.63205" lon="6.22317">
        <ele>521.7</ele>
        <time>2022-06-08T06:51:34.000Z</time>
      </trkpt>
      <trkpt lat="43.63211" lon="6.22316">
        <ele>521.9</ele>
        <time>2022-06-08T06:51:37.000Z</time>
      </trkpt>
      <trkpt lat="43.63216" lon="6.22316">
        <ele>522.1</ele>
        <time>2022-06-08T06:51:40.000Z</time>
      </trkpt>
      <trkpt lat="43.63221" lon="6.22315">
        <ele>522</ele>
        <time>2022-06-08T06:51:42.000Z</time>
      </trkpt>
      <trkpt lat="43.63228" lon="6.22312">
        <ele>522.1</ele>
        <time>2022-06-08T06:51:44.000Z</time>
      </trkpt>
      <trkpt lat="43.63251" lon="6.22302">
        <ele>522</ele>
        <time>2022-06-08T06:51:49.000Z</time>
      </trkpt>
      <trkpt lat="43.6326" lon="6.22299">
        <ele>522.4</ele>
        <time>2022-06-08T06:51:54.000Z</time>
      </trkpt>
      <trkpt lat="43.63266" lon="6.223">
        <ele>522.6</ele>
        <time>2022-06-08T06:51:58.000Z</time>
      </trkpt>
      <trkpt lat="43.63272" lon="6.22298">
        <ele>522.4</ele>
        <time>2022-06-08T06:52:02.000Z</time>
      </trkpt>
      <trkpt lat="43.63277" lon="6.22298">
        <ele>522.8</ele>
        <time>2022-06-08T06:52:06.000Z</time>
      </trkpt>
      <trkpt lat="43.63281" lon="6.22298">
        <ele>522.9</ele>
        <time>2022-06-08T06:52:09.000Z</time>
      </trkpt>
      <trkpt lat="43.63286" lon="6.223">
        <ele>523.3</ele>
        <time>2022-06-08T06:52:16.000Z</time>
      </trkpt>
      <trkpt lat="43.63289" lon="6.22304">
        <ele>523.2</ele>
        <time>2022-06-08T06:52:23.000Z</time>
      </trkpt>
      <trkpt lat="43.63294" lon="6.22307">
        <ele>523.5</ele>
        <time>2022-06-08T06:52:27.000Z</time>
      </trkpt>
      <trkpt lat="43.63297" lon="6.22311">
        <ele>523.4</ele>
        <time>2022-06-08T06:52:32.000Z</time>
      </trkpt>
      <trkpt lat="43.63303" lon="6.22312">
        <ele>523.5</ele>
        <time>2022-06-08T06:52:36.000Z</time>
      </trkpt>
      <trkpt lat="43.63307" lon="6.22309">
        <ele>523.6</ele>
        <time>2022-06-08T06:52:40.000Z</time>
      </trkpt>
      <trkpt lat="43.63313" lon="6.22308">
        <ele>523.8</ele>
        <time>2022-06-08T06:52:44.000Z</time>
      </trkpt>
      <trkpt lat="43.6332" lon="6.22305">
        <ele>523.8</ele>
        <time>2022-06-08T06:52:48.000Z</time>
      </trkpt>
      <trkpt lat="43.63325" lon="6.22304">
        <ele>524</ele>
        <time>2022-06-08T06:52:53.000Z</time>
      </trkpt>
      <trkpt lat="43.6333" lon="6.223">
        <ele>523.9</ele>
        <time>2022-06-08T06:52:57.000Z</time>
      </trkpt>
      <trkpt lat="43.63335" lon="6.22301">
        <ele>524.3</ele>
        <time>2022-06-08T06:53:03.000Z</time>
      </trkpt>
      <trkpt lat="43.63341" lon="6.22299">
        <ele>524.4</ele>
        <time>2022-06-08T06:53:08.000Z</time>
      </trkpt>
      <trkpt lat="43.63346" lon="6.22299">
        <ele>524.6</ele>
        <time>2022-06-08T06:53:12.000Z</time>
      </trkpt>
      <trkpt lat="43.63351" lon="6.22297">
        <ele>524.6</ele>
        <time>2022-06-08T06:53:17.000Z</time>
      </trkpt>
      <trkpt lat="43.63356" lon="6.22298">
        <ele>525.1</ele>
        <time>2022-06-08T06:53:22.000Z</time>
      </trkpt>
      <trkpt lat="43.6336" lon="6.22299">
        <ele>525.5</ele>
        <time>2022-06-08T06:53:31.000Z</time>
      </trkpt>
      <trkpt lat="43.63365" lon="6.22301">
        <ele>525.4</ele>
        <time>2022-06-08T06:53:38.000Z</time>
      </trkpt>
      <trkpt lat="43.63371" lon="6.22301">
        <ele>525.5</ele>
        <time>2022-06-08T06:53:41.000Z</time>
      </trkpt>
      <trkpt lat="43.63377" lon="6.22301">
        <ele>525.9</ele>
        <time>2022-06-08T06:53:48.000Z</time>
      </trkpt>
      <trkpt lat="43.63381" lon="6.22301">
        <ele>526.2</ele>
        <time>2022-06-08T06:53:50.000Z</time>
      </trkpt>
      <trkpt lat="43.63387" lon="6.22303">
        <ele>526.8</ele>
        <time>2022-06-08T06:53:58.000Z</time>
      </trkpt>
      <trkpt lat="43.63391" lon="6.22306">
        <ele>527.3</ele>
        <time>2022-06-08T06:54:07.000Z</time>
      </trkpt>
      <trkpt lat="43.63396" lon="6.22306">
        <ele>527.3</ele>
        <time>2022-06-08T06:54:12.000Z</time>
      </trkpt>
      <trkpt lat="43.63401" lon="6.22308">
        <ele>527.7</ele>
        <time>2022-06-08T06:54:19.000Z</time>
      </trkpt>
      <trkpt lat="43.63406" lon="6.2231">
        <ele>527.9</ele>
        <time>2022-06-08T06:54:25.000Z</time>
      </trkpt>
      <trkpt lat="43.6341" lon="6.2231">
        <ele>528.4</ele>
        <time>2022-06-08T06:54:29.000Z</time>
      </trkpt>
      <trkpt lat="43.63415" lon="6.2231">
        <ele>528.5</ele>
        <time>2022-06-08T06:54:33.000Z</time>
      </trkpt>
      <trkpt lat="43.63419" lon="6.22312">
        <ele>528.7</ele>
        <time>2022-06-08T06:54:38.000Z</time>
      </trkpt>
      <trkpt lat="43.63423" lon="6.22317">
        <ele>529.1</ele>
        <time>2022-06-08T06:54:47.000Z</time>
      </trkpt>
      <trkpt lat="43.63429" lon="6.22313">
        <ele>529.5</ele>
        <time>2022-06-08T06:54:56.000Z</time>
      </trkpt>
      <trkpt lat="43.63434" lon="6.22312">
        <ele>529.9</ele>
        <time>2022-06-08T06:55:00.000Z</time>
      </trkpt>
      <trkpt lat="43.63439" lon="6.22311">
        <ele>530.2</ele>
        <time>2022-06-08T06:55:13.000Z</time>
      </trkpt>
      <trkpt lat="43.63443" lon="6.22307">
        <ele>530.4</ele>
        <time>2022-06-08T06:55:19.000Z</time>
      </trkpt>
      <trkpt lat="43.63447" lon="6.22305">
        <ele>530.5</ele>
        <time>2022-06-08T06:55:24.000Z</time>
      </trkpt>
      <trkpt lat="43.63452" lon="6.22301">
        <ele>530.7</ele>
        <time>2022-06-08T06:55:28.000Z</time>
      </trkpt>
      <trkpt lat="43.63457" lon="6.22297">
        <ele>531</ele>
        <time>2022-06-08T06:55:35.000Z</time>
      </trkpt>
      <trkpt lat="43.63461" lon="6.22293">
        <ele>531.1</ele>
        <time>2022-06-08T06:55:38.000Z</time>
      </trkpt>
      <trkpt lat="43.63466" lon="6.2229">
        <ele>531.1</ele>
        <time>2022-06-08T06:55:44.000Z</time>
      </trkpt>
      <trkpt lat="43.63471" lon="6.22291">
        <ele>531.2</ele>
        <time>2022-06-08T06:56:00.000Z</time>
      </trkpt>
      <trkpt lat="43.63475" lon="6.22289">
        <ele>531.5</ele>
        <time>2022-06-08T06:56:03.000Z</time>
      </trkpt>
      <trkpt lat="43.6348" lon="6.22289">
        <ele>531.4</ele>
        <time>2022-06-08T06:56:06.000Z</time>
      </trkpt>
      <trkpt lat="43.6349" lon="6.22286">
        <ele>531.5</ele>
        <time>2022-06-08T06:56:12.000Z</time>
      </trkpt>
      <trkpt lat="43.63494" lon="6.22283">
        <ele>531.2</ele>
        <time>2022-06-08T06:56:16.000Z</time>
      </trkpt>
      <trkpt lat="43.63499" lon="6.22281">
        <ele>531.6</ele>
        <time>2022-06-08T06:56:20.000Z</time>
      </trkpt>
      <trkpt lat="43.63505" lon="6.22278">
        <ele>531.9</ele>
        <time>2022-06-08T06:56:22.000Z</time>
      </trkpt>
      <trkpt lat="43.6351" lon="6.22277">
        <ele>532.4</ele>
        <time>2022-06-08T06:56:24.000Z</time>
      </trkpt>
      <trkpt lat="43.63515" lon="6.22276">
        <ele>532.3</ele>
        <time>2022-06-08T06:56:28.000Z</time>
      </trkpt>
      <trkpt lat="43.63519" lon="6.22277">
        <ele>532.9</ele>
        <time>2022-06-08T06:56:31.000Z</time>
      </trkpt>
      <trkpt lat="43.63525" lon="6.22279">
        <ele>533.2</ele>
        <time>2022-06-08T06:56:38.000Z</time>
      </trkpt>
      <trkpt lat="43.6353" lon="6.22282">
        <ele>533.8</ele>
        <time>2022-06-08T06:56:44.000Z</time>
      </trkpt>
      <trkpt lat="43.63532" lon="6.22288">
        <ele>534.1</ele>
        <time>2022-06-08T06:56:50.000Z</time>
      </trkpt>
      <trkpt lat="43.63538" lon="6.22291">
        <ele>535.7</ele>
        <time>2022-06-08T06:56:58.000Z</time>
      </trkpt>
      <trkpt lat="43.63543" lon="6.22291">
        <ele>536.7</ele>
        <time>2022-06-08T06:57:01.000Z</time>
      </trkpt>
      <trkpt lat="43.63548" lon="6.22293">
        <ele>536.5</ele>
        <time>2022-06-08T06:57:05.000Z</time>
      </trkpt>
      <trkpt lat="43.63553" lon="6.22295">
        <ele>538.2</ele>
        <time>2022-06-08T06:57:08.000Z</time>
      </trkpt>
      <trkpt lat="43.63558" lon="6.22297">
        <ele>539.1</ele>
        <time>2022-06-08T06:57:13.000Z</time>
      </trkpt>
      <trkpt lat="43.63562" lon="6.22302">
        <ele>540.2</ele>
        <time>2022-06-08T06:57:18.000Z</time>
      </trkpt>
      <trkpt lat="43.63567" lon="6.22306">
        <ele>540.9</ele>
        <time>2022-06-08T06:57:22.000Z</time>
      </trkpt>
      <trkpt lat="43.63572" lon="6.22311">
        <ele>541.7</ele>
        <time>2022-06-08T06:57:27.000Z</time>
      </trkpt>
      <trkpt lat="43.63577" lon="6.22316">
        <ele>543.2</ele>
        <time>2022-06-08T06:57:31.000Z</time>
      </trkpt>
      <trkpt lat="43.63583" lon="6.22317">
        <ele>543.9</ele>
        <time>2022-06-08T06:57:34.000Z</time>
      </trkpt>
      <trkpt lat="43.63585" lon="6.22324">
        <ele>544.6</ele>
        <time>2022-06-08T06:57:39.000Z</time>
      </trkpt>
      <trkpt lat="43.63587" lon="6.2233">
        <ele>545.4</ele>
        <time>2022-06-08T06:57:42.000Z</time>
      </trkpt>
      <trkpt lat="43.63592" lon="6.22333">
        <ele>545.9</ele>
        <time>2022-06-08T06:57:49.000Z</time>
      </trkpt>
      <trkpt lat="43.63596" lon="6.22337">
        <ele>546.3</ele>
        <time>2022-06-08T06:57:53.000Z</time>
      </trkpt>
      <trkpt lat="43.63601" lon="6.22341">
        <ele>546.5</ele>
        <time>2022-06-08T06:57:58.000Z</time>
      </trkpt>
      <trkpt lat="43.63606" lon="6.22343">
        <ele>547.5</ele>
        <time>2022-06-08T06:58:02.000Z</time>
      </trkpt>
      <trkpt lat="43.6361" lon="6.22345">
        <ele>547.8</ele>
        <time>2022-06-08T06:58:07.000Z</time>
      </trkpt>
      <trkpt lat="43.63614" lon="6.2234">
        <ele>548.4</ele>
        <time>2022-06-08T06:58:14.000Z</time>
      </trkpt>
      <trkpt lat="43.63619" lon="6.22336">
        <ele>548.5</ele>
        <time>2022-06-08T06:58:20.000Z</time>
      </trkpt>
      <trkpt lat="43.63623" lon="6.22333">
        <ele>548.6</ele>
        <time>2022-06-08T06:58:25.000Z</time>
      </trkpt>
      <trkpt lat="43.63627" lon="6.2233">
        <ele>548.4</ele>
        <time>2022-06-08T06:58:31.000Z</time>
      </trkpt>
      <trkpt lat="43.63632" lon="6.22331">
        <ele>548.3</ele>
        <time>2022-06-08T06:58:36.000Z</time>
      </trkpt>
      <trkpt lat="43.63638" lon="6.22332">
        <ele>548.8</ele>
        <time>2022-06-08T06:58:39.000Z</time>
      </trkpt>
      <trkpt lat="43.63642" lon="6.22338">
        <ele>548.8</ele>
        <time>2022-06-08T06:58:44.000Z</time>
      </trkpt>
      <trkpt lat="43.63641" lon="6.22345">
        <ele>549.6</ele>
        <time>2022-06-08T06:58:47.000Z</time>
      </trkpt>
      <trkpt lat="43.63641" lon="6.22351">
        <ele>550</ele>
        <time>2022-06-08T06:58:49.000Z</time>
      </trkpt>
      <trkpt lat="43.63639" lon="6.22357">
        <ele>549.9</ele>
        <time>2022-06-08T06:58:52.000Z</time>
      </trkpt>
      <trkpt lat="43.6364" lon="6.22364">
        <ele>550.4</ele>
        <time>2022-06-08T06:58:56.000Z</time>
      </trkpt>
      <trkpt lat="43.63641" lon="6.2237">
        <ele>551.2</ele>
        <time>2022-06-08T06:59:01.000Z</time>
      </trkpt>
      <trkpt lat="43.63642" lon="6.22376">
        <ele>551.8</ele>
        <time>2022-06-08T06:59:05.000Z</time>
      </trkpt>
      <trkpt lat="43.63645" lon="6.22382">
        <ele>552.6</ele>
        <time>2022-06-08T06:59:09.000Z</time>
      </trkpt>
      <trkpt lat="43.63649" lon="6.22389">
        <ele>553.5</ele>
        <time>2022-06-08T06:59:14.000Z</time>
      </trkpt>
      <trkpt lat="43.63653" lon="6.22394">
        <ele>554.1</ele>
        <time>2022-06-08T06:59:20.000Z</time>
      </trkpt>
      <trkpt lat="43.63655" lon="6.224">
        <ele>555.1</ele>
        <time>2022-06-08T06:59:24.000Z</time>
      </trkpt>
      <trkpt lat="43.63659" lon="6.22403">
        <ele>555.5</ele>
        <time>2022-06-08T06:59:28.000Z</time>
      </trkpt>
      <trkpt lat="43.63664" lon="6.22406">
        <ele>556.1</ele>
        <time>2022-06-08T06:59:33.000Z</time>
      </trkpt>
      <trkpt lat="43.63667" lon="6.2241">
        <ele>557.4</ele>
        <time>2022-06-08T06:59:37.000Z</time>
      </trkpt>
      <trkpt lat="43.63671" lon="6.22415">
        <ele>557.8</ele>
        <time>2022-06-08T06:59:42.000Z</time>
      </trkpt>
      <trkpt lat="43.63676" lon="6.22421">
        <ele>558</ele>
        <time>2022-06-08T06:59:48.000Z</time>
      </trkpt>
      <trkpt lat="43.63681" lon="6.22426">
        <ele>559.1</ele>
        <time>2022-06-08T06:59:53.000Z</time>
      </trkpt>
      <trkpt lat="43.63685" lon="6.2243">
        <ele>559</ele>
        <time>2022-06-08T06:59:57.000Z</time>
      </trkpt>
      <trkpt lat="43.63688" lon="6.22436">
        <ele>560</ele>
        <time>2022-06-08T07:00:01.000Z</time>
      </trkpt>
      <trkpt lat="43.63695" lon="6.22442">
        <ele>561.3</ele>
        <time>2022-06-08T07:00:06.000Z</time>
      </trkpt>
      <trkpt lat="43.63698" lon="6.22448">
        <ele>561.8</ele>
        <time>2022-06-08T07:00:11.000Z</time>
      </trkpt>
      <trkpt lat="43.63704" lon="6.22451">
        <ele>562.9</ele>
        <time>2022-06-08T07:00:15.000Z</time>
      </trkpt>
      <trkpt lat="43.63709" lon="6.22452">
        <ele>563.4</ele>
        <time>2022-06-08T07:00:20.000Z</time>
      </trkpt>
      <trkpt lat="43.63715" lon="6.22453">
        <ele>563.8</ele>
        <time>2022-06-08T07:00:25.000Z</time>
      </trkpt>
      <trkpt lat="43.6372" lon="6.22455">
        <ele>564.3</ele>
        <time>2022-06-08T07:00:31.000Z</time>
      </trkpt>
      <trkpt lat="43.63724" lon="6.22456">
        <ele>564.6</ele>
        <time>2022-06-08T07:00:35.000Z</time>
      </trkpt>
      <trkpt lat="43.6373" lon="6.22456">
        <ele>565</ele>
        <time>2022-06-08T07:00:39.000Z</time>
      </trkpt>
      <trkpt lat="43.63735" lon="6.22459">
        <ele>565.4</ele>
        <time>2022-06-08T07:00:45.000Z</time>
      </trkpt>
      <trkpt lat="43.6374" lon="6.22459">
        <ele>565.6</ele>
        <time>2022-06-08T07:00:52.000Z</time>
      </trkpt>
      <trkpt lat="43.63743" lon="6.22463">
        <ele>565.8</ele>
        <time>2022-06-08T07:00:58.000Z</time>
      </trkpt>
      <trkpt lat="43.63748" lon="6.22464">
        <ele>565.7</ele>
        <time>2022-06-08T07:01:02.000Z</time>
      </trkpt>
      <trkpt lat="43.63753" lon="6.22464">
        <ele>566.1</ele>
        <time>2022-06-08T07:01:05.000Z</time>
      </trkpt>
      <trkpt lat="43.6376" lon="6.22465">
        <ele>566.5</ele>
        <time>2022-06-08T07:01:08.000Z</time>
      </trkpt>
      <trkpt lat="43.63765" lon="6.22466">
        <ele>566.3</ele>
        <time>2022-06-08T07:01:11.000Z</time>
      </trkpt>
      <trkpt lat="43.63771" lon="6.22467">
        <ele>566.6</ele>
        <time>2022-06-08T07:01:14.000Z</time>
      </trkpt>
      <trkpt lat="43.63775" lon="6.22469">
        <ele>566.6</ele>
        <time>2022-06-08T07:01:19.000Z</time>
      </trkpt>
      <trkpt lat="43.63781" lon="6.2247">
        <ele>567.1</ele>
        <time>2022-06-08T07:01:22.000Z</time>
      </trkpt>
      <trkpt lat="43.63786" lon="6.22474">
        <ele>567.2</ele>
        <time>2022-06-08T07:01:27.000Z</time>
      </trkpt>
      <trkpt lat="43.63791" lon="6.22477">
        <ele>567.6</ele>
        <time>2022-06-08T07:01:31.000Z</time>
      </trkpt>
      <trkpt lat="43.63794" lon="6.22482">
        <ele>568</ele>
        <time>2022-06-08T07:01:35.000Z</time>
      </trkpt>
      <trkpt lat="43.63799" lon="6.22485">
        <ele>568.4</ele>
        <time>2022-06-08T07:01:38.000Z</time>
      </trkpt>
      <trkpt lat="43.63803" lon="6.22489">
        <ele>568.5</ele>
        <time>2022-06-08T07:01:43.000Z</time>
      </trkpt>
      <trkpt lat="43.63808" lon="6.22492">
        <ele>568.7</ele>
        <time>2022-06-08T07:01:47.000Z</time>
      </trkpt>
      <trkpt lat="43.63812" lon="6.22487">
        <ele>568.3</ele>
        <time>2022-06-08T07:01:49.000Z</time>
      </trkpt>
      <trkpt lat="43.63816" lon="6.22491">
        <ele>569.5</ele>
        <time>2022-06-08T07:01:53.000Z</time>
      </trkpt>
      <trkpt lat="43.63822" lon="6.22494">
        <ele>570</ele>
        <time>2022-06-08T07:01:58.000Z</time>
      </trkpt>
      <trkpt lat="43.63825" lon="6.22498">
        <ele>571.5</ele>
        <time>2022-06-08T07:02:09.000Z</time>
      </trkpt>
      <trkpt lat="43.6383" lon="6.22497">
        <ele>571.2</ele>
        <time>2022-06-08T07:02:13.000Z</time>
      </trkpt>
      <trkpt lat="43.63836" lon="6.22498">
        <ele>571</ele>
        <time>2022-06-08T07:02:18.000Z</time>
      </trkpt>
      <trkpt lat="43.63841" lon="6.22501">
        <ele>572</ele>
        <time>2022-06-08T07:02:23.000Z</time>
      </trkpt>
      <trkpt lat="43.63847" lon="6.22498">
        <ele>572.6</ele>
        <time>2022-06-08T07:02:27.000Z</time>
      </trkpt>
      <trkpt lat="43.63851" lon="6.22498">
        <ele>573.1</ele>
        <time>2022-06-08T07:02:32.000Z</time>
      </trkpt>
      <trkpt lat="43.63856" lon="6.22496">
        <ele>573.9</ele>
        <time>2022-06-08T07:02:36.000Z</time>
      </trkpt>
      <trkpt lat="43.63861" lon="6.22497">
        <ele>574.2</ele>
        <time>2022-06-08T07:02:41.000Z</time>
      </trkpt>
      <trkpt lat="43.63865" lon="6.22493">
        <ele>574.2</ele>
        <time>2022-06-08T07:02:44.000Z</time>
      </trkpt>
      <trkpt lat="43.6387" lon="6.22492">
        <ele>574.8</ele>
        <time>2022-06-08T07:02:47.000Z</time>
      </trkpt>
      <trkpt lat="43.63875" lon="6.22493">
        <ele>575.2</ele>
        <time>2022-06-08T07:02:52.000Z</time>
      </trkpt>
      <trkpt lat="43.63879" lon="6.22494">
        <ele>575.9</ele>
        <time>2022-06-08T07:02:55.000Z</time>
      </trkpt>
      <trkpt lat="43.63885" lon="6.22493">
        <ele>576.1</ele>
        <time>2022-06-08T07:03:00.000Z</time>
      </trkpt>
      <trkpt lat="43.63889" lon="6.22492">
        <ele>576.5</ele>
        <time>2022-06-08T07:03:05.000Z</time>
      </trkpt>
      <trkpt lat="43.63894" lon="6.22491">
        <ele>576.8</ele>
        <time>2022-06-08T07:03:09.000Z</time>
      </trkpt>
      <trkpt lat="43.63899" lon="6.22491">
        <ele>577.9</ele>
        <time>2022-06-08T07:03:15.000Z</time>
      </trkpt>
      <trkpt lat="43.63906" lon="6.2249">
        <ele>578.6</ele>
        <time>2022-06-08T07:03:21.000Z</time>
      </trkpt>
      <trkpt lat="43.63911" lon="6.22489">
        <ele>578.3</ele>
        <time>2022-06-08T07:03:25.000Z</time>
      </trkpt>
      <trkpt lat="43.63915" lon="6.22487">
        <ele>579.2</ele>
        <time>2022-06-08T07:03:28.000Z</time>
      </trkpt>
      <trkpt lat="43.6392" lon="6.22484">
        <ele>579.3</ele>
        <time>2022-06-08T07:03:32.000Z</time>
      </trkpt>
      <trkpt lat="43.63926" lon="6.22486">
        <ele>580.2</ele>
        <time>2022-06-08T07:03:37.000Z</time>
      </trkpt>
      <trkpt lat="43.63932" lon="6.22483">
        <ele>580.1</ele>
        <time>2022-06-08T07:03:41.000Z</time>
      </trkpt>
      <trkpt lat="43.63937" lon="6.22483">
        <ele>580.8</ele>
        <time>2022-06-08T07:03:45.000Z</time>
      </trkpt>
      <trkpt lat="43.63942" lon="6.22483">
        <ele>580.5</ele>
        <time>2022-06-08T07:03:50.000Z</time>
      </trkpt>
      <trkpt lat="43.63946" lon="6.22481">
        <ele>581.3</ele>
        <time>2022-06-08T07:03:53.000Z</time>
      </trkpt>
      <trkpt lat="43.63951" lon="6.22481">
        <ele>582</ele>
        <time>2022-06-08T07:03:57.000Z</time>
      </trkpt>
      <trkpt lat="43.63956" lon="6.22481">
        <ele>582.6</ele>
        <time>2022-06-08T07:04:02.000Z</time>
      </trkpt>
      <trkpt lat="43.63961" lon="6.22479">
        <ele>582.8</ele>
        <time>2022-06-08T07:04:08.000Z</time>
      </trkpt>
      <trkpt lat="43.63965" lon="6.22476">
        <ele>583.4</ele>
        <time>2022-06-08T07:04:11.000Z</time>
      </trkpt>
      <trkpt lat="43.6397" lon="6.22473">
        <ele>584</ele>
        <time>2022-06-08T07:04:16.000Z</time>
      </trkpt>
      <trkpt lat="43.63974" lon="6.22475">
        <ele>584.3</ele>
        <time>2022-06-08T07:04:22.000Z</time>
      </trkpt>
      <trkpt lat="43.63979" lon="6.22474">
        <ele>584.7</ele>
        <time>2022-06-08T07:04:28.000Z</time>
      </trkpt>
      <trkpt lat="43.63984" lon="6.22474">
        <ele>585.3</ele>
        <time>2022-06-08T07:04:34.000Z</time>
      </trkpt>
      <trkpt lat="43.63989" lon="6.22476">
        <ele>586.5</ele>
        <time>2022-06-08T07:04:38.000Z</time>
      </trkpt>
      <trkpt lat="43.63994" lon="6.22479">
        <ele>587.4</ele>
        <time>2022-06-08T07:04:44.000Z</time>
      </trkpt>
      <trkpt lat="43.63998" lon="6.22483">
        <ele>588.2</ele>
        <time>2022-06-08T07:04:50.000Z</time>
      </trkpt>
      <trkpt lat="43.64001" lon="6.22488">
        <ele>589</ele>
        <time>2022-06-08T07:04:56.000Z</time>
      </trkpt>
      <trkpt lat="43.64006" lon="6.22491">
        <ele>589.7</ele>
        <time>2022-06-08T07:05:01.000Z</time>
      </trkpt>
      <trkpt lat="43.6401" lon="6.22495">
        <ele>590.5</ele>
        <time>2022-06-08T07:05:07.000Z</time>
      </trkpt>
      <trkpt lat="43.64014" lon="6.225">
        <ele>591.3</ele>
        <time>2022-06-08T07:05:13.000Z</time>
      </trkpt>
      <trkpt lat="43.64018" lon="6.22502">
        <ele>591.8</ele>
        <time>2022-06-08T07:05:16.000Z</time>
      </trkpt>
      <trkpt lat="43.64023" lon="6.22505">
        <ele>592.3</ele>
        <time>2022-06-08T07:05:21.000Z</time>
      </trkpt>
      <trkpt lat="43.64027" lon="6.22507">
        <ele>592</ele>
        <time>2022-06-08T07:05:25.000Z</time>
      </trkpt>
      <trkpt lat="43.64032" lon="6.22508">
        <ele>592.9</ele>
        <time>2022-06-08T07:05:29.000Z</time>
      </trkpt>
      <trkpt lat="43.64038" lon="6.22509">
        <ele>592.6</ele>
        <time>2022-06-08T07:05:32.000Z</time>
      </trkpt>
      <trkpt lat="43.64045" lon="6.22509">
        <ele>593.1</ele>
        <time>2022-06-08T07:05:35.000Z</time>
      </trkpt>
      <trkpt lat="43.6405" lon="6.22508">
        <ele>593.3</ele>
        <time>2022-06-08T07:05:38.000Z</time>
      </trkpt>
      <trkpt lat="43.64055" lon="6.22508">
        <ele>593.7</ele>
        <time>2022-06-08T07:05:42.000Z</time>
      </trkpt>
      <trkpt lat="43.64061" lon="6.22505">
        <ele>594.4</ele>
        <time>2022-06-08T07:05:48.000Z</time>
      </trkpt>
      <trkpt lat="43.64065" lon="6.22503">
        <ele>595</ele>
        <time>2022-06-08T07:05:51.000Z</time>
      </trkpt>
      <trkpt lat="43.6407" lon="6.22502">
        <ele>595.1</ele>
        <time>2022-06-08T07:05:55.000Z</time>
      </trkpt>
      <trkpt lat="43.64075" lon="6.225">
        <ele>595.3</ele>
        <time>2022-06-08T07:06:01.000Z</time>
      </trkpt>
      <trkpt lat="43.6408" lon="6.22501">
        <ele>595.9</ele>
        <time>2022-06-08T07:06:08.000Z</time>
      </trkpt>
      <trkpt lat="43.64085" lon="6.225">
        <ele>595.9</ele>
        <time>2022-06-08T07:06:13.000Z</time>
      </trkpt>
      <trkpt lat="43.64091" lon="6.225">
        <ele>596.3</ele>
        <time>2022-06-08T07:06:17.000Z</time>
      </trkpt>
      <trkpt lat="43.64096" lon="6.22501">
        <ele>596.6</ele>
        <time>2022-06-08T07:06:21.000Z</time>
      </trkpt>
      <trkpt lat="43.641" lon="6.225">
        <ele>596.4</ele>
        <time>2022-06-08T07:06:25.000Z</time>
      </trkpt>
      <trkpt lat="43.64106" lon="6.22502">
        <ele>596.9</ele>
        <time>2022-06-08T07:06:29.000Z</time>
      </trkpt>
      <trkpt lat="43.64111" lon="6.22502">
        <ele>597.1</ele>
        <time>2022-06-08T07:06:34.000Z</time>
      </trkpt>
      <trkpt lat="43.64115" lon="6.22502">
        <ele>597.4</ele>
        <time>2022-06-08T07:06:37.000Z</time>
      </trkpt>
      <trkpt lat="43.6412" lon="6.22503">
        <ele>597.2</ele>
        <time>2022-06-08T07:06:42.000Z</time>
      </trkpt>
      <trkpt lat="43.64125" lon="6.22504">
        <ele>597.6</ele>
        <time>2022-06-08T07:06:45.000Z</time>
      </trkpt>
      <trkpt lat="43.6413" lon="6.22503">
        <ele>597.5</ele>
        <time>2022-06-08T07:06:49.000Z</time>
      </trkpt>
      <trkpt lat="43.64135" lon="6.22501">
        <ele>597.7</ele>
        <time>2022-06-08T07:06:51.000Z</time>
      </trkpt>
      <trkpt lat="43.64142" lon="6.225">
        <ele>598.1</ele>
        <time>2022-06-08T07:06:54.000Z</time>
      </trkpt>
      <trkpt lat="43.64148" lon="6.22498">
        <ele>598.2</ele>
        <time>2022-06-08T07:06:56.000Z</time>
      </trkpt>
      <trkpt lat="43.64155" lon="6.22495">
        <ele>598.2</ele>
        <time>2022-06-08T07:06:59.000Z</time>
      </trkpt>
      <trkpt lat="43.6416" lon="6.22493">
        <ele>598.5</ele>
        <time>2022-06-08T07:07:02.000Z</time>
      </trkpt>
      <trkpt lat="43.64164" lon="6.22493">
        <ele>598.6</ele>
        <time>2022-06-08T07:07:05.000Z</time>
      </trkpt>
      <trkpt lat="43.64171" lon="6.22491">
        <ele>598.5</ele>
        <time>2022-06-08T07:07:09.000Z</time>
      </trkpt>
      <trkpt lat="43.64175" lon="6.22489">
        <ele>598.7</ele>
        <time>2022-06-08T07:07:11.000Z</time>
      </trkpt>
      <trkpt lat="43.64181" lon="6.22488">
        <ele>598.6</ele>
        <time>2022-06-08T07:07:15.000Z</time>
      </trkpt>
      <trkpt lat="43.64185" lon="6.22492">
        <ele>599.1</ele>
        <time>2022-06-08T07:07:19.000Z</time>
      </trkpt>
      <trkpt lat="43.6419" lon="6.22493">
        <ele>599.5</ele>
        <time>2022-06-08T07:07:28.000Z</time>
      </trkpt>
      <trkpt lat="43.64192" lon="6.22488">
        <ele>599.8</ele>
        <time>2022-06-08T07:07:49.000Z</time>
      </trkpt>
      <trkpt lat="43.64195" lon="6.22483">
        <ele>599.6</ele>
        <time>2022-06-08T07:08:09.000Z</time>
      </trkpt>
      <trkpt lat="43.64199" lon="6.2248">
        <ele>599.8</ele>
        <time>2022-06-08T07:09:04.000Z</time>
      </trkpt>
      <trkpt lat="43.64194" lon="6.2248">
        <ele>599.7</ele>
        <time>2022-06-08T07:09:43.000Z</time>
      </trkpt>
      <trkpt lat="43.64191" lon="6.22484">
        <ele>600</ele>
        <time>2022-06-08T07:10:20.000Z</time>
      </trkpt>
      <trkpt lat="43.64194" lon="6.2249">
        <ele>600.1</ele>
        <time>2022-06-08T07:10:33.000Z</time>
      </trkpt>
      <trkpt lat="43.64195" lon="6.22496">
        <ele>600.1</ele>
        <time>2022-06-08T07:10:38.000Z</time>
      </trkpt>
      <trkpt lat="43.64194" lon="6.22503">
        <ele>599.9</ele>
        <time>2022-06-08T07:10:42.000Z</time>
      </trkpt>
      <trkpt lat="43.64192" lon="6.22511">
        <ele>600.4</ele>
        <time>2022-06-08T07:10:45.000Z</time>
      </trkpt>
      <trkpt lat="43.6419" lon="6.22518">
        <ele>600.3</ele>
        <time>2022-06-08T07:10:49.000Z</time>
      </trkpt>
      <trkpt lat="43.6419" lon="6.22526">
        <ele>600.7</ele>
        <time>2022-06-08T07:10:52.000Z</time>
      </trkpt>
      <trkpt lat="43.64192" lon="6.22532">
        <ele>601.1</ele>
        <time>2022-06-08T07:10:57.000Z</time>
      </trkpt>
      <trkpt lat="43.64195" lon="6.22537">
        <ele>601.1</ele>
        <time>2022-06-08T07:11:01.000Z</time>
      </trkpt>
      <trkpt lat="43.64199" lon="6.22543">
        <ele>601.8</ele>
        <time>2022-06-08T07:11:05.000Z</time>
      </trkpt>
      <trkpt lat="43.64202" lon="6.22548">
        <ele>602.2</ele>
        <time>2022-06-08T07:11:10.000Z</time>
      </trkpt>
      <trkpt lat="43.64207" lon="6.22551">
        <ele>602.7</ele>
        <time>2022-06-08T07:11:15.000Z</time>
      </trkpt>
      <trkpt lat="43.64212" lon="6.22553">
        <ele>602.9</ele>
        <time>2022-06-08T07:11:20.000Z</time>
      </trkpt>
      <trkpt lat="43.64218" lon="6.22552">
        <ele>603.7</ele>
        <time>2022-06-08T07:11:23.000Z</time>
      </trkpt>
      <trkpt lat="43.64224" lon="6.22552">
        <ele>603.7</ele>
        <time>2022-06-08T07:11:27.000Z</time>
      </trkpt>
      <trkpt lat="43.64229" lon="6.2255">
        <ele>604.2</ele>
        <time>2022-06-08T07:11:32.000Z</time>
      </trkpt>
      <trkpt lat="43.64233" lon="6.22548">
        <ele>604.9</ele>
        <time>2022-06-08T07:11:37.000Z</time>
      </trkpt>
      <trkpt lat="43.64238" lon="6.22547">
        <ele>605.7</ele>
        <time>2022-06-08T07:11:42.000Z</time>
      </trkpt>
      <trkpt lat="43.64243" lon="6.22545">
        <ele>606.5</ele>
        <time>2022-06-08T07:11:47.000Z</time>
      </trkpt>
      <trkpt lat="43.64248" lon="6.22543">
        <ele>608.1</ele>
        <time>2022-06-08T07:11:54.000Z</time>
      </trkpt>
      <trkpt lat="43.64253" lon="6.22541">
        <ele>608.6</ele>
        <time>2022-06-08T07:12:00.000Z</time>
      </trkpt>
      <trkpt lat="43.64257" lon="6.22544">
        <ele>609.1</ele>
        <time>2022-06-08T07:12:09.000Z</time>
      </trkpt>
      <trkpt lat="43.64262" lon="6.22544">
        <ele>610.9</ele>
        <time>2022-06-08T07:12:14.000Z</time>
      </trkpt>
      <trkpt lat="43.64267" lon="6.22542">
        <ele>611.4</ele>
        <time>2022-06-08T07:12:18.000Z</time>
      </trkpt>
      <trkpt lat="43.64271" lon="6.22542">
        <ele>611.7</ele>
        <time>2022-06-08T07:12:23.000Z</time>
      </trkpt>
      <trkpt lat="43.64276" lon="6.22541">
        <ele>612</ele>
        <time>2022-06-08T07:12:26.000Z</time>
      </trkpt>
      <trkpt lat="43.64281" lon="6.22541">
        <ele>613.1</ele>
        <time>2022-06-08T07:12:30.000Z</time>
      </trkpt>
      <trkpt lat="43.64287" lon="6.22542">
        <ele>614</ele>
        <time>2022-06-08T07:12:36.000Z</time>
      </trkpt>
      <trkpt lat="43.64291" lon="6.22542">
        <ele>615</ele>
        <time>2022-06-08T07:12:44.000Z</time>
      </trkpt>
      <trkpt lat="43.64296" lon="6.22543">
        <ele>616.7</ele>
        <time>2022-06-08T07:12:51.000Z</time>
      </trkpt>
      <trkpt lat="43.64301" lon="6.22545">
        <ele>618.6</ele>
        <time>2022-06-08T07:12:59.000Z</time>
      </trkpt>
      <trkpt lat="43.64305" lon="6.22548">
        <ele>619.8</ele>
        <time>2022-06-08T07:13:07.000Z</time>
      </trkpt>
      <trkpt lat="43.64309" lon="6.22547">
        <ele>620</ele>
        <time>2022-06-08T07:13:11.000Z</time>
      </trkpt>
      <trkpt lat="43.64314" lon="6.2255">
        <ele>620.9</ele>
        <time>2022-06-08T07:13:15.000Z</time>
      </trkpt>
      <trkpt lat="43.64318" lon="6.22553">
        <ele>621.5</ele>
        <time>2022-06-08T07:13:20.000Z</time>
      </trkpt>
      <trkpt lat="43.64321" lon="6.22558">
        <ele>622.4</ele>
        <time>2022-06-08T07:13:25.000Z</time>
      </trkpt>
      <trkpt lat="43.64323" lon="6.22564">
        <ele>623</ele>
        <time>2022-06-08T07:13:31.000Z</time>
      </trkpt>
      <trkpt lat="43.64328" lon="6.22568">
        <ele>623.6</ele>
        <time>2022-06-08T07:13:36.000Z</time>
      </trkpt>
      <trkpt lat="43.64332" lon="6.22572">
        <ele>624.3</ele>
        <time>2022-06-08T07:13:40.000Z</time>
      </trkpt>
      <trkpt lat="43.64336" lon="6.22575">
        <ele>624.7</ele>
        <time>2022-06-08T07:13:45.000Z</time>
      </trkpt>
      <trkpt lat="43.64341" lon="6.22578">
        <ele>625.1</ele>
        <time>2022-06-08T07:13:50.000Z</time>
      </trkpt>
      <trkpt lat="43.64345" lon="6.22583">
        <ele>625.7</ele>
        <time>2022-06-08T07:13:54.000Z</time>
      </trkpt>
      <trkpt lat="43.6435" lon="6.22585">
        <ele>625.9</ele>
        <time>2022-06-08T07:13:59.000Z</time>
      </trkpt>
      <trkpt lat="43.64355" lon="6.22587">
        <ele>626</ele>
        <time>2022-06-08T07:14:03.000Z</time>
      </trkpt>
      <trkpt lat="43.6436" lon="6.2259">
        <ele>626.2</ele>
        <time>2022-06-08T07:14:08.000Z</time>
      </trkpt>
      <trkpt lat="43.64361" lon="6.22597">
        <ele>626.1</ele>
        <time>2022-06-08T07:14:13.000Z</time>
      </trkpt>
      <trkpt lat="43.64364" lon="6.22603">
        <ele>626.1</ele>
        <time>2022-06-08T07:14:17.000Z</time>
      </trkpt>
      <trkpt lat="43.64368" lon="6.22606">
        <ele>625.8</ele>
        <time>2022-06-08T07:14:21.000Z</time>
      </trkpt>
      <trkpt lat="43.6437" lon="6.22612">
        <ele>625.9</ele>
        <time>2022-06-08T07:14:26.000Z</time>
      </trkpt>
      <trkpt lat="43.64373" lon="6.22617">
        <ele>625.8</ele>
        <time>2022-06-08T07:14:30.000Z</time>
      </trkpt>
      <trkpt lat="43.64372" lon="6.22624">
        <ele>625.3</ele>
        <time>2022-06-08T07:14:34.000Z</time>
      </trkpt>
      <trkpt lat="43.64372" lon="6.22632">
        <ele>625.1</ele>
        <time>2022-06-08T07:14:38.000Z</time>
      </trkpt>
      <trkpt lat="43.64373" lon="6.22639">
        <ele>624.3</ele>
        <time>2022-06-08T07:14:43.000Z</time>
      </trkpt>
      <trkpt lat="43.64373" lon="6.22646">
        <ele>623.7</ele>
        <time>2022-06-08T07:14:48.000Z</time>
      </trkpt>
      <trkpt lat="43.64372" lon="6.22653">
        <ele>623.4</ele>
        <time>2022-06-08T07:14:53.000Z</time>
      </trkpt>
      <trkpt lat="43.6437" lon="6.22659">
        <ele>622.6</ele>
        <time>2022-06-08T07:14:58.000Z</time>
      </trkpt>
      <trkpt lat="43.64372" lon="6.22664">
        <ele>622.5</ele>
        <time>2022-06-08T07:15:03.000Z</time>
      </trkpt>
      <trkpt lat="43.64374" lon="6.22671">
        <ele>622.6</ele>
        <time>2022-06-08T07:15:08.000Z</time>
      </trkpt>
      <trkpt lat="43.64375" lon="6.22676">
        <ele>622.4</ele>
        <time>2022-06-08T07:15:19.000Z</time>
      </trkpt>
      <trkpt lat="43.64379" lon="6.22682">
        <ele>622.3</ele>
        <time>2022-06-08T07:15:27.000Z</time>
      </trkpt>
      <trkpt lat="43.6438" lon="6.22688">
        <ele>622</ele>
        <time>2022-06-08T07:15:31.000Z</time>
      </trkpt>
      <trkpt lat="43.64385" lon="6.22692">
        <ele>621.7</ele>
        <time>2022-06-08T07:15:36.000Z</time>
      </trkpt>
      <trkpt lat="43.64389" lon="6.22695">
        <ele>621.7</ele>
        <time>2022-06-08T07:15:39.000Z</time>
      </trkpt>
      <trkpt lat="43.64392" lon="6.22699">
        <ele>621</ele>
        <time>2022-06-08T07:15:45.000Z</time>
      </trkpt>
      <trkpt lat="43.64397" lon="6.22703">
        <ele>621</ele>
        <time>2022-06-08T07:15:49.000Z</time>
      </trkpt>
      <trkpt lat="43.64401" lon="6.22709">
        <ele>620.5</ele>
        <time>2022-06-08T07:15:56.000Z</time>
      </trkpt>
      <trkpt lat="43.64404" lon="6.22714">
        <ele>620.1</ele>
        <time>2022-06-08T07:16:02.000Z</time>
      </trkpt>
      <trkpt lat="43.64408" lon="6.22719">
        <ele>620</ele>
        <time>2022-06-08T07:16:06.000Z</time>
      </trkpt>
      <trkpt lat="43.64411" lon="6.22725">
        <ele>619.7</ele>
        <time>2022-06-08T07:16:11.000Z</time>
      </trkpt>
      <trkpt lat="43.64413" lon="6.22731">
        <ele>619.3</ele>
        <time>2022-06-08T07:16:16.000Z</time>
      </trkpt>
      <trkpt lat="43.64413" lon="6.22738">
        <ele>618.7</ele>
        <time>2022-06-08T07:16:21.000Z</time>
      </trkpt>
      <trkpt lat="43.64412" lon="6.22745">
        <ele>618.5</ele>
        <time>2022-06-08T07:16:25.000Z</time>
      </trkpt>
      <trkpt lat="43.64414" lon="6.22751">
        <ele>618</ele>
        <time>2022-06-08T07:16:30.000Z</time>
      </trkpt>
      <trkpt lat="43.64416" lon="6.22758">
        <ele>617.7</ele>
        <time>2022-06-08T07:16:35.000Z</time>
      </trkpt>
      <trkpt lat="43.6442" lon="6.22763">
        <ele>617.2</ele>
        <time>2022-06-08T07:16:41.000Z</time>
      </trkpt>
      <trkpt lat="43.64424" lon="6.22768">
        <ele>616.9</ele>
        <time>2022-06-08T07:16:45.000Z</time>
      </trkpt>
      <trkpt lat="43.64423" lon="6.22775">
        <ele>616.6</ele>
        <time>2022-06-08T07:17:19.000Z</time>
      </trkpt>
      <trkpt lat="43.64427" lon="6.2278">
        <ele>616.4</ele>
        <time>2022-06-08T07:17:25.000Z</time>
      </trkpt>
      <trkpt lat="43.6443" lon="6.22785">
        <ele>616.3</ele>
        <time>2022-06-08T07:17:30.000Z</time>
      </trkpt>
      <trkpt lat="43.64434" lon="6.22789">
        <ele>616.3</ele>
        <time>2022-06-08T07:17:34.000Z</time>
      </trkpt>
      <trkpt lat="43.64437" lon="6.22794">
        <ele>616.2</ele>
        <time>2022-06-08T07:17:39.000Z</time>
      </trkpt>
      <trkpt lat="43.64441" lon="6.22798">
        <ele>616.4</ele>
        <time>2022-06-08T07:17:45.000Z</time>
      </trkpt>
      <trkpt lat="43.64444" lon="6.22803">
        <ele>616.6</ele>
        <time>2022-06-08T07:17:49.000Z</time>
      </trkpt>
      <trkpt lat="43.64448" lon="6.22808">
        <ele>616.6</ele>
        <time>2022-06-08T07:17:52.000Z</time>
      </trkpt>
      <trkpt lat="43.64452" lon="6.22812">
        <ele>616.3</ele>
        <time>2022-06-08T07:17:57.000Z</time>
      </trkpt>
      <trkpt lat="43.64455" lon="6.22817">
        <ele>616.1</ele>
        <time>2022-06-08T07:18:03.000Z</time>
      </trkpt>
      <trkpt lat="43.6446" lon="6.2282">
        <ele>616.3</ele>
        <time>2022-06-08T07:18:06.000Z</time>
      </trkpt>
      <trkpt lat="43.64463" lon="6.22825">
        <ele>616.3</ele>
        <time>2022-06-08T07:18:10.000Z</time>
      </trkpt>
      <trkpt lat="43.64467" lon="6.22831">
        <ele>616.3</ele>
        <time>2022-06-08T07:18:15.000Z</time>
      </trkpt>
      <trkpt lat="43.64469" lon="6.22836">
        <ele>616.1</ele>
        <time>2022-06-08T07:18:21.000Z</time>
      </trkpt>
      <trkpt lat="43.64473" lon="6.22841">
        <ele>616.1</ele>
        <time>2022-06-08T07:18:25.000Z</time>
      </trkpt>
      <trkpt lat="43.64477" lon="6.22845">
        <ele>615.8</ele>
        <time>2022-06-08T07:18:30.000Z</time>
      </trkpt>
      <trkpt lat="43.64481" lon="6.22849">
        <ele>615.7</ele>
        <time>2022-06-08T07:18:34.000Z</time>
      </trkpt>
      <trkpt lat="43.64486" lon="6.22853">
        <ele>615.2</ele>
        <time>2022-06-08T07:18:39.000Z</time>
      </trkpt>
      <trkpt lat="43.6449" lon="6.22856">
        <ele>615</ele>
        <time>2022-06-08T07:18:44.000Z</time>
      </trkpt>
      <trkpt lat="43.64495" lon="6.2286">
        <ele>615</ele>
        <time>2022-06-08T07:18:48.000Z</time>
      </trkpt>
      <trkpt lat="43.64498" lon="6.22865">
        <ele>614.6</ele>
        <time>2022-06-08T07:18:55.000Z</time>
      </trkpt>
      <trkpt lat="43.64502" lon="6.22869">
        <ele>614.3</ele>
        <time>2022-06-08T07:19:01.000Z</time>
      </trkpt>
      <trkpt lat="43.64506" lon="6.22874">
        <ele>614.2</ele>
        <time>2022-06-08T07:19:05.000Z</time>
      </trkpt>
      <trkpt lat="43.64509" lon="6.2288">
        <ele>613.5</ele>
        <time>2022-06-08T07:19:11.000Z</time>
      </trkpt>
      <trkpt lat="43.64512" lon="6.22885">
        <ele>613</ele>
        <time>2022-06-08T07:19:16.000Z</time>
      </trkpt>
      <trkpt lat="43.64515" lon="6.22891">
        <ele>612.6</ele>
        <time>2022-06-08T07:19:21.000Z</time>
      </trkpt>
      <trkpt lat="43.64517" lon="6.22899">
        <ele>612.3</ele>
        <time>2022-06-08T07:19:27.000Z</time>
      </trkpt>
      <trkpt lat="43.64517" lon="6.22905">
        <ele>612</ele>
        <time>2022-06-08T07:19:31.000Z</time>
      </trkpt>
      <trkpt lat="43.64518" lon="6.22911">
        <ele>612</ele>
        <time>2022-06-08T07:19:35.000Z</time>
      </trkpt>
      <trkpt lat="43.64518" lon="6.22918">
        <ele>611.6</ele>
        <time>2022-06-08T07:19:41.000Z</time>
      </trkpt>
      <trkpt lat="43.64519" lon="6.22925">
        <ele>611.7</ele>
        <time>2022-06-08T07:19:45.000Z</time>
      </trkpt>
      <trkpt lat="43.64522" lon="6.22932">
        <ele>611.9</ele>
        <time>2022-06-08T07:19:58.000Z</time>
      </trkpt>
      <trkpt lat="43.64525" lon="6.22936">
        <ele>612</ele>
        <time>2022-06-08T07:20:02.000Z</time>
      </trkpt>
      <trkpt lat="43.64527" lon="6.22942">
        <ele>612.3</ele>
        <time>2022-06-08T07:20:06.000Z</time>
      </trkpt>
      <trkpt lat="43.64529" lon="6.22949">
        <ele>612.6</ele>
        <time>2022-06-08T07:20:11.000Z</time>
      </trkpt>
      <trkpt lat="43.64532" lon="6.22955">
        <ele>612.8</ele>
        <time>2022-06-08T07:20:16.000Z</time>
      </trkpt>
      <trkpt lat="43.64536" lon="6.22958">
        <ele>613.2</ele>
        <time>2022-06-08T07:20:20.000Z</time>
      </trkpt>
      <trkpt lat="43.64539" lon="6.22963">
        <ele>613.7</ele>
        <time>2022-06-08T07:20:23.000Z</time>
      </trkpt>
      <trkpt lat="43.64543" lon="6.22966">
        <ele>613.7</ele>
        <time>2022-06-08T07:20:27.000Z</time>
      </trkpt>
      <trkpt lat="43.64546" lon="6.22972">
        <ele>614.3</ele>
        <time>2022-06-08T07:20:31.000Z</time>
      </trkpt>
      <trkpt lat="43.6455" lon="6.22975">
        <ele>614.3</ele>
        <time>2022-06-08T07:20:36.000Z</time>
      </trkpt>
      <trkpt lat="43.64553" lon="6.2298">
        <ele>614.6</ele>
        <time>2022-06-08T07:20:40.000Z</time>
      </trkpt>
      <trkpt lat="43.64557" lon="6.22985">
        <ele>614.5</ele>
        <time>2022-06-08T07:20:45.000Z</time>
      </trkpt>
      <trkpt lat="43.6456" lon="6.22989">
        <ele>614.7</ele>
        <time>2022-06-08T07:20:48.000Z</time>
      </trkpt>
      <trkpt lat="43.64565" lon="6.22991">
        <ele>614.5</ele>
        <time>2022-06-08T07:20:54.000Z</time>
      </trkpt>
      <trkpt lat="43.64569" lon="6.22996">
        <ele>614.5</ele>
        <time>2022-06-08T07:20:59.000Z</time>
      </trkpt>
      <trkpt lat="43.64574" lon="6.22998">
        <ele>614.5</ele>
        <time>2022-06-08T07:21:03.000Z</time>
      </trkpt>
      <trkpt lat="43.64578" lon="6.23002">
        <ele>614.4</ele>
        <time>2022-06-08T07:21:06.000Z</time>
      </trkpt>
      <trkpt lat="43.64582" lon="6.23006">
        <ele>614.1</ele>
        <time>2022-06-08T07:21:10.000Z</time>
      </trkpt>
      <trkpt lat="43.64586" lon="6.23011">
        <ele>613.9</ele>
        <time>2022-06-08T07:21:14.000Z</time>
      </trkpt>
      <trkpt lat="43.6459" lon="6.23016">
        <ele>613.8</ele>
        <time>2022-06-08T07:21:17.000Z</time>
      </trkpt>
      <trkpt lat="43.64594" lon="6.23022">
        <ele>613.6</ele>
        <time>2022-06-08T07:21:21.000Z</time>
      </trkpt>
      <trkpt lat="43.64599" lon="6.23026">
        <ele>613.5</ele>
        <time>2022-06-08T07:21:24.000Z</time>
      </trkpt>
      <trkpt lat="43.64603" lon="6.2303">
        <ele>613.3</ele>
        <time>2022-06-08T07:21:27.000Z</time>
      </trkpt>
      <trkpt lat="43.64607" lon="6.23036">
        <ele>613.3</ele>
        <time>2022-06-08T07:21:30.000Z</time>
      </trkpt>
      <trkpt lat="43.64611" lon="6.2304">
        <ele>613.3</ele>
        <time>2022-06-08T07:21:34.000Z</time>
      </trkpt>
      <trkpt lat="43.64616" lon="6.23045">
        <ele>613.3</ele>
        <time>2022-06-08T07:21:38.000Z</time>
      </trkpt>
      <trkpt lat="43.6462" lon="6.23049">
        <ele>613.3</ele>
        <time>2022-06-08T07:21:41.000Z</time>
      </trkpt>
      <trkpt lat="43.64623" lon="6.23054">
        <ele>613.4</ele>
        <time>2022-06-08T07:21:45.000Z</time>
      </trkpt>
      <trkpt lat="43.64626" lon="6.23059">
        <ele>613.4</ele>
        <time>2022-06-08T07:21:49.000Z</time>
      </trkpt>
      <trkpt lat="43.6463" lon="6.23062">
        <ele>613.5</ele>
        <time>2022-06-08T07:21:52.000Z</time>
      </trkpt>
      <trkpt lat="43.64633" lon="6.23068">
        <ele>613.7</ele>
        <time>2022-06-08T07:21:57.000Z</time>
      </trkpt>
      <trkpt lat="43.64634" lon="6.23062">
        <ele>613.7</ele>
        <time>2022-06-08T07:22:05.000Z</time>
      </trkpt>
      <trkpt lat="43.64637" lon="6.23067">
        <ele>613.5</ele>
        <time>2022-06-08T07:22:14.000Z</time>
      </trkpt>
      <trkpt lat="43.64632" lon="6.23066">
        <ele>613.4</ele>
        <time>2022-06-08T07:22:34.000Z</time>
      </trkpt>
      <trkpt lat="43.64627" lon="6.23063">
        <ele>613</ele>
        <time>2022-06-08T07:22:38.000Z</time>
      </trkpt>
      <trkpt lat="43.64622" lon="6.23062">
        <ele>613</ele>
        <time>2022-06-08T07:22:42.000Z</time>
      </trkpt>
      <trkpt lat="43.64616" lon="6.23061">
        <ele>613.1</ele>
        <time>2022-06-08T07:22:45.000Z</time>
      </trkpt>
      <trkpt lat="43.6461" lon="6.2306">
        <ele>613.1</ele>
        <time>2022-06-08T07:22:48.000Z</time>
      </trkpt>
      <trkpt lat="43.64605" lon="6.23058">
        <ele>613.1</ele>
        <time>2022-06-08T07:22:51.000Z</time>
      </trkpt>
      <trkpt lat="43.64598" lon="6.23056">
        <ele>613.3</ele>
        <time>2022-06-08T07:22:55.000Z</time>
      </trkpt>
      <trkpt lat="43.64592" lon="6.23055">
        <ele>613</ele>
        <time>2022-06-08T07:22:58.000Z</time>
      </trkpt>
      <trkpt lat="43.64586" lon="6.23055">
        <ele>613.2</ele>
        <time>2022-06-08T07:23:01.000Z</time>
      </trkpt>
      <trkpt lat="43.64581" lon="6.23056">
        <ele>613.4</ele>
        <time>2022-06-08T07:23:03.000Z</time>
      </trkpt>
      <trkpt lat="43.64574" lon="6.23055">
        <ele>613.5</ele>
        <time>2022-06-08T07:23:05.000Z</time>
      </trkpt>
      <trkpt lat="43.64568" lon="6.23054">
        <ele>613.5</ele>
        <time>2022-06-08T07:23:07.000Z</time>
      </trkpt>
      <trkpt lat="43.64563" lon="6.23053">
        <ele>613.4</ele>
        <time>2022-06-08T07:23:10.000Z</time>
      </trkpt>
      <trkpt lat="43.64558" lon="6.23052">
        <ele>613.6</ele>
        <time>2022-06-08T07:23:12.000Z</time>
      </trkpt>
      <trkpt lat="43.64552" lon="6.23055">
        <ele>613.7</ele>
        <time>2022-06-08T07:23:15.000Z</time>
      </trkpt>
      <trkpt lat="43.64546" lon="6.23055">
        <ele>613.7</ele>
        <time>2022-06-08T07:23:18.000Z</time>
      </trkpt>
      <trkpt lat="43.64541" lon="6.23057">
        <ele>613.2</ele>
        <time>2022-06-08T07:23:22.000Z</time>
      </trkpt>
      <trkpt lat="43.64537" lon="6.23062">
        <ele>613.4</ele>
        <time>2022-06-08T07:23:26.000Z</time>
      </trkpt>
      <trkpt lat="43.64532" lon="6.23066">
        <ele>613.5</ele>
        <time>2022-06-08T07:23:29.000Z</time>
      </trkpt>
      <trkpt lat="43.64527" lon="6.2307">
        <ele>613.3</ele>
        <time>2022-06-08T07:23:33.000Z</time>
      </trkpt>
      <trkpt lat="43.64525" lon="6.23075">
        <ele>613.5</ele>
        <time>2022-06-08T07:23:36.000Z</time>
      </trkpt>
      <trkpt lat="43.64521" lon="6.2308">
        <ele>613.8</ele>
        <time>2022-06-08T07:23:39.000Z</time>
      </trkpt>
      <trkpt lat="43.64521" lon="6.23088">
        <ele>613.9</ele>
        <time>2022-06-08T07:23:44.000Z</time>
      </trkpt>
      <trkpt lat="43.64519" lon="6.23095">
        <ele>613.9</ele>
        <time>2022-06-08T07:23:49.000Z</time>
      </trkpt>
      <trkpt lat="43.64517" lon="6.23101">
        <ele>614.3</ele>
        <time>2022-06-08T07:23:53.000Z</time>
      </trkpt>
      <trkpt lat="43.64516" lon="6.23108">
        <ele>614.5</ele>
        <time>2022-06-08T07:23:57.000Z</time>
      </trkpt>
      <trkpt lat="43.64518" lon="6.23115">
        <ele>614.5</ele>
        <time>2022-06-08T07:24:00.000Z</time>
      </trkpt>
      <trkpt lat="43.6452" lon="6.23122">
        <ele>614.7</ele>
        <time>2022-06-08T07:24:02.000Z</time>
      </trkpt>
      <trkpt lat="43.64522" lon="6.23129">
        <ele>614.8</ele>
        <time>2022-06-08T07:24:04.000Z</time>
      </trkpt>
      <trkpt lat="43.64524" lon="6.23136">
        <ele>614.9</ele>
        <time>2022-06-08T07:24:06.000Z</time>
      </trkpt>
      <trkpt lat="43.64526" lon="6.23144">
        <ele>615</ele>
        <time>2022-06-08T07:24:08.000Z</time>
      </trkpt>
      <trkpt lat="43.64527" lon="6.2315">
        <ele>615</ele>
        <time>2022-06-08T07:24:11.000Z</time>
      </trkpt>
      <trkpt lat="43.6453" lon="6.23156">
        <ele>614.6</ele>
        <time>2022-06-08T07:24:14.000Z</time>
      </trkpt>
      <trkpt lat="43.64533" lon="6.23162">
        <ele>614.7</ele>
        <time>2022-06-08T07:24:18.000Z</time>
      </trkpt>
      <trkpt lat="43.64531" lon="6.23168">
        <ele>614.7</ele>
        <time>2022-06-08T07:24:20.000Z</time>
      </trkpt>
      <trkpt lat="43.64528" lon="6.23173">
        <ele>614.7</ele>
        <time>2022-06-08T07:24:22.000Z</time>
      </trkpt>
      <trkpt lat="43.64525" lon="6.23179">
        <ele>614.7</ele>
        <time>2022-06-08T07:24:25.000Z</time>
      </trkpt>
      <trkpt lat="43.64527" lon="6.23185">
        <ele>614.4</ele>
        <time>2022-06-08T07:24:27.000Z</time>
      </trkpt>
      <trkpt lat="43.64526" lon="6.23193">
        <ele>614.4</ele>
        <time>2022-06-08T07:24:31.000Z</time>
      </trkpt>
      <trkpt lat="43.64523" lon="6.23198">
        <ele>614.5</ele>
        <time>2022-06-08T07:24:34.000Z</time>
      </trkpt>
      <trkpt lat="43.64522" lon="6.23206">
        <ele>614.3</ele>
        <time>2022-06-08T07:24:39.000Z</time>
      </trkpt>
      <trkpt lat="43.6452" lon="6.23213">
        <ele>614.5</ele>
        <time>2022-06-08T07:24:42.000Z</time>
      </trkpt>
      <trkpt lat="43.64517" lon="6.23219">
        <ele>614.6</ele>
        <time>2022-06-08T07:24:46.000Z</time>
      </trkpt>
      <trkpt lat="43.64514" lon="6.23224">
        <ele>614.4</ele>
        <time>2022-06-08T07:24:49.000Z</time>
      </trkpt>
      <trkpt lat="43.64511" lon="6.23229">
        <ele>614.4</ele>
        <time>2022-06-08T07:24:51.000Z</time>
      </trkpt>
      <trkpt lat="43.64508" lon="6.23234">
        <ele>614.4</ele>
        <time>2022-06-08T07:24:54.000Z</time>
      </trkpt>
      <trkpt lat="43.64507" lon="6.23241">
        <ele>614.5</ele>
        <time>2022-06-08T07:24:58.000Z</time>
      </trkpt>
      <trkpt lat="43.64507" lon="6.23249">
        <ele>614.6</ele>
        <time>2022-06-08T07:25:02.000Z</time>
      </trkpt>
      <trkpt lat="43.64506" lon="6.23255">
        <ele>614.7</ele>
        <time>2022-06-08T07:25:05.000Z</time>
      </trkpt>
      <trkpt lat="43.64502" lon="6.2326">
        <ele>614.8</ele>
        <time>2022-06-08T07:25:10.000Z</time>
      </trkpt>
      <trkpt lat="43.645" lon="6.23267">
        <ele>614.8</ele>
        <time>2022-06-08T07:25:15.000Z</time>
      </trkpt>
      <trkpt lat="43.64497" lon="6.23271">
        <ele>614.7</ele>
        <time>2022-06-08T07:25:32.000Z</time>
      </trkpt>
      <trkpt lat="43.64495" lon="6.23277">
        <ele>614.6</ele>
        <time>2022-06-08T07:25:38.000Z</time>
      </trkpt>
      <trkpt lat="43.64493" lon="6.23285">
        <ele>614.7</ele>
        <time>2022-06-08T07:25:42.000Z</time>
      </trkpt>
      <trkpt lat="43.64493" lon="6.23292">
        <ele>614.7</ele>
        <time>2022-06-08T07:25:47.000Z</time>
      </trkpt>
      <trkpt lat="43.64493" lon="6.23299">
        <ele>614.7</ele>
        <time>2022-06-08T07:25:51.000Z</time>
      </trkpt>
      <trkpt lat="43.64497" lon="6.23304">
        <ele>614.6</ele>
        <time>2022-06-08T07:25:54.000Z</time>
      </trkpt>
      <trkpt lat="43.64498" lon="6.23311">
        <ele>614.7</ele>
        <time>2022-06-08T07:26:10.000Z</time>
      </trkpt>
      <trkpt lat="43.64498" lon="6.23319">
        <ele>614.6</ele>
        <time>2022-06-08T07:26:15.000Z</time>
      </trkpt>
      <trkpt lat="43.64498" lon="6.23326">
        <ele>614.7</ele>
        <time>2022-06-08T07:26:19.000Z</time>
      </trkpt>
      <trkpt lat="43.64498" lon="6.23333">
        <ele>614.8</ele>
        <time>2022-06-08T07:26:23.000Z</time>
      </trkpt>
      <trkpt lat="43.64499" lon="6.23341">
        <ele>614.7</ele>
        <time>2022-06-08T07:26:28.000Z</time>
      </trkpt>
      <trkpt lat="43.64499" lon="6.23347">
        <ele>614.7</ele>
        <time>2022-06-08T07:26:33.000Z</time>
      </trkpt>
      <trkpt lat="43.645" lon="6.23355">
        <ele>614.8</ele>
        <time>2022-06-08T07:26:38.000Z</time>
      </trkpt>
      <trkpt lat="43.64503" lon="6.23361">
        <ele>614.6</ele>
        <time>2022-06-08T07:26:43.000Z</time>
      </trkpt>
      <trkpt lat="43.64506" lon="6.23367">
        <ele>614.7</ele>
        <time>2022-06-08T07:26:47.000Z</time>
      </trkpt>
      <trkpt lat="43.64508" lon="6.23373">
        <ele>614.7</ele>
        <time>2022-06-08T07:26:51.000Z</time>
      </trkpt>
      <trkpt lat="43.64511" lon="6.23379">
        <ele>614.6</ele>
        <time>2022-06-08T07:26:56.000Z</time>
      </trkpt>
      <trkpt lat="43.64512" lon="6.23386">
        <ele>614.7</ele>
        <time>2022-06-08T07:27:00.000Z</time>
      </trkpt>
      <trkpt lat="43.64513" lon="6.23393">
        <ele>614.7</ele>
        <time>2022-06-08T07:27:06.000Z</time>
      </trkpt>
      <trkpt lat="43.64512" lon="6.23399">
        <ele>615</ele>
        <time>2022-06-08T07:27:09.000Z</time>
      </trkpt>
      <trkpt lat="43.6451" lon="6.23406">
        <ele>615</ele>
        <time>2022-06-08T07:27:15.000Z</time>
      </trkpt>
      <trkpt lat="43.64507" lon="6.23411">
        <ele>615.2</ele>
        <time>2022-06-08T07:27:18.000Z</time>
      </trkpt>
      <trkpt lat="43.64502" lon="6.23414">
        <ele>615</ele>
        <time>2022-06-08T07:27:23.000Z</time>
      </trkpt>
      <trkpt lat="43.64496" lon="6.23414">
        <ele>615.3</ele>
        <time>2022-06-08T07:27:26.000Z</time>
      </trkpt>
      <trkpt lat="43.64491" lon="6.23414">
        <ele>615.4</ele>
        <time>2022-06-08T07:27:28.000Z</time>
      </trkpt>
      <trkpt lat="43.64485" lon="6.23413">
        <ele>615.1</ele>
        <time>2022-06-08T07:27:31.000Z</time>
      </trkpt>
      <trkpt lat="43.6448" lon="6.23412">
        <ele>615.5</ele>
        <time>2022-06-08T07:27:35.000Z</time>
      </trkpt>
      <trkpt lat="43.64475" lon="6.23412">
        <ele>615.7</ele>
        <time>2022-06-08T07:27:38.000Z</time>
      </trkpt>
      <trkpt lat="43.64469" lon="6.23413">
        <ele>615.6</ele>
        <time>2022-06-08T07:27:43.000Z</time>
      </trkpt>
      <trkpt lat="43.64465" lon="6.23415">
        <ele>615.9</ele>
        <time>2022-06-08T07:27:47.000Z</time>
      </trkpt>
      <trkpt lat="43.6446" lon="6.23415">
        <ele>615.7</ele>
        <time>2022-06-08T07:27:51.000Z</time>
      </trkpt>
      <trkpt lat="43.64453" lon="6.23417">
        <ele>615.8</ele>
        <time>2022-06-08T07:27:54.000Z</time>
      </trkpt>
      <trkpt lat="43.64448" lon="6.23418">
        <ele>615.8</ele>
        <time>2022-06-08T07:27:56.000Z</time>
      </trkpt>
      <trkpt lat="43.64443" lon="6.23418">
        <ele>615.6</ele>
        <time>2022-06-08T07:27:59.000Z</time>
      </trkpt>
      <trkpt lat="43.64437" lon="6.23415">
        <ele>615.5</ele>
        <time>2022-06-08T07:28:02.000Z</time>
      </trkpt>
      <trkpt lat="43.64433" lon="6.23413">
        <ele>615.5</ele>
        <time>2022-06-08T07:28:04.000Z</time>
      </trkpt>
      <trkpt lat="43.6443" lon="6.23408">
        <ele>615.3</ele>
        <time>2022-06-08T07:28:07.000Z</time>
      </trkpt>
      <trkpt lat="43.64425" lon="6.2341">
        <ele>615.3</ele>
        <time>2022-06-08T07:28:16.000Z</time>
      </trkpt>
      <trkpt lat="43.6442" lon="6.23413">
        <ele>615.2</ele>
        <time>2022-06-08T07:28:20.000Z</time>
      </trkpt>
      <trkpt lat="43.64418" lon="6.23419">
        <ele>614.8</ele>
        <time>2022-06-08T07:28:25.000Z</time>
      </trkpt>
      <trkpt lat="43.64414" lon="6.23423">
        <ele>614.5</ele>
        <time>2022-06-08T07:28:28.000Z</time>
      </trkpt>
      <trkpt lat="43.64412" lon="6.23428">
        <ele>614.2</ele>
        <time>2022-06-08T07:28:31.000Z</time>
      </trkpt>
      <trkpt lat="43.64407" lon="6.23428">
        <ele>613.7</ele>
        <time>2022-06-08T07:28:37.000Z</time>
      </trkpt>
      <trkpt lat="43.64404" lon="6.23434">
        <ele>613.5</ele>
        <time>2022-06-08T07:28:41.000Z</time>
      </trkpt>
      <trkpt lat="43.64401" lon="6.23439">
        <ele>612.9</ele>
        <time>2022-06-08T07:28:46.000Z</time>
      </trkpt>
      <trkpt lat="43.64398" lon="6.23444">
        <ele>612.7</ele>
        <time>2022-06-08T07:28:49.000Z</time>
      </trkpt>
      <trkpt lat="43.64398" lon="6.23454">
        <ele>611.9</ele>
        <time>2022-06-08T07:28:54.000Z</time>
      </trkpt>
      <trkpt lat="43.64398" lon="6.23462">
        <ele>611.7</ele>
        <time>2022-06-08T07:28:57.000Z</time>
      </trkpt>
      <trkpt lat="43.64395" lon="6.23467">
        <ele>611.3</ele>
        <time>2022-06-08T07:29:02.000Z</time>
      </trkpt>
      <trkpt lat="43.64394" lon="6.23475">
        <ele>611</ele>
        <time>2022-06-08T07:29:07.000Z</time>
      </trkpt>
      <trkpt lat="43.64395" lon="6.23482">
        <ele>610.9</ele>
        <time>2022-06-08T07:29:11.000Z</time>
      </trkpt>
      <trkpt lat="43.644" lon="6.23491">
        <ele>610.6</ele>
        <time>2022-06-08T07:29:16.000Z</time>
      </trkpt>
      <trkpt lat="43.64402" lon="6.23497">
        <ele>610.5</ele>
        <time>2022-06-08T07:29:19.958Z</time>
      </trkpt>
      <trkpt lat="43.64406" lon="6.23502">
        <ele>610.4</ele>
        <time>2022-06-08T07:29:27.000Z</time>
      </trkpt>
      <trkpt lat="43.64406" lon="6.23509">
        <ele>610.5</ele>
        <time>2022-06-08T07:29:38.000Z</time>
      </trkpt>
      <trkpt lat="43.64405" lon="6.23515">
        <ele>610.3</ele>
        <time>2022-06-08T07:29:43.000Z</time>
      </trkpt>
      <trkpt lat="43.64403" lon="6.23521">
        <ele>609.8</ele>
        <time>2022-06-08T07:29:53.000Z</time>
      </trkpt>
      <trkpt lat="43.64405" lon="6.23527">
        <ele>609.1</ele>
        <time>2022-06-08T07:30:08.000Z</time>
      </trkpt>
      <trkpt lat="43.64401" lon="6.23531">
        <ele>608.7</ele>
        <time>2022-06-08T07:30:20.000Z</time>
      </trkpt>
      <trkpt lat="43.64397" lon="6.23536">
        <ele>608.1</ele>
        <time>2022-06-08T07:30:34.000Z</time>
      </trkpt>
      <trkpt lat="43.64394" lon="6.2354">
        <ele>607.9</ele>
        <time>2022-06-08T07:30:40.000Z</time>
      </trkpt>
      <trkpt lat="43.64391" lon="6.23545">
        <ele>607.4</ele>
        <time>2022-06-08T07:30:45.000Z</time>
      </trkpt>
      <trkpt lat="43.6439" lon="6.23551">
        <ele>606.9</ele>
        <time>2022-06-08T07:30:57.000Z</time>
      </trkpt>
      <trkpt lat="43.64385" lon="6.23556">
        <ele>606.7</ele>
        <time>2022-06-08T07:31:04.000Z</time>
      </trkpt>
      <trkpt lat="43.64382" lon="6.2356">
        <ele>606.4</ele>
        <time>2022-06-08T07:31:08.000Z</time>
      </trkpt>
      <trkpt lat="43.64378" lon="6.23564">
        <ele>606.2</ele>
        <time>2022-06-08T07:31:12.000Z</time>
      </trkpt>
      <trkpt lat="43.64374" lon="6.23568">
        <ele>606</ele>
        <time>2022-06-08T07:31:17.000Z</time>
      </trkpt>
      <trkpt lat="43.64374" lon="6.23576">
        <ele>606.1</ele>
        <time>2022-06-08T07:31:23.000Z</time>
      </trkpt>
      <trkpt lat="43.64374" lon="6.23582">
        <ele>605.7</ele>
        <time>2022-06-08T07:31:27.000Z</time>
      </trkpt>
      <trkpt lat="43.64376" lon="6.23587">
        <ele>605.7</ele>
        <time>2022-06-08T07:31:31.000Z</time>
      </trkpt>
      <trkpt lat="43.64378" lon="6.23594">
        <ele>606.1</ele>
        <time>2022-06-08T07:31:36.000Z</time>
      </trkpt>
      <trkpt lat="43.6438" lon="6.23601">
        <ele>606.3</ele>
        <time>2022-06-08T07:31:41.000Z</time>
      </trkpt>
      <trkpt lat="43.64382" lon="6.23608">
        <ele>606.5</ele>
        <time>2022-06-08T07:31:46.000Z</time>
      </trkpt>
      <trkpt lat="43.64386" lon="6.23613">
        <ele>607</ele>
        <time>2022-06-08T07:31:52.000Z</time>
      </trkpt>
      <trkpt lat="43.64389" lon="6.23618">
        <ele>607.5</ele>
        <time>2022-06-08T07:31:57.000Z</time>
      </trkpt>
      <trkpt lat="43.64393" lon="6.23623">
        <ele>608</ele>
        <time>2022-06-08T07:32:02.000Z</time>
      </trkpt>
      <trkpt lat="43.64395" lon="6.23629">
        <ele>608.2</ele>
        <time>2022-06-08T07:32:07.000Z</time>
      </trkpt>
      <trkpt lat="43.64398" lon="6.23633">
        <ele>608.6</ele>
        <time>2022-06-08T07:32:12.000Z</time>
      </trkpt>
      <trkpt lat="43.644" lon="6.2364">
        <ele>609.1</ele>
        <time>2022-06-08T07:32:17.000Z</time>
      </trkpt>
      <trkpt lat="43.64401" lon="6.23646">
        <ele>609.2</ele>
        <time>2022-06-08T07:32:22.000Z</time>
      </trkpt>
      <trkpt lat="43.64406" lon="6.2365">
        <ele>609.6</ele>
        <time>2022-06-08T07:32:26.000Z</time>
      </trkpt>
      <trkpt lat="43.64411" lon="6.23654">
        <ele>609.7</ele>
        <time>2022-06-08T07:32:30.000Z</time>
      </trkpt>
      <trkpt lat="43.64415" lon="6.23658">
        <ele>609.9</ele>
        <time>2022-06-08T07:32:33.000Z</time>
      </trkpt>
      <trkpt lat="43.64418" lon="6.23663">
        <ele>610</ele>
        <time>2022-06-08T07:32:37.000Z</time>
      </trkpt>
      <trkpt lat="43.64422" lon="6.23667">
        <ele>610.3</ele>
        <time>2022-06-08T07:32:40.000Z</time>
      </trkpt>
      <trkpt lat="43.64427" lon="6.23672">
        <ele>610.3</ele>
        <time>2022-06-08T07:32:45.000Z</time>
      </trkpt>
      <trkpt lat="43.64429" lon="6.23678">
        <ele>610.3</ele>
        <time>2022-06-08T07:32:50.000Z</time>
      </trkpt>
      <trkpt lat="43.64428" lon="6.23685">
        <ele>610.4</ele>
        <time>2022-06-08T07:32:54.000Z</time>
      </trkpt>
      <trkpt lat="43.64425" lon="6.2369">
        <ele>611.1</ele>
        <time>2022-06-08T07:32:59.000Z</time>
      </trkpt>
      <trkpt lat="43.64421" lon="6.23692">
        <ele>611.6</ele>
        <time>2022-06-08T07:36:23.000Z</time>
      </trkpt>
      <trkpt lat="43.64416" lon="6.2369">
        <ele>612.1</ele>
        <time>2022-06-08T07:36:34.000Z</time>
      </trkpt>
      <trkpt lat="43.64411" lon="6.23686">
        <ele>612.6</ele>
        <time>2022-06-08T07:36:40.000Z</time>
      </trkpt>
      <trkpt lat="43.64407" lon="6.23684">
        <ele>612.5</ele>
        <time>2022-06-08T07:36:48.000Z</time>
      </trkpt>
      <trkpt lat="43.64403" lon="6.23681">
        <ele>612.5</ele>
        <time>2022-06-08T07:36:54.000Z</time>
      </trkpt>
      <trkpt lat="43.64398" lon="6.23678">
        <ele>612.7</ele>
        <time>2022-06-08T07:36:59.000Z</time>
      </trkpt>
      <trkpt lat="43.64393" lon="6.23678">
        <ele>613</ele>
        <time>2022-06-08T07:37:04.000Z</time>
      </trkpt>
      <trkpt lat="43.64388" lon="6.23676">
        <ele>612.8</ele>
        <time>2022-06-08T07:37:10.000Z</time>
      </trkpt>
      <trkpt lat="43.64383" lon="6.23674">
        <ele>612.9</ele>
        <time>2022-06-08T07:37:18.000Z</time>
      </trkpt>
      <trkpt lat="43.64378" lon="6.23672">
        <ele>612.9</ele>
        <time>2022-06-08T07:37:22.000Z</time>
      </trkpt>
      <trkpt lat="43.64376" lon="6.23666">
        <ele>613.1</ele>
        <time>2022-06-08T07:37:34.000Z</time>
      </trkpt>
      <trkpt lat="43.64372" lon="6.23663">
        <ele>613.2</ele>
        <time>2022-06-08T07:37:37.000Z</time>
      </trkpt>
      <trkpt lat="43.64369" lon="6.23658">
        <ele>613.2</ele>
        <time>2022-06-08T07:37:40.000Z</time>
      </trkpt>
      <trkpt lat="43.64367" lon="6.23651">
        <ele>613.2</ele>
        <time>2022-06-08T07:37:49.000Z</time>
      </trkpt>
      <trkpt lat="43.64363" lon="6.23647">
        <ele>613.2</ele>
        <time>2022-06-08T07:37:53.000Z</time>
      </trkpt>
      <trkpt lat="43.64359" lon="6.23642">
        <ele>613.1</ele>
        <time>2022-06-08T07:37:59.000Z</time>
      </trkpt>
      <trkpt lat="43.64358" lon="6.23635">
        <ele>613</ele>
        <time>2022-06-08T07:38:05.000Z</time>
      </trkpt>
      <trkpt lat="43.64354" lon="6.23628">
        <ele>612.8</ele>
        <time>2022-06-08T07:38:10.000Z</time>
      </trkpt>
      <trkpt lat="43.64351" lon="6.23623">
        <ele>612.6</ele>
        <time>2022-06-08T07:38:15.000Z</time>
      </trkpt>
      <trkpt lat="43.64346" lon="6.23622">
        <ele>612.5</ele>
        <time>2022-06-08T07:38:16.000Z</time>
      </trkpt>
      <trkpt lat="43.64342" lon="6.23617">
        <ele>612.4</ele>
        <time>2022-06-08T07:38:20.000Z</time>
      </trkpt>
      <trkpt lat="43.64339" lon="6.23612">
        <ele>612.4</ele>
        <time>2022-06-08T07:38:25.000Z</time>
      </trkpt>
      <trkpt lat="43.64336" lon="6.23607">
        <ele>612.4</ele>
        <time>2022-06-08T07:38:29.000Z</time>
      </trkpt>
      <trkpt lat="43.64332" lon="6.23602">
        <ele>612.2</ele>
        <time>2022-06-08T07:38:34.000Z</time>
      </trkpt>
      <trkpt lat="43.64329" lon="6.23596">
        <ele>612.3</ele>
        <time>2022-06-08T07:38:40.000Z</time>
      </trkpt>
      <trkpt lat="43.64332" lon="6.23591">
        <ele>612.3</ele>
        <time>2022-06-08T07:38:46.000Z</time>
      </trkpt>
      <trkpt lat="43.64335" lon="6.23584">
        <ele>612.3</ele>
        <time>2022-06-08T07:38:49.000Z</time>
      </trkpt>
      <trkpt lat="43.64339" lon="6.23581">
        <ele>612.2</ele>
        <time>2022-06-08T07:38:51.000Z</time>
      </trkpt>
      <trkpt lat="43.6434" lon="6.23574">
        <ele>612.4</ele>
        <time>2022-06-08T07:38:56.000Z</time>
      </trkpt>
      <trkpt lat="43.64338" lon="6.23568">
        <ele>612.6</ele>
        <time>2022-06-08T07:39:01.000Z</time>
      </trkpt>
      <trkpt lat="43.64335" lon="6.23563">
        <ele>612.7</ele>
        <time>2022-06-08T07:39:05.000Z</time>
      </trkpt>
      <trkpt lat="43.64333" lon="6.23556">
        <ele>613.1</ele>
        <time>2022-06-08T07:39:10.000Z</time>
      </trkpt>
      <trkpt lat="43.6433" lon="6.23551">
        <ele>613.2</ele>
        <time>2022-06-08T07:39:17.000Z</time>
      </trkpt>
      <trkpt lat="43.6433" lon="6.23544">
        <ele>613.5</ele>
        <time>2022-06-08T07:39:23.000Z</time>
      </trkpt>
      <trkpt lat="43.64329" lon="6.23538">
        <ele>613.3</ele>
        <time>2022-06-08T07:39:28.000Z</time>
      </trkpt>
      <trkpt lat="43.64328" lon="6.23531">
        <ele>613.7</ele>
        <time>2022-06-08T07:39:33.000Z</time>
      </trkpt>
      <trkpt lat="43.64327" lon="6.23525">
        <ele>614.1</ele>
        <time>2022-06-08T07:39:39.000Z</time>
      </trkpt>
      <trkpt lat="43.64328" lon="6.23518">
        <ele>614</ele>
        <time>2022-06-08T07:39:45.000Z</time>
      </trkpt>
      <trkpt lat="43.64329" lon="6.23511">
        <ele>614.4</ele>
        <time>2022-06-08T07:39:50.000Z</time>
      </trkpt>
      <trkpt lat="43.64327" lon="6.23504">
        <ele>614.7</ele>
        <time>2022-06-08T07:39:54.000Z</time>
      </trkpt>
      <trkpt lat="43.64325" lon="6.23498">
        <ele>615</ele>
        <time>2022-06-08T07:39:58.000Z</time>
      </trkpt>
      <trkpt lat="43.64323" lon="6.23492">
        <ele>615.4</ele>
        <time>2022-06-08T07:40:04.000Z</time>
      </trkpt>
      <trkpt lat="43.64322" lon="6.23485">
        <ele>615.5</ele>
        <time>2022-06-08T07:40:08.000Z</time>
      </trkpt>
      <trkpt lat="43.64318" lon="6.2348">
        <ele>616</ele>
        <time>2022-06-08T07:40:14.000Z</time>
      </trkpt>
      <trkpt lat="43.64316" lon="6.23475">
        <ele>616.1</ele>
        <time>2022-06-08T07:40:19.000Z</time>
      </trkpt>
      <trkpt lat="43.64315" lon="6.23467">
        <ele>616.3</ele>
        <time>2022-06-08T07:40:24.000Z</time>
      </trkpt>
      <trkpt lat="43.64318" lon="6.23459">
        <ele>616.6</ele>
        <time>2022-06-08T07:40:29.000Z</time>
      </trkpt>
      <trkpt lat="43.64318" lon="6.23453">
        <ele>617</ele>
        <time>2022-06-08T07:40:33.000Z</time>
      </trkpt>
      <trkpt lat="43.64318" lon="6.23446">
        <ele>617.1</ele>
        <time>2022-06-08T07:40:37.000Z</time>
      </trkpt>
      <trkpt lat="43.64317" lon="6.23439">
        <ele>617.5</ele>
        <time>2022-06-08T07:40:41.000Z</time>
      </trkpt>
      <trkpt lat="43.64317" lon="6.23432">
        <ele>618.2</ele>
        <time>2022-06-08T07:40:46.000Z</time>
      </trkpt>
      <trkpt lat="43.64318" lon="6.23425">
        <ele>618.4</ele>
        <time>2022-06-08T07:40:50.000Z</time>
      </trkpt>
      <trkpt lat="43.64317" lon="6.23419">
        <ele>618.8</ele>
        <time>2022-06-08T07:40:55.000Z</time>
      </trkpt>
      <trkpt lat="43.64314" lon="6.23412">
        <ele>618.9</ele>
        <time>2022-06-08T07:41:00.000Z</time>
      </trkpt>
      <trkpt lat="43.64313" lon="6.23405">
        <ele>619.5</ele>
        <time>2022-06-08T07:41:04.000Z</time>
      </trkpt>
      <trkpt lat="43.64311" lon="6.23398">
        <ele>619.8</ele>
        <time>2022-06-08T07:41:09.000Z</time>
      </trkpt>
      <trkpt lat="43.64309" lon="6.23392">
        <ele>620.1</ele>
        <time>2022-06-08T07:41:14.000Z</time>
      </trkpt>
      <trkpt lat="43.64308" lon="6.23385">
        <ele>620.2</ele>
        <time>2022-06-08T07:41:18.000Z</time>
      </trkpt>
      <trkpt lat="43.64307" lon="6.23379">
        <ele>620.5</ele>
        <time>2022-06-08T07:41:21.000Z</time>
      </trkpt>
      <trkpt lat="43.64305" lon="6.23373">
        <ele>620.4</ele>
        <time>2022-06-08T07:41:25.000Z</time>
      </trkpt>
      <trkpt lat="43.64303" lon="6.23367">
        <ele>620.7</ele>
        <time>2022-06-08T07:41:29.000Z</time>
      </trkpt>
      <trkpt lat="43.643" lon="6.23362">
        <ele>620.9</ele>
        <time>2022-06-08T07:41:33.000Z</time>
      </trkpt>
      <trkpt lat="43.64296" lon="6.23358">
        <ele>621.2</ele>
        <time>2022-06-08T07:41:37.000Z</time>
      </trkpt>
      <trkpt lat="43.64293" lon="6.23351">
        <ele>621.7</ele>
        <time>2022-06-08T07:41:41.000Z</time>
      </trkpt>
      <trkpt lat="43.6429" lon="6.23345">
        <ele>621.9</ele>
        <time>2022-06-08T07:41:46.000Z</time>
      </trkpt>
      <trkpt lat="43.64287" lon="6.23339">
        <ele>622.1</ele>
        <time>2022-06-08T07:41:51.000Z</time>
      </trkpt>
      <trkpt lat="43.64286" lon="6.23333">
        <ele>622.4</ele>
        <time>2022-06-08T07:41:55.000Z</time>
      </trkpt>
      <trkpt lat="43.64282" lon="6.23328">
        <ele>622.7</ele>
        <time>2022-06-08T07:41:59.000Z</time>
      </trkpt>
      <trkpt lat="43.64278" lon="6.23324">
        <ele>622.6</ele>
        <time>2022-06-08T07:42:04.000Z</time>
      </trkpt>
      <trkpt lat="43.64274" lon="6.23319">
        <ele>623.2</ele>
        <time>2022-06-08T07:42:08.000Z</time>
      </trkpt>
      <trkpt lat="43.64272" lon="6.23313">
        <ele>623.3</ele>
        <time>2022-06-08T07:42:13.000Z</time>
      </trkpt>
      <trkpt lat="43.64269" lon="6.23309">
        <ele>623.8</ele>
        <time>2022-06-08T07:42:16.000Z</time>
      </trkpt>
      <trkpt lat="43.64264" lon="6.23305">
        <ele>623.9</ele>
        <time>2022-06-08T07:42:21.000Z</time>
      </trkpt>
      <trkpt lat="43.6426" lon="6.23301">
        <ele>624.3</ele>
        <time>2022-06-08T07:42:26.000Z</time>
      </trkpt>
      <trkpt lat="43.64256" lon="6.23296">
        <ele>625</ele>
        <time>2022-06-08T07:42:44.000Z</time>
      </trkpt>
      <trkpt lat="43.64252" lon="6.23295">
        <ele>625.2</ele>
        <time>2022-06-08T07:43:09.000Z</time>
      </trkpt>
      <trkpt lat="43.64247" lon="6.23294">
        <ele>625.2</ele>
        <time>2022-06-08T07:43:38.000Z</time>
      </trkpt>
      <trkpt lat="43.64243" lon="6.23292">
        <ele>625.5</ele>
        <time>2022-06-08T07:44:02.000Z</time>
      </trkpt>
      <trkpt lat="43.64238" lon="6.23292">
        <ele>625.7</ele>
        <time>2022-06-08T07:44:08.000Z</time>
      </trkpt>
      <trkpt lat="43.64233" lon="6.23292">
        <ele>625.7</ele>
        <time>2022-06-08T07:44:13.000Z</time>
      </trkpt>
      <trkpt lat="43.64231" lon="6.23285">
        <ele>626.3</ele>
        <time>2022-06-08T07:44:30.000Z</time>
      </trkpt>
      <trkpt lat="43.64226" lon="6.23284">
        <ele>626.5</ele>
        <time>2022-06-08T07:44:35.000Z</time>
      </trkpt>
      <trkpt lat="43.64221" lon="6.23281">
        <ele>626.5</ele>
        <time>2022-06-08T07:44:40.000Z</time>
      </trkpt>
      <trkpt lat="43.64217" lon="6.23278">
        <ele>626.7</ele>
        <time>2022-06-08T07:44:43.000Z</time>
      </trkpt>
      <trkpt lat="43.64214" lon="6.23273">
        <ele>626.8</ele>
        <time>2022-06-08T07:44:47.000Z</time>
      </trkpt>
      <trkpt lat="43.64209" lon="6.23271">
        <ele>626.9</ele>
        <time>2022-06-08T07:44:50.000Z</time>
      </trkpt>
      <trkpt lat="43.64206" lon="6.23266">
        <ele>627.1</ele>
        <time>2022-06-08T07:44:53.000Z</time>
      </trkpt>
      <trkpt lat="43.64202" lon="6.23262">
        <ele>626.9</ele>
        <time>2022-06-08T07:44:58.000Z</time>
      </trkpt>
      <trkpt lat="43.64198" lon="6.23258">
        <ele>626.9</ele>
        <time>2022-06-08T07:45:01.000Z</time>
      </trkpt>
      <trkpt lat="43.64195" lon="6.23252">
        <ele>626.6</ele>
        <time>2022-06-08T07:45:05.000Z</time>
      </trkpt>
      <trkpt lat="43.6419" lon="6.23248">
        <ele>626.2</ele>
        <time>2022-06-08T07:45:10.000Z</time>
      </trkpt>
      <trkpt lat="43.64187" lon="6.23242">
        <ele>626.2</ele>
        <time>2022-06-08T07:45:14.000Z</time>
      </trkpt>
      <trkpt lat="43.64183" lon="6.23239">
        <ele>625.9</ele>
        <time>2022-06-08T07:45:18.000Z</time>
      </trkpt>
      <trkpt lat="43.6418" lon="6.23233">
        <ele>625.8</ele>
        <time>2022-06-08T07:45:22.000Z</time>
      </trkpt>
      <trkpt lat="43.64176" lon="6.23229">
        <ele>625.5</ele>
        <time>2022-06-08T07:45:28.000Z</time>
      </trkpt>
      <trkpt lat="43.64171" lon="6.23227">
        <ele>625.6</ele>
        <time>2022-06-08T07:45:39.000Z</time>
      </trkpt>
      <trkpt lat="43.64168" lon="6.23222">
        <ele>625.4</ele>
        <time>2022-06-08T07:45:44.000Z</time>
      </trkpt>
      <trkpt lat="43.64164" lon="6.23218">
        <ele>625.5</ele>
        <time>2022-06-08T07:45:49.000Z</time>
      </trkpt>
      <trkpt lat="43.6416" lon="6.23214">
        <ele>625.6</ele>
        <time>2022-06-08T07:45:54.000Z</time>
      </trkpt>
      <trkpt lat="43.64156" lon="6.2321">
        <ele>625</ele>
        <time>2022-06-08T07:46:55.000Z</time>
      </trkpt>
      <trkpt lat="43.64152" lon="6.23205">
        <ele>624.9</ele>
        <time>2022-06-08T07:46:59.000Z</time>
      </trkpt>
      <trkpt lat="43.64148" lon="6.23202">
        <ele>624.9</ele>
        <time>2022-06-08T07:47:02.000Z</time>
      </trkpt>
      <trkpt lat="43.64142" lon="6.23201">
        <ele>624.6</ele>
        <time>2022-06-08T07:47:08.000Z</time>
      </trkpt>
      <trkpt lat="43.64137" lon="6.232">
        <ele>624.5</ele>
        <time>2022-06-08T07:47:11.000Z</time>
      </trkpt>
      <trkpt lat="43.64131" lon="6.23198">
        <ele>624.4</ele>
        <time>2022-06-08T07:47:15.000Z</time>
      </trkpt>
      <trkpt lat="43.64126" lon="6.23197">
        <ele>624.1</ele>
        <time>2022-06-08T07:47:19.000Z</time>
      </trkpt>
      <trkpt lat="43.64121" lon="6.23198">
        <ele>623.8</ele>
        <time>2022-06-08T07:47:23.000Z</time>
      </trkpt>
      <trkpt lat="43.64116" lon="6.23198">
        <ele>623.9</ele>
        <time>2022-06-08T07:47:27.000Z</time>
      </trkpt>
      <trkpt lat="43.64111" lon="6.23198">
        <ele>624</ele>
        <time>2022-06-08T07:47:32.000Z</time>
      </trkpt>
      <trkpt lat="43.64105" lon="6.23199">
        <ele>623.8</ele>
        <time>2022-06-08T07:47:36.000Z</time>
      </trkpt>
      <trkpt lat="43.64101" lon="6.23202">
        <ele>624.3</ele>
        <time>2022-06-08T07:47:39.000Z</time>
      </trkpt>
      <trkpt lat="43.64095" lon="6.23204">
        <ele>624.3</ele>
        <time>2022-06-08T07:47:45.000Z</time>
      </trkpt>
      <trkpt lat="43.64089" lon="6.23207">
        <ele>624.7</ele>
        <time>2022-06-08T07:47:50.000Z</time>
      </trkpt>
      <trkpt lat="43.64084" lon="6.23208">
        <ele>624.6</ele>
        <time>2022-06-08T07:47:55.000Z</time>
      </trkpt>
      <trkpt lat="43.64079" lon="6.2321">
        <ele>624.8</ele>
        <time>2022-06-08T07:47:59.000Z</time>
      </trkpt>
      <trkpt lat="43.64073" lon="6.2321">
        <ele>625.1</ele>
        <time>2022-06-08T07:48:04.000Z</time>
      </trkpt>
      <trkpt lat="43.64069" lon="6.23212">
        <ele>625.2</ele>
        <time>2022-06-08T07:48:08.000Z</time>
      </trkpt>
      <trkpt lat="43.64063" lon="6.23212">
        <ele>625.5</ele>
        <time>2022-06-08T07:48:12.000Z</time>
      </trkpt>
      <trkpt lat="43.64058" lon="6.23214">
        <ele>625.7</ele>
        <time>2022-06-08T07:48:15.000Z</time>
      </trkpt>
      <trkpt lat="43.64052" lon="6.23213">
        <ele>625.3</ele>
        <time>2022-06-08T07:48:20.000Z</time>
      </trkpt>
      <trkpt lat="43.64048" lon="6.23214">
        <ele>625.7</ele>
        <time>2022-06-08T07:48:24.000Z</time>
      </trkpt>
      <trkpt lat="43.64042" lon="6.23215">
        <ele>625.7</ele>
        <time>2022-06-08T07:48:29.000Z</time>
      </trkpt>
      <trkpt lat="43.64038" lon="6.23215">
        <ele>626.3</ele>
        <time>2022-06-08T07:48:35.000Z</time>
      </trkpt>
      <trkpt lat="43.64033" lon="6.23211">
        <ele>625.7</ele>
        <time>2022-06-08T07:48:38.000Z</time>
      </trkpt>
      <trkpt lat="43.64028" lon="6.23211">
        <ele>625.9</ele>
        <time>2022-06-08T07:48:42.000Z</time>
      </trkpt>
      <trkpt lat="43.64024" lon="6.23209">
        <ele>625.8</ele>
        <time>2022-06-08T07:48:46.000Z</time>
      </trkpt>
      <trkpt lat="43.64018" lon="6.23207">
        <ele>625.9</ele>
        <time>2022-06-08T07:48:50.000Z</time>
      </trkpt>
      <trkpt lat="43.64013" lon="6.23207">
        <ele>625.9</ele>
        <time>2022-06-08T07:48:53.000Z</time>
      </trkpt>
      <trkpt lat="43.64008" lon="6.23205">
        <ele>625.6</ele>
        <time>2022-06-08T07:48:58.000Z</time>
      </trkpt>
      <trkpt lat="43.64003" lon="6.23202">
        <ele>625.5</ele>
        <time>2022-06-08T07:49:08.000Z</time>
      </trkpt>
      <trkpt lat="43.63998" lon="6.23202">
        <ele>625.5</ele>
        <time>2022-06-08T07:49:14.000Z</time>
      </trkpt>
      <trkpt lat="43.63996" lon="6.23208">
        <ele>625.3</ele>
        <time>2022-06-08T07:49:19.000Z</time>
      </trkpt>
      <trkpt lat="43.63995" lon="6.23214">
        <ele>625.2</ele>
        <time>2022-06-08T07:50:14.000Z</time>
      </trkpt>
      <trkpt lat="43.63995" lon="6.23207">
        <ele>625.1</ele>
        <time>2022-06-08T07:50:37.000Z</time>
      </trkpt>
      <trkpt lat="43.6399" lon="6.23208">
        <ele>624.8</ele>
        <time>2022-06-08T07:50:41.000Z</time>
      </trkpt>
      <trkpt lat="43.63986" lon="6.23207">
        <ele>625</ele>
        <time>2022-06-08T07:50:47.000Z</time>
      </trkpt>
      <trkpt lat="43.63982" lon="6.23203">
        <ele>624.7</ele>
        <time>2022-06-08T07:52:07.000Z</time>
      </trkpt>
      <trkpt lat="43.63977" lon="6.232">
        <ele>624.6</ele>
        <time>2022-06-08T07:52:16.000Z</time>
      </trkpt>
      <trkpt lat="43.63973" lon="6.23198">
        <ele>624</ele>
        <time>2022-06-08T07:52:23.000Z</time>
      </trkpt>
      <trkpt lat="43.63968" lon="6.23196">
        <ele>624.1</ele>
        <time>2022-06-08T07:52:29.000Z</time>
      </trkpt>
      <trkpt lat="43.63963" lon="6.23193">
        <ele>623.9</ele>
        <time>2022-06-08T07:52:35.000Z</time>
      </trkpt>
      <trkpt lat="43.63957" lon="6.23192">
        <ele>624.1</ele>
        <time>2022-06-08T07:52:39.000Z</time>
      </trkpt>
      <trkpt lat="43.63953" lon="6.23188">
        <ele>624.1</ele>
        <time>2022-06-08T07:52:42.000Z</time>
      </trkpt>
      <trkpt lat="43.63947" lon="6.23188">
        <ele>623.7</ele>
        <time>2022-06-08T07:52:47.000Z</time>
      </trkpt>
      <trkpt lat="43.63942" lon="6.23188">
        <ele>623.7</ele>
        <time>2022-06-08T07:52:50.000Z</time>
      </trkpt>
      <trkpt lat="43.63935" lon="6.23187">
        <ele>623.7</ele>
        <time>2022-06-08T07:52:53.000Z</time>
      </trkpt>
      <trkpt lat="43.6393" lon="6.23185">
        <ele>623.2</ele>
        <time>2022-06-08T07:52:59.000Z</time>
      </trkpt>
      <trkpt lat="43.63924" lon="6.23186">
        <ele>623.3</ele>
        <time>2022-06-08T07:53:03.000Z</time>
      </trkpt>
      <trkpt lat="43.63919" lon="6.23187">
        <ele>623.4</ele>
        <time>2022-06-08T07:53:06.000Z</time>
      </trkpt>
      <trkpt lat="43.63915" lon="6.23189">
        <ele>623.2</ele>
        <time>2022-06-08T07:53:11.000Z</time>
      </trkpt>
      <trkpt lat="43.6391" lon="6.2319">
        <ele>623.3</ele>
        <time>2022-06-08T07:53:15.000Z</time>
      </trkpt>
      <trkpt lat="43.63904" lon="6.23191">
        <ele>623.1</ele>
        <time>2022-06-08T07:53:19.000Z</time>
      </trkpt>
      <trkpt lat="43.639" lon="6.23193">
        <ele>623.2</ele>
        <time>2022-06-08T07:53:22.000Z</time>
      </trkpt>
      <trkpt lat="43.63895" lon="6.23194">
        <ele>622.9</ele>
        <time>2022-06-08T07:53:27.000Z</time>
      </trkpt>
      <trkpt lat="43.6389" lon="6.23195">
        <ele>623</ele>
        <time>2022-06-08T07:53:30.000Z</time>
      </trkpt>
      <trkpt lat="43.63885" lon="6.23196">
        <ele>622.7</ele>
        <time>2022-06-08T07:53:34.000Z</time>
      </trkpt>
      <trkpt lat="43.6388" lon="6.23196">
        <ele>623.1</ele>
        <time>2022-06-08T07:53:38.000Z</time>
      </trkpt>
      <trkpt lat="43.63875" lon="6.23195">
        <ele>623.4</ele>
        <time>2022-06-08T07:53:41.000Z</time>
      </trkpt>
      <trkpt lat="43.6387" lon="6.23196">
        <ele>623.3</ele>
        <time>2022-06-08T07:53:45.000Z</time>
      </trkpt>
      <trkpt lat="43.63865" lon="6.23198">
        <ele>623.6</ele>
        <time>2022-06-08T07:53:49.000Z</time>
      </trkpt>
      <trkpt lat="43.63861" lon="6.23198">
        <ele>623.8</ele>
        <time>2022-06-08T07:53:54.000Z</time>
      </trkpt>
      <trkpt lat="43.63855" lon="6.23199">
        <ele>624.1</ele>
        <time>2022-06-08T07:53:57.000Z</time>
      </trkpt>
      <trkpt lat="43.6385" lon="6.23198">
        <ele>623.7</ele>
        <time>2022-06-08T07:54:01.000Z</time>
      </trkpt>
      <trkpt lat="43.63846" lon="6.23197">
        <ele>624.1</ele>
        <time>2022-06-08T07:54:05.000Z</time>
      </trkpt>
      <trkpt lat="43.63841" lon="6.23199">
        <ele>624.3</ele>
        <time>2022-06-08T07:54:09.000Z</time>
      </trkpt>
      <trkpt lat="43.63837" lon="6.23201">
        <ele>624.4</ele>
        <time>2022-06-08T07:54:15.000Z</time>
      </trkpt>
      <trkpt lat="43.63832" lon="6.232">
        <ele>624.2</ele>
        <time>2022-06-08T07:54:23.000Z</time>
      </trkpt>
      <trkpt lat="43.63827" lon="6.23197">
        <ele>624.7</ele>
        <time>2022-06-08T07:54:32.000Z</time>
      </trkpt>
      <trkpt lat="43.63823" lon="6.232">
        <ele>624.5</ele>
        <time>2022-06-08T07:54:39.000Z</time>
      </trkpt>
      <trkpt lat="43.63818" lon="6.23201">
        <ele>625</ele>
        <time>2022-06-08T07:54:43.000Z</time>
      </trkpt>
      <trkpt lat="43.63812" lon="6.23202">
        <ele>625</ele>
        <time>2022-06-08T07:54:47.000Z</time>
      </trkpt>
      <trkpt lat="43.63807" lon="6.23203">
        <ele>625.2</ele>
        <time>2022-06-08T07:54:51.000Z</time>
      </trkpt>
      <trkpt lat="43.63802" lon="6.23202">
        <ele>625.3</ele>
        <time>2022-06-08T07:54:55.000Z</time>
      </trkpt>
      <trkpt lat="43.63797" lon="6.23202">
        <ele>625</ele>
        <time>2022-06-08T07:54:59.000Z</time>
      </trkpt>
      <trkpt lat="43.63792" lon="6.23202">
        <ele>624.9</ele>
        <time>2022-06-08T07:55:02.000Z</time>
      </trkpt>
      <trkpt lat="43.63787" lon="6.23202">
        <ele>625</ele>
        <time>2022-06-08T07:55:05.000Z</time>
      </trkpt>
      <trkpt lat="43.63782" lon="6.23201">
        <ele>624.7</ele>
        <time>2022-06-08T07:55:10.000Z</time>
      </trkpt>
      <trkpt lat="43.63777" lon="6.23204">
        <ele>625</ele>
        <time>2022-06-08T07:55:13.000Z</time>
      </trkpt>
      <trkpt lat="43.63772" lon="6.23206">
        <ele>625.4</ele>
        <time>2022-06-08T07:55:19.000Z</time>
      </trkpt>
      <trkpt lat="43.63767" lon="6.23206">
        <ele>625.3</ele>
        <time>2022-06-08T07:55:23.000Z</time>
      </trkpt>
      <trkpt lat="43.63762" lon="6.23207">
        <ele>625.5</ele>
        <time>2022-06-08T07:55:27.000Z</time>
      </trkpt>
      <trkpt lat="43.63757" lon="6.23204">
        <ele>625.2</ele>
        <time>2022-06-08T07:55:33.000Z</time>
      </trkpt>
      <trkpt lat="43.63752" lon="6.23205">
        <ele>625.5</ele>
        <time>2022-06-08T07:55:38.000Z</time>
      </trkpt>
      <trkpt lat="43.63747" lon="6.23204">
        <ele>625.5</ele>
        <time>2022-06-08T07:55:42.000Z</time>
      </trkpt>
      <trkpt lat="43.63742" lon="6.23205">
        <ele>625.3</ele>
        <time>2022-06-08T07:55:46.000Z</time>
      </trkpt>
      <trkpt lat="43.63736" lon="6.23208">
        <ele>625.6</ele>
        <time>2022-06-08T07:55:50.000Z</time>
      </trkpt>
      <trkpt lat="43.6373" lon="6.23208">
        <ele>625.7</ele>
        <time>2022-06-08T07:55:55.000Z</time>
      </trkpt>
      <trkpt lat="43.63725" lon="6.23208">
        <ele>626.1</ele>
        <time>2022-06-08T07:55:59.000Z</time>
      </trkpt>
      <trkpt lat="43.6372" lon="6.2321">
        <ele>626.2</ele>
        <time>2022-06-08T07:56:03.000Z</time>
      </trkpt>
      <trkpt lat="43.63713" lon="6.23211">
        <ele>626.3</ele>
        <time>2022-06-08T07:56:08.000Z</time>
      </trkpt>
      <trkpt lat="43.63708" lon="6.23213">
        <ele>626.7</ele>
        <time>2022-06-08T07:56:10.000Z</time>
      </trkpt>
      <trkpt lat="43.63703" lon="6.23215">
        <ele>627.1</ele>
        <time>2022-06-08T07:56:15.000Z</time>
      </trkpt>
      <trkpt lat="43.63699" lon="6.2322">
        <ele>627.2</ele>
        <time>2022-06-08T07:56:19.000Z</time>
      </trkpt>
      <trkpt lat="43.63695" lon="6.23225">
        <ele>628</ele>
        <time>2022-06-08T07:56:23.000Z</time>
      </trkpt>
      <trkpt lat="43.63691" lon="6.23229">
        <ele>627.9</ele>
        <time>2022-06-08T07:56:28.000Z</time>
      </trkpt>
      <trkpt lat="43.63687" lon="6.23233">
        <ele>628.5</ele>
        <time>2022-06-08T07:56:31.000Z</time>
      </trkpt>
      <trkpt lat="43.63684" lon="6.2324">
        <ele>629</ele>
        <time>2022-06-08T07:56:37.000Z</time>
      </trkpt>
      <trkpt lat="43.6368" lon="6.23244">
        <ele>629.1</ele>
        <time>2022-06-08T07:56:41.000Z</time>
      </trkpt>
      <trkpt lat="43.63675" lon="6.23247">
        <ele>629.8</ele>
        <time>2022-06-08T07:56:44.000Z</time>
      </trkpt>
      <trkpt lat="43.63671" lon="6.2325">
        <ele>630</ele>
        <time>2022-06-08T07:56:49.000Z</time>
      </trkpt>
      <trkpt lat="43.6367" lon="6.23258">
        <ele>631.1</ele>
        <time>2022-06-08T07:56:57.000Z</time>
      </trkpt>
      <trkpt lat="43.63667" lon="6.23263">
        <ele>631.7</ele>
        <time>2022-06-08T07:57:01.000Z</time>
      </trkpt>
      <trkpt lat="43.63666" lon="6.2327">
        <ele>632.4</ele>
        <time>2022-06-08T07:57:04.000Z</time>
      </trkpt>
      <trkpt lat="43.63667" lon="6.23277">
        <ele>632.2</ele>
        <time>2022-06-08T07:57:07.000Z</time>
      </trkpt>
      <trkpt lat="43.63666" lon="6.23284">
        <ele>633.2</ele>
        <time>2022-06-08T07:57:10.000Z</time>
      </trkpt>
      <trkpt lat="43.63668" lon="6.23291">
        <ele>633.6</ele>
        <time>2022-06-08T07:57:15.000Z</time>
      </trkpt>
      <trkpt lat="43.63669" lon="6.23297">
        <ele>633.9</ele>
        <time>2022-06-08T07:57:18.000Z</time>
      </trkpt>
      <trkpt lat="43.63673" lon="6.23303">
        <ele>635</ele>
        <time>2022-06-08T07:57:24.000Z</time>
      </trkpt>
      <trkpt lat="43.63675" lon="6.23309">
        <ele>636.3</ele>
        <time>2022-06-08T07:57:29.000Z</time>
      </trkpt>
      <trkpt lat="43.63674" lon="6.23316">
        <ele>636.9</ele>
        <time>2022-06-08T07:57:34.000Z</time>
      </trkpt>
      <trkpt lat="43.63673" lon="6.23322">
        <ele>637.4</ele>
        <time>2022-06-08T07:57:39.000Z</time>
      </trkpt>
      <trkpt lat="43.63668" lon="6.23324">
        <ele>638</ele>
        <time>2022-06-08T07:57:44.000Z</time>
      </trkpt>
      <trkpt lat="43.63664" lon="6.23323">
        <ele>638.5</ele>
        <time>2022-06-08T07:57:47.000Z</time>
      </trkpt>
      <trkpt lat="43.63659" lon="6.23321">
        <ele>638.4</ele>
        <time>2022-06-08T07:57:53.000Z</time>
      </trkpt>
      <trkpt lat="43.63653" lon="6.23318">
        <ele>639.3</ele>
        <time>2022-06-08T07:57:58.000Z</time>
      </trkpt>
      <trkpt lat="43.6365" lon="6.23315">
        <ele>640.2</ele>
        <time>2022-06-08T07:58:06.000Z</time>
      </trkpt>
      <trkpt lat="43.6365" lon="6.23309">
        <ele>640.4</ele>
        <time>2022-06-08T07:58:13.000Z</time>
      </trkpt>
      <trkpt lat="43.63648" lon="6.23301">
        <ele>640.5</ele>
        <time>2022-06-08T07:58:19.000Z</time>
      </trkpt>
      <trkpt lat="43.63643" lon="6.23299">
        <ele>641</ele>
        <time>2022-06-08T07:58:26.000Z</time>
      </trkpt>
      <trkpt lat="43.63641" lon="6.23292">
        <ele>641.4</ele>
        <time>2022-06-08T07:58:32.000Z</time>
      </trkpt>
      <trkpt lat="43.63636" lon="6.23288">
        <ele>641.7</ele>
        <time>2022-06-08T07:58:38.000Z</time>
      </trkpt>
      <trkpt lat="43.63632" lon="6.23287">
        <ele>641.7</ele>
        <time>2022-06-08T07:58:43.000Z</time>
      </trkpt>
      <trkpt lat="43.63627" lon="6.23286">
        <ele>641.7</ele>
        <time>2022-06-08T07:58:48.000Z</time>
      </trkpt>
      <trkpt lat="43.63622" lon="6.23288">
        <ele>641.7</ele>
        <time>2022-06-08T07:58:51.000Z</time>
      </trkpt>
      <trkpt lat="43.63618" lon="6.2329">
        <ele>641.9</ele>
        <time>2022-06-08T07:58:55.000Z</time>
      </trkpt>
      <trkpt lat="43.63613" lon="6.2329">
        <ele>642</ele>
        <time>2022-06-08T07:59:01.000Z</time>
      </trkpt>
      <trkpt lat="43.63609" lon="6.2329">
        <ele>642.1</ele>
        <time>2022-06-08T07:59:07.000Z</time>
      </trkpt>
      <trkpt lat="43.63604" lon="6.2329">
        <ele>642.5</ele>
        <time>2022-06-08T07:59:12.000Z</time>
      </trkpt>
      <trkpt lat="43.63598" lon="6.23289">
        <ele>642.9</ele>
        <time>2022-06-08T07:59:16.000Z</time>
      </trkpt>
      <trkpt lat="43.63594" lon="6.23287">
        <ele>643.2</ele>
        <time>2022-06-08T07:59:21.000Z</time>
      </trkpt>
      <trkpt lat="43.6359" lon="6.23284">
        <ele>643.2</ele>
        <time>2022-06-08T07:59:27.000Z</time>
      </trkpt>
      <trkpt lat="43.63587" lon="6.23279">
        <ele>643.1</ele>
        <time>2022-06-08T07:59:39.000Z</time>
      </trkpt>
      <trkpt lat="43.63582" lon="6.2328">
        <ele>643.1</ele>
        <time>2022-06-08T08:00:42.000Z</time>
      </trkpt>
      <trkpt lat="43.63577" lon="6.23278">
        <ele>643.4</ele>
        <time>2022-06-08T08:00:56.000Z</time>
      </trkpt>
      <trkpt lat="43.63572" lon="6.23278">
        <ele>644</ele>
        <time>2022-06-08T08:01:11.000Z</time>
      </trkpt>
      <trkpt lat="43.63567" lon="6.23278">
        <ele>644.2</ele>
        <time>2022-06-08T08:01:22.000Z</time>
      </trkpt>
      <trkpt lat="43.63562" lon="6.23277">
        <ele>644.9</ele>
        <time>2022-06-08T08:01:29.000Z</time>
      </trkpt>
      <trkpt lat="43.63557" lon="6.23277">
        <ele>645.2</ele>
        <time>2022-06-08T08:01:35.000Z</time>
      </trkpt>
      <trkpt lat="43.63552" lon="6.23277">
        <ele>645.3</ele>
        <time>2022-06-08T08:01:46.000Z</time>
      </trkpt>
      <trkpt lat="43.63547" lon="6.23276">
        <ele>645.3</ele>
        <time>2022-06-08T08:01:55.000Z</time>
      </trkpt>
      <trkpt lat="43.63542" lon="6.23276">
        <ele>645.3</ele>
        <time>2022-06-08T08:02:01.000Z</time>
      </trkpt>
      <trkpt lat="43.63537" lon="6.23275">
        <ele>645.3</ele>
        <time>2022-06-08T08:02:16.000Z</time>
      </trkpt>
      <trkpt lat="43.63532" lon="6.23271">
        <ele>645.5</ele>
        <time>2022-06-08T08:02:22.000Z</time>
      </trkpt>
      <trkpt lat="43.63528" lon="6.23272">
        <ele>645.6</ele>
        <time>2022-06-08T08:02:29.000Z</time>
      </trkpt>
      <trkpt lat="43.63526" lon="6.23266">
        <ele>645.5</ele>
        <time>2022-06-08T08:03:00.000Z</time>
      </trkpt>
      <trkpt lat="43.63522" lon="6.23265">
        <ele>645.2</ele>
        <time>2022-06-08T08:03:28.000Z</time>
      </trkpt>
      <trkpt lat="43.63518" lon="6.23269">
        <ele>645.3</ele>
        <time>2022-06-08T08:03:51.000Z</time>
      </trkpt>
      <trkpt lat="43.63513" lon="6.23265">
        <ele>645.3</ele>
        <time>2022-06-08T08:03:55.000Z</time>
      </trkpt>
      <trkpt lat="43.63509" lon="6.23264">
        <ele>645.5</ele>
        <time>2022-06-08T08:04:01.000Z</time>
      </trkpt>
      <trkpt lat="43.63506" lon="6.2327">
        <ele>645.8</ele>
        <time>2022-06-08T08:04:36.000Z</time>
      </trkpt>
      <trkpt lat="43.63502" lon="6.23271">
        <ele>646</ele>
        <time>2022-06-08T08:04:45.000Z</time>
      </trkpt>
      <trkpt lat="43.63497" lon="6.23273">
        <ele>646</ele>
        <time>2022-06-08T08:04:52.000Z</time>
      </trkpt>
      <trkpt lat="43.63492" lon="6.23275">
        <ele>646</ele>
        <time>2022-06-08T08:04:56.000Z</time>
      </trkpt>
      <trkpt lat="43.63487" lon="6.23276">
        <ele>646.1</ele>
        <time>2022-06-08T08:05:00.000Z</time>
      </trkpt>
      <trkpt lat="43.63481" lon="6.23276">
        <ele>646.1</ele>
        <time>2022-06-08T08:05:05.000Z</time>
      </trkpt>
      <trkpt lat="43.63476" lon="6.23276">
        <ele>646.1</ele>
        <time>2022-06-08T08:05:11.000Z</time>
      </trkpt>
      <trkpt lat="43.63474" lon="6.23283">
        <ele>646.3</ele>
        <time>2022-06-08T08:05:15.000Z</time>
      </trkpt>
      <trkpt lat="43.63477" lon="6.23287">
        <ele>646.5</ele>
        <time>2022-06-08T08:05:30.000Z</time>
      </trkpt>
      <trkpt lat="43.63481" lon="6.23292">
        <ele>646.5</ele>
        <time>2022-06-08T08:06:00.000Z</time>
      </trkpt>
      <trkpt lat="43.63477" lon="6.23297">
        <ele>646.1</ele>
        <time>2022-06-08T08:06:13.000Z</time>
      </trkpt>
      <trkpt lat="43.63472" lon="6.23298">
        <ele>646.1</ele>
        <time>2022-06-08T08:06:17.000Z</time>
      </trkpt>
      <trkpt lat="43.63467" lon="6.23301">
        <ele>646</ele>
        <time>2022-06-08T08:06:21.000Z</time>
      </trkpt>
      <trkpt lat="43.63463" lon="6.23305">
        <ele>646.2</ele>
        <time>2022-06-08T08:06:25.000Z</time>
      </trkpt>
      <trkpt lat="43.63459" lon="6.23311">
        <ele>646.4</ele>
        <time>2022-06-08T08:06:30.000Z</time>
      </trkpt>
      <trkpt lat="43.63455" lon="6.23316">
        <ele>646.5</ele>
        <time>2022-06-08T08:06:34.000Z</time>
      </trkpt>
      <trkpt lat="43.6345" lon="6.23319">
        <ele>646.5</ele>
        <time>2022-06-08T08:06:40.000Z</time>
      </trkpt>
      <trkpt lat="43.63446" lon="6.23324">
        <ele>646.4</ele>
        <time>2022-06-08T08:06:43.000Z</time>
      </trkpt>
      <trkpt lat="43.63441" lon="6.23323">
        <ele>645.9</ele>
        <time>2022-06-08T08:06:50.000Z</time>
      </trkpt>
      <trkpt lat="43.63437" lon="6.23319">
        <ele>645.8</ele>
        <time>2022-06-08T08:06:55.000Z</time>
      </trkpt>
      <trkpt lat="43.63436" lon="6.23313">
        <ele>645.6</ele>
        <time>2022-06-08T08:06:59.000Z</time>
      </trkpt>
      <trkpt lat="43.63435" lon="6.23306">
        <ele>645.1</ele>
        <time>2022-06-08T08:07:06.000Z</time>
      </trkpt>
      <trkpt lat="43.63435" lon="6.23298">
        <ele>644.7</ele>
        <time>2022-06-08T08:07:15.000Z</time>
      </trkpt>
      <trkpt lat="43.63434" lon="6.23292">
        <ele>644.7</ele>
        <time>2022-06-08T08:07:32.000Z</time>
      </trkpt>
      <trkpt lat="43.63433" lon="6.23286">
        <ele>644.4</ele>
        <time>2022-06-08T08:07:36.000Z</time>
      </trkpt>
      <trkpt lat="43.6343" lon="6.23278">
        <ele>644.3</ele>
        <time>2022-06-08T08:07:41.000Z</time>
      </trkpt>
      <trkpt lat="43.63428" lon="6.23271">
        <ele>644.2</ele>
        <time>2022-06-08T08:07:46.000Z</time>
      </trkpt>
      <trkpt lat="43.63424" lon="6.2327">
        <ele>644.2</ele>
        <time>2022-06-08T08:07:56.000Z</time>
      </trkpt>
      <trkpt lat="43.63425" lon="6.23264">
        <ele>643.9</ele>
        <time>2022-06-08T08:08:05.000Z</time>
      </trkpt>
      <trkpt lat="43.63424" lon="6.23258">
        <ele>644.1</ele>
        <time>2022-06-08T08:08:09.000Z</time>
      </trkpt>
      <trkpt lat="43.63419" lon="6.23252">
        <ele>644.6</ele>
        <time>2022-06-08T08:08:15.000Z</time>
      </trkpt>
      <trkpt lat="43.63414" lon="6.23246">
        <ele>644.8</ele>
        <time>2022-06-08T08:08:17.000Z</time>
      </trkpt>
      <trkpt lat="43.63412" lon="6.23241">
        <ele>644.9</ele>
        <time>2022-06-08T08:08:21.000Z</time>
      </trkpt>
      <trkpt lat="43.63407" lon="6.23241">
        <ele>644.8</ele>
        <time>2022-06-08T08:08:24.000Z</time>
      </trkpt>
      <trkpt lat="43.63402" lon="6.23244">
        <ele>644.5</ele>
        <time>2022-06-08T08:08:29.000Z</time>
      </trkpt>
      <trkpt lat="43.63398" lon="6.23242">
        <ele>644.5</ele>
        <time>2022-06-08T08:08:41.000Z</time>
      </trkpt>
      <trkpt lat="43.63394" lon="6.23237">
        <ele>644.1</ele>
        <time>2022-06-08T08:08:49.000Z</time>
      </trkpt>
      <trkpt lat="43.63398" lon="6.23243">
        <ele>645.6</ele>
        <time>2022-06-08T08:08:58.000Z</time>
      </trkpt>
      <trkpt lat="43.63399" lon="6.23237">
        <ele>645.5</ele>
        <time>2022-06-08T08:09:22.000Z</time>
      </trkpt>
      <trkpt lat="43.63397" lon="6.2323">
        <ele>645.1</ele>
        <time>2022-06-08T08:09:28.000Z</time>
      </trkpt>
      <trkpt lat="43.63394" lon="6.23226">
        <ele>645.3</ele>
        <time>2022-06-08T08:09:32.000Z</time>
      </trkpt>
      <trkpt lat="43.6339" lon="6.23221">
        <ele>645.1</ele>
        <time>2022-06-08T08:09:37.000Z</time>
      </trkpt>
      <trkpt lat="43.63384" lon="6.23219">
        <ele>644.8</ele>
        <time>2022-06-08T08:09:43.000Z</time>
      </trkpt>
      <trkpt lat="43.63379" lon="6.23216">
        <ele>645.6</ele>
        <time>2022-06-08T08:09:47.000Z</time>
      </trkpt>
      <trkpt lat="43.63374" lon="6.23215">
        <ele>646</ele>
        <time>2022-06-08T08:09:52.000Z</time>
      </trkpt>
      <trkpt lat="43.6337" lon="6.23213">
        <ele>645.7</ele>
        <time>2022-06-08T08:09:56.000Z</time>
      </trkpt>
      <trkpt lat="43.63365" lon="6.23212">
        <ele>645.8</ele>
        <time>2022-06-08T08:10:01.000Z</time>
      </trkpt>
      <trkpt lat="43.63359" lon="6.23211">
        <ele>645.8</ele>
        <time>2022-06-08T08:10:06.000Z</time>
      </trkpt>
      <trkpt lat="43.63354" lon="6.2321">
        <ele>646</ele>
        <time>2022-06-08T08:10:09.000Z</time>
      </trkpt>
      <trkpt lat="43.63349" lon="6.2321">
        <ele>645.8</ele>
        <time>2022-06-08T08:10:13.000Z</time>
      </trkpt>
      <trkpt lat="43.63344" lon="6.2321">
        <ele>645.9</ele>
        <time>2022-06-08T08:10:16.000Z</time>
      </trkpt>
      <trkpt lat="43.63339" lon="6.2321">
        <ele>646.1</ele>
        <time>2022-06-08T08:10:20.000Z</time>
      </trkpt>
      <trkpt lat="43.63334" lon="6.2321">
        <ele>646.2</ele>
        <time>2022-06-08T08:10:27.000Z</time>
      </trkpt>
      <trkpt lat="43.63329" lon="6.2321">
        <ele>646.9</ele>
        <time>2022-06-08T08:10:31.000Z</time>
      </trkpt>
      <trkpt lat="43.63324" lon="6.23211">
        <ele>646.8</ele>
        <time>2022-06-08T08:10:35.000Z</time>
      </trkpt>
      <trkpt lat="43.63318" lon="6.23215">
        <ele>647.1</ele>
        <time>2022-06-08T08:10:39.000Z</time>
      </trkpt>
      <trkpt lat="43.63312" lon="6.23215">
        <ele>647.5</ele>
        <time>2022-06-08T08:10:43.000Z</time>
      </trkpt>
      <trkpt lat="43.63308" lon="6.23218">
        <ele>647.7</ele>
        <time>2022-06-08T08:10:49.000Z</time>
      </trkpt>
      <trkpt lat="43.63303" lon="6.23218">
        <ele>647.7</ele>
        <time>2022-06-08T08:10:53.000Z</time>
      </trkpt>
      <trkpt lat="43.63298" lon="6.2322">
        <ele>648.3</ele>
        <time>2022-06-08T08:10:57.000Z</time>
      </trkpt>
      <trkpt lat="43.63294" lon="6.23221">
        <ele>648.3</ele>
        <time>2022-06-08T08:11:04.000Z</time>
      </trkpt>
      <trkpt lat="43.63289" lon="6.23223">
        <ele>648.8</ele>
        <time>2022-06-08T08:11:09.000Z</time>
      </trkpt>
      <trkpt lat="43.63286" lon="6.23229">
        <ele>648.9</ele>
        <time>2022-06-08T08:11:15.000Z</time>
      </trkpt>
      <trkpt lat="43.63286" lon="6.23235">
        <ele>649.2</ele>
        <time>2022-06-08T08:11:19.000Z</time>
      </trkpt>
      <trkpt lat="43.63286" lon="6.23243">
        <ele>649.6</ele>
        <time>2022-06-08T08:11:23.000Z</time>
      </trkpt>
      <trkpt lat="43.63288" lon="6.23237">
        <ele>649.3</ele>
        <time>2022-06-08T08:12:02.000Z</time>
      </trkpt>
      <trkpt lat="43.63283" lon="6.2324">
        <ele>652.2</ele>
        <time>2022-06-08T08:12:08.000Z</time>
      </trkpt>
      <trkpt lat="43.63286" lon="6.23248">
        <ele>651.7</ele>
        <time>2022-06-08T08:12:10.000Z</time>
      </trkpt>
      <trkpt lat="43.63284" lon="6.23255">
        <ele>650.5</ele>
        <time>2022-06-08T08:12:26.000Z</time>
      </trkpt>
      <trkpt lat="43.63281" lon="6.23261">
        <ele>650.8</ele>
        <time>2022-06-08T08:12:32.000Z</time>
      </trkpt>
      <trkpt lat="43.63281" lon="6.23268">
        <ele>650.9</ele>
        <time>2022-06-08T08:12:39.000Z</time>
      </trkpt>
      <trkpt lat="43.63279" lon="6.23275">
        <ele>651.1</ele>
        <time>2022-06-08T08:12:47.000Z</time>
      </trkpt>
      <trkpt lat="43.63276" lon="6.2328">
        <ele>651.3</ele>
        <time>2022-06-08T08:12:53.000Z</time>
      </trkpt>
      <trkpt lat="43.63275" lon="6.23287">
        <ele>651.3</ele>
        <time>2022-06-08T08:13:00.000Z</time>
      </trkpt>
      <trkpt lat="43.63273" lon="6.23292">
        <ele>651.3</ele>
        <time>2022-06-08T08:13:05.000Z</time>
      </trkpt>
      <trkpt lat="43.63273" lon="6.23299">
        <ele>651.5</ele>
        <time>2022-06-08T08:13:08.000Z</time>
      </trkpt>
      <trkpt lat="43.6327" lon="6.23304">
        <ele>651.5</ele>
        <time>2022-06-08T08:13:15.000Z</time>
      </trkpt>
      <trkpt lat="43.63271" lon="6.2331">
        <ele>651.5</ele>
        <time>2022-06-08T08:13:19.000Z</time>
      </trkpt>
      <trkpt lat="43.63273" lon="6.23317">
        <ele>651.7</ele>
        <time>2022-06-08T08:13:24.000Z</time>
      </trkpt>
      <trkpt lat="43.63275" lon="6.23323">
        <ele>651.9</ele>
        <time>2022-06-08T08:13:29.000Z</time>
      </trkpt>
      <trkpt lat="43.63277" lon="6.2333">
        <ele>652</ele>
        <time>2022-06-08T08:13:34.000Z</time>
      </trkpt>
      <trkpt lat="43.63278" lon="6.23336">
        <ele>651.9</ele>
        <time>2022-06-08T08:13:39.000Z</time>
      </trkpt>
      <trkpt lat="43.6328" lon="6.23343">
        <ele>652</ele>
        <time>2022-06-08T08:13:44.000Z</time>
      </trkpt>
      <trkpt lat="43.63282" lon="6.23349">
        <ele>652.3</ele>
        <time>2022-06-08T08:13:48.000Z</time>
      </trkpt>
      <trkpt lat="43.63284" lon="6.23357">
        <ele>652.3</ele>
        <time>2022-06-08T08:13:54.000Z</time>
      </trkpt>
      <trkpt lat="43.63286" lon="6.23362">
        <ele>652.2</ele>
        <time>2022-06-08T08:13:59.000Z</time>
      </trkpt>
      <trkpt lat="43.63288" lon="6.23369">
        <ele>652.3</ele>
        <time>2022-06-08T08:14:03.000Z</time>
      </trkpt>
      <trkpt lat="43.6329" lon="6.23376">
        <ele>652.5</ele>
        <time>2022-06-08T08:14:08.000Z</time>
      </trkpt>
      <trkpt lat="43.6329" lon="6.23382">
        <ele>652.2</ele>
        <time>2022-06-08T08:14:12.000Z</time>
      </trkpt>
      <trkpt lat="43.63287" lon="6.23388">
        <ele>652.2</ele>
        <time>2022-06-08T08:14:17.000Z</time>
      </trkpt>
      <trkpt lat="43.63282" lon="6.23388">
        <ele>652.4</ele>
        <time>2022-06-08T08:14:22.000Z</time>
      </trkpt>
      <trkpt lat="43.63277" lon="6.23391">
        <ele>652.3</ele>
        <time>2022-06-08T08:14:28.000Z</time>
      </trkpt>
      <trkpt lat="43.63279" lon="6.23397">
        <ele>652.2</ele>
        <time>2022-06-08T08:14:36.000Z</time>
      </trkpt>
      <trkpt lat="43.63276" lon="6.23393">
        <ele>657.6</ele>
        <time>2022-06-08T08:15:04.000Z</time>
      </trkpt>
      <trkpt lat="43.63271" lon="6.23391">
        <ele>655.9</ele>
        <time>2022-06-08T08:15:09.000Z</time>
      </trkpt>
      <trkpt lat="43.63266" lon="6.23391">
        <ele>654</ele>
        <time>2022-06-08T08:15:16.000Z</time>
      </trkpt>
      <trkpt lat="43.63261" lon="6.23389">
        <ele>653.5</ele>
        <time>2022-06-08T08:15:20.000Z</time>
      </trkpt>
      <trkpt lat="43.63255" lon="6.23389">
        <ele>653</ele>
        <time>2022-06-08T08:15:24.000Z</time>
      </trkpt>
      <trkpt lat="43.63253" lon="6.23383">
        <ele>653</ele>
        <time>2022-06-08T08:15:44.000Z</time>
      </trkpt>
      <trkpt lat="43.63257" lon="6.23387">
        <ele>652.9</ele>
        <time>2022-06-08T08:16:28.000Z</time>
      </trkpt>
      <trkpt lat="43.63261" lon="6.23392">
        <ele>652.9</ele>
        <time>2022-06-08T08:16:38.000Z</time>
      </trkpt>
      <trkpt lat="43.63256" lon="6.23394">
        <ele>652.8</ele>
        <time>2022-06-08T08:17:31.000Z</time>
      </trkpt>
      <trkpt lat="43.63251" lon="6.23395">
        <ele>652.9</ele>
        <time>2022-06-08T08:17:36.000Z</time>
      </trkpt>
      <trkpt lat="43.63246" lon="6.23394">
        <ele>652.9</ele>
        <time>2022-06-08T08:17:43.000Z</time>
      </trkpt>
      <trkpt lat="43.63241" lon="6.23396">
        <ele>653.1</ele>
        <time>2022-06-08T08:17:46.000Z</time>
      </trkpt>
      <trkpt lat="43.63236" lon="6.23395">
        <ele>653.2</ele>
        <time>2022-06-08T08:17:51.000Z</time>
      </trkpt>
      <trkpt lat="43.6323" lon="6.23394">
        <ele>653.2</ele>
        <time>2022-06-08T08:17:55.000Z</time>
      </trkpt>
      <trkpt lat="43.63224" lon="6.23392">
        <ele>653.4</ele>
        <time>2022-06-08T08:17:58.000Z</time>
      </trkpt>
      <trkpt lat="43.63219" lon="6.23391">
        <ele>653.1</ele>
        <time>2022-06-08T08:18:05.000Z</time>
      </trkpt>
      <trkpt lat="43.63213" lon="6.23389">
        <ele>653.4</ele>
        <time>2022-06-08T08:18:09.000Z</time>
      </trkpt>
      <trkpt lat="43.63209" lon="6.23389">
        <ele>653.5</ele>
        <time>2022-06-08T08:18:13.000Z</time>
      </trkpt>
      <trkpt lat="43.63204" lon="6.23391">
        <ele>653.2</ele>
        <time>2022-06-08T08:18:17.000Z</time>
      </trkpt>
      <trkpt lat="43.63199" lon="6.23392">
        <ele>653.3</ele>
        <time>2022-06-08T08:18:19.000Z</time>
      </trkpt>
      <trkpt lat="43.63194" lon="6.23395">
        <ele>653.4</ele>
        <time>2022-06-08T08:18:23.000Z</time>
      </trkpt>
      <trkpt lat="43.6319" lon="6.234">
        <ele>653.1</ele>
        <time>2022-06-08T08:18:27.000Z</time>
      </trkpt>
      <trkpt lat="43.63186" lon="6.23404">
        <ele>653.3</ele>
        <time>2022-06-08T08:18:30.000Z</time>
      </trkpt>
      <trkpt lat="43.63182" lon="6.23408">
        <ele>653.2</ele>
        <time>2022-06-08T08:18:33.000Z</time>
      </trkpt>
      <trkpt lat="43.63179" lon="6.23413">
        <ele>653.3</ele>
        <time>2022-06-08T08:18:37.000Z</time>
      </trkpt>
      <trkpt lat="43.63174" lon="6.23416">
        <ele>653.5</ele>
        <time>2022-06-08T08:18:40.000Z</time>
      </trkpt>
      <trkpt lat="43.63171" lon="6.23421">
        <ele>653.6</ele>
        <time>2022-06-08T08:18:43.000Z</time>
      </trkpt>
      <trkpt lat="43.63166" lon="6.23426">
        <ele>653.2</ele>
        <time>2022-06-08T08:18:47.000Z</time>
      </trkpt>
      <trkpt lat="43.63166" lon="6.23433">
        <ele>652.6</ele>
        <time>2022-06-08T08:18:51.000Z</time>
      </trkpt>
      <trkpt lat="43.63163" lon="6.23439">
        <ele>653.1</ele>
        <time>2022-06-08T08:18:55.000Z</time>
      </trkpt>
      <trkpt lat="43.63159" lon="6.23446">
        <ele>653.7</ele>
        <time>2022-06-08T08:19:00.000Z</time>
      </trkpt>
      <trkpt lat="43.63157" lon="6.23452">
        <ele>653.8</ele>
        <time>2022-06-08T08:19:03.000Z</time>
      </trkpt>
      <trkpt lat="43.63153" lon="6.23459">
        <ele>653.8</ele>
        <time>2022-06-08T08:19:07.000Z</time>
      </trkpt>
      <trkpt lat="43.63151" lon="6.23465">
        <ele>653.9</ele>
        <time>2022-06-08T08:19:10.000Z</time>
      </trkpt>
      <trkpt lat="43.6315" lon="6.23471">
        <ele>653.9</ele>
        <time>2022-06-08T08:19:12.000Z</time>
      </trkpt>
      <trkpt lat="43.63147" lon="6.23476">
        <ele>653.9</ele>
        <time>2022-06-08T08:19:15.000Z</time>
      </trkpt>
      <trkpt lat="43.63144" lon="6.23482">
        <ele>653.6</ele>
        <time>2022-06-08T08:19:19.000Z</time>
      </trkpt>
      <trkpt lat="43.63143" lon="6.23488">
        <ele>653.4</ele>
        <time>2022-06-08T08:19:22.000Z</time>
      </trkpt>
      <trkpt lat="43.63139" lon="6.23494">
        <ele>652.5</ele>
        <time>2022-06-08T08:19:27.000Z</time>
      </trkpt>
      <trkpt lat="43.63136" lon="6.23499">
        <ele>652.7</ele>
        <time>2022-06-08T08:19:31.000Z</time>
      </trkpt>
      <trkpt lat="43.63132" lon="6.23502">
        <ele>653</ele>
        <time>2022-06-08T08:19:34.000Z</time>
      </trkpt>
      <trkpt lat="43.63129" lon="6.2351">
        <ele>653.2</ele>
        <time>2022-06-08T08:19:37.000Z</time>
      </trkpt>
      <trkpt lat="43.63127" lon="6.23517">
        <ele>653.4</ele>
        <time>2022-06-08T08:19:40.000Z</time>
      </trkpt>
      <trkpt lat="43.63123" lon="6.23524">
        <ele>653.4</ele>
        <time>2022-06-08T08:19:43.000Z</time>
      </trkpt>
      <trkpt lat="43.6312" lon="6.23532">
        <ele>653.4</ele>
        <time>2022-06-08T08:19:46.000Z</time>
      </trkpt>
      <trkpt lat="43.63117" lon="6.23537">
        <ele>653.2</ele>
        <time>2022-06-08T08:19:49.000Z</time>
      </trkpt>
      <trkpt lat="43.63116" lon="6.23544">
        <ele>652.7</ele>
        <time>2022-06-08T08:19:54.000Z</time>
      </trkpt>
      <trkpt lat="43.63115" lon="6.23551">
        <ele>652.5</ele>
        <time>2022-06-08T08:19:59.000Z</time>
      </trkpt>
      <trkpt lat="43.63114" lon="6.23558">
        <ele>652.8</ele>
        <time>2022-06-08T08:20:03.000Z</time>
      </trkpt>
      <trkpt lat="43.63114" lon="6.23564">
        <ele>653</ele>
        <time>2022-06-08T08:20:06.000Z</time>
      </trkpt>
      <trkpt lat="43.63112" lon="6.23571">
        <ele>653.1</ele>
        <time>2022-06-08T08:20:09.000Z</time>
      </trkpt>
      <trkpt lat="43.63112" lon="6.23579">
        <ele>653.1</ele>
        <time>2022-06-08T08:20:13.000Z</time>
      </trkpt>
      <trkpt lat="43.63114" lon="6.23586">
        <ele>652.6</ele>
        <time>2022-06-08T08:20:18.000Z</time>
      </trkpt>
      <trkpt lat="43.63115" lon="6.23593">
        <ele>652.8</ele>
        <time>2022-06-08T08:20:21.000Z</time>
      </trkpt>
      <trkpt lat="43.63117" lon="6.236">
        <ele>653</ele>
        <time>2022-06-08T08:20:25.000Z</time>
      </trkpt>
      <trkpt lat="43.6312" lon="6.23604">
        <ele>653</ele>
        <time>2022-06-08T08:20:31.000Z</time>
      </trkpt>
      <trkpt lat="43.63124" lon="6.23609">
        <ele>653.1</ele>
        <time>2022-06-08T08:20:40.000Z</time>
      </trkpt>
      <trkpt lat="43.63127" lon="6.23614">
        <ele>652.8</ele>
        <time>2022-06-08T08:20:51.000Z</time>
      </trkpt>
      <trkpt lat="43.63129" lon="6.23621">
        <ele>653</ele>
        <time>2022-06-08T08:20:55.000Z</time>
      </trkpt>
      <trkpt lat="43.63132" lon="6.23625">
        <ele>653.2</ele>
        <time>2022-06-08T08:21:01.000Z</time>
      </trkpt>
      <trkpt lat="43.63135" lon="6.23631">
        <ele>653.1</ele>
        <time>2022-06-08T08:21:06.000Z</time>
      </trkpt>
      <trkpt lat="43.63139" lon="6.23636">
        <ele>653.2</ele>
        <time>2022-06-08T08:21:09.000Z</time>
      </trkpt>
      <trkpt lat="43.63139" lon="6.23643">
        <ele>653</ele>
        <time>2022-06-08T08:21:14.000Z</time>
      </trkpt>
      <trkpt lat="43.63143" lon="6.23648">
        <ele>653.1</ele>
        <time>2022-06-08T08:21:17.000Z</time>
      </trkpt>
      <trkpt lat="43.63144" lon="6.23654">
        <ele>653.2</ele>
        <time>2022-06-08T08:21:20.000Z</time>
      </trkpt>
      <trkpt lat="43.63147" lon="6.23659">
        <ele>653</ele>
        <time>2022-06-08T08:21:25.000Z</time>
      </trkpt>
      <trkpt lat="43.6315" lon="6.23665">
        <ele>653.1</ele>
        <time>2022-06-08T08:21:30.000Z</time>
      </trkpt>
      <trkpt lat="43.63152" lon="6.23671">
        <ele>653.1</ele>
        <time>2022-06-08T08:21:34.000Z</time>
      </trkpt>
      <trkpt lat="43.63153" lon="6.23678">
        <ele>653.2</ele>
        <time>2022-06-08T08:21:38.000Z</time>
      </trkpt>
      <trkpt lat="43.63155" lon="6.23685">
        <ele>653</ele>
        <time>2022-06-08T08:21:43.000Z</time>
      </trkpt>
      <trkpt lat="43.63156" lon="6.23693">
        <ele>653.1</ele>
        <time>2022-06-08T08:21:47.000Z</time>
      </trkpt>
      <trkpt lat="43.63157" lon="6.23699">
        <ele>653</ele>
        <time>2022-06-08T08:21:50.000Z</time>
      </trkpt>
      <trkpt lat="43.63158" lon="6.23706">
        <ele>653.1</ele>
        <time>2022-06-08T08:21:56.000Z</time>
      </trkpt>
      <trkpt lat="43.63154" lon="6.23711">
        <ele>653.2</ele>
        <time>2022-06-08T08:21:59.000Z</time>
      </trkpt>
      <trkpt lat="43.63151" lon="6.23716">
        <ele>653.3</ele>
        <time>2022-06-08T08:22:04.000Z</time>
      </trkpt>
      <trkpt lat="43.63151" lon="6.23723">
        <ele>653.2</ele>
        <time>2022-06-08T08:22:11.000Z</time>
      </trkpt>
      <trkpt lat="43.63149" lon="6.23728">
        <ele>653.5</ele>
        <time>2022-06-08T08:22:14.000Z</time>
      </trkpt>
      <trkpt lat="43.63147" lon="6.23735">
        <ele>653.3</ele>
        <time>2022-06-08T08:22:19.000Z</time>
      </trkpt>
      <trkpt lat="43.63142" lon="6.23741">
        <ele>653.6</ele>
        <time>2022-06-08T08:22:23.000Z</time>
      </trkpt>
      <trkpt lat="43.63138" lon="6.23745">
        <ele>653.7</ele>
        <time>2022-06-08T08:22:27.000Z</time>
      </trkpt>
      <trkpt lat="43.63133" lon="6.23746">
        <ele>653.6</ele>
        <time>2022-06-08T08:22:31.000Z</time>
      </trkpt>
      <trkpt lat="43.63128" lon="6.23744">
        <ele>653.7</ele>
        <time>2022-06-08T08:22:36.000Z</time>
      </trkpt>
      <trkpt lat="43.63124" lon="6.23741">
        <ele>653.8</ele>
        <time>2022-06-08T08:22:38.000Z</time>
      </trkpt>
      <trkpt lat="43.6312" lon="6.23737">
        <ele>653.5</ele>
        <time>2022-06-08T08:22:42.000Z</time>
      </trkpt>
      <trkpt lat="43.63116" lon="6.23733">
        <ele>653.7</ele>
        <time>2022-06-08T08:22:46.000Z</time>
      </trkpt>
      <trkpt lat="43.6311" lon="6.23731">
        <ele>653.7</ele>
        <time>2022-06-08T08:22:55.000Z</time>
      </trkpt>
      <trkpt lat="43.63106" lon="6.23728">
        <ele>654</ele>
        <time>2022-06-08T08:22:58.000Z</time>
      </trkpt>
      <trkpt lat="43.63101" lon="6.23725">
        <ele>654.1</ele>
        <time>2022-06-08T08:23:01.000Z</time>
      </trkpt>
      <trkpt lat="43.63096" lon="6.23721">
        <ele>654</ele>
        <time>2022-06-08T08:23:05.000Z</time>
      </trkpt>
      <trkpt lat="43.63091" lon="6.23718">
        <ele>653.7</ele>
        <time>2022-06-08T08:23:09.000Z</time>
      </trkpt>
      <trkpt lat="43.63086" lon="6.23715">
        <ele>654</ele>
        <time>2022-06-08T08:23:12.000Z</time>
      </trkpt>
      <trkpt lat="43.63082" lon="6.23712">
        <ele>654.1</ele>
        <time>2022-06-08T08:23:14.000Z</time>
      </trkpt>
      <trkpt lat="43.63076" lon="6.23713">
        <ele>654.1</ele>
        <time>2022-06-08T08:23:20.000Z</time>
      </trkpt>
      <trkpt lat="43.63071" lon="6.23711">
        <ele>654.2</ele>
        <time>2022-06-08T08:23:23.000Z</time>
      </trkpt>
      <trkpt lat="43.63065" lon="6.23711">
        <ele>653.8</ele>
        <time>2022-06-08T08:23:29.000Z</time>
      </trkpt>
      <trkpt lat="43.63059" lon="6.23711">
        <ele>654.1</ele>
        <time>2022-06-08T08:23:33.000Z</time>
      </trkpt>
      <trkpt lat="43.63054" lon="6.23712">
        <ele>654.3</ele>
        <time>2022-06-08T08:23:39.000Z</time>
      </trkpt>
      <trkpt lat="43.63049" lon="6.23713">
        <ele>654.4</ele>
        <time>2022-06-08T08:23:42.000Z</time>
      </trkpt>
      <trkpt lat="43.63044" lon="6.23712">
        <ele>654.1</ele>
        <time>2022-06-08T08:23:46.000Z</time>
      </trkpt>
      <trkpt lat="43.63039" lon="6.23714">
        <ele>654.3</ele>
        <time>2022-06-08T08:23:53.000Z</time>
      </trkpt>
      <trkpt lat="43.63035" lon="6.23716">
        <ele>654.4</ele>
        <time>2022-06-08T08:23:57.000Z</time>
      </trkpt>
      <trkpt lat="43.63029" lon="6.23716">
        <ele>654.4</ele>
        <time>2022-06-08T08:24:01.000Z</time>
      </trkpt>
      <trkpt lat="43.63025" lon="6.2372">
        <ele>654.6</ele>
        <time>2022-06-08T08:24:07.000Z</time>
      </trkpt>
      <trkpt lat="43.6302" lon="6.23719">
        <ele>654.3</ele>
        <time>2022-06-08T08:24:12.000Z</time>
      </trkpt>
      <trkpt lat="43.63015" lon="6.23719">
        <ele>654.2</ele>
        <time>2022-06-08T08:24:17.000Z</time>
      </trkpt>
      <trkpt lat="43.6301" lon="6.2372">
        <ele>654.2</ele>
        <time>2022-06-08T08:24:25.000Z</time>
      </trkpt>
      <trkpt lat="43.63005" lon="6.2372">
        <ele>654.1</ele>
        <time>2022-06-08T08:24:30.000Z</time>
      </trkpt>
      <trkpt lat="43.63001" lon="6.23725">
        <ele>654.1</ele>
        <time>2022-06-08T08:24:34.000Z</time>
      </trkpt>
      <trkpt lat="43.63005" lon="6.23724">
        <ele>654.2</ele>
        <time>2022-06-08T08:24:58.000Z</time>
      </trkpt>
      <trkpt lat="43.63" lon="6.23725">
        <ele>654.3</ele>
        <time>2022-06-08T08:25:04.000Z</time>
      </trkpt>
      <trkpt lat="43.62995" lon="6.2373">
        <ele>654</ele>
        <time>2022-06-08T08:25:10.000Z</time>
      </trkpt>
      <trkpt lat="43.62991" lon="6.23734">
        <ele>654.3</ele>
        <time>2022-06-08T08:25:14.000Z</time>
      </trkpt>
      <trkpt lat="43.62989" lon="6.23741">
        <ele>654.3</ele>
        <time>2022-06-08T08:25:18.000Z</time>
      </trkpt>
      <trkpt lat="43.62987" lon="6.23747">
        <ele>654.2</ele>
        <time>2022-06-08T08:25:21.000Z</time>
      </trkpt>
      <trkpt lat="43.62984" lon="6.23752">
        <ele>654.3</ele>
        <time>2022-06-08T08:25:25.000Z</time>
      </trkpt>
      <trkpt lat="43.6298" lon="6.23756">
        <ele>654</ele>
        <time>2022-06-08T08:25:29.000Z</time>
      </trkpt>
      <trkpt lat="43.62976" lon="6.23759">
        <ele>654.2</ele>
        <time>2022-06-08T08:25:32.000Z</time>
      </trkpt>
      <trkpt lat="43.62972" lon="6.23764">
        <ele>653.9</ele>
        <time>2022-06-08T08:25:37.000Z</time>
      </trkpt>
      <trkpt lat="43.6297" lon="6.2377">
        <ele>653.8</ele>
        <time>2022-06-08T08:25:41.000Z</time>
      </trkpt>
      <trkpt lat="43.62967" lon="6.23776">
        <ele>654.1</ele>
        <time>2022-06-08T08:25:46.000Z</time>
      </trkpt>
      <trkpt lat="43.62965" lon="6.23782">
        <ele>654.1</ele>
        <time>2022-06-08T08:25:50.000Z</time>
      </trkpt>
      <trkpt lat="43.62963" lon="6.23789">
        <ele>654.2</ele>
        <time>2022-06-08T08:25:54.000Z</time>
      </trkpt>
      <trkpt lat="43.62961" lon="6.23795">
        <ele>653.9</ele>
        <time>2022-06-08T08:25:58.000Z</time>
      </trkpt>
      <trkpt lat="43.62962" lon="6.23803">
        <ele>653.8</ele>
        <time>2022-06-08T08:26:03.000Z</time>
      </trkpt>
      <trkpt lat="43.62962" lon="6.23811">
        <ele>654.2</ele>
        <time>2022-06-08T08:26:07.000Z</time>
      </trkpt>
      <trkpt lat="43.62963" lon="6.23818">
        <ele>654.1</ele>
        <time>2022-06-08T08:26:12.000Z</time>
      </trkpt>
      <trkpt lat="43.62963" lon="6.23824">
        <ele>654.3</ele>
        <time>2022-06-08T08:26:15.000Z</time>
      </trkpt>
      <trkpt lat="43.62965" lon="6.23831">
        <ele>654.4</ele>
        <time>2022-06-08T08:26:20.000Z</time>
      </trkpt>
      <trkpt lat="43.62967" lon="6.23837">
        <ele>654.5</ele>
        <time>2022-06-08T08:26:23.000Z</time>
      </trkpt>
      <trkpt lat="43.6297" lon="6.23844">
        <ele>654.5</ele>
        <time>2022-06-08T08:26:28.000Z</time>
      </trkpt>
      <trkpt lat="43.62971" lon="6.23851">
        <ele>654.8</ele>
        <time>2022-06-08T08:26:33.000Z</time>
      </trkpt>
      <trkpt lat="43.62974" lon="6.23858">
        <ele>654.6</ele>
        <time>2022-06-08T08:26:37.000Z</time>
      </trkpt>
      <trkpt lat="43.62977" lon="6.23863">
        <ele>654.8</ele>
        <time>2022-06-08T08:26:40.000Z</time>
      </trkpt>
      <trkpt lat="43.6298" lon="6.23868">
        <ele>654.8</ele>
        <time>2022-06-08T08:26:45.000Z</time>
      </trkpt>
      <trkpt lat="43.62983" lon="6.23874">
        <ele>654.9</ele>
        <time>2022-06-08T08:26:49.000Z</time>
      </trkpt>
      <trkpt lat="43.62987" lon="6.23879">
        <ele>654.6</ele>
        <time>2022-06-08T08:26:53.000Z</time>
      </trkpt>
      <trkpt lat="43.6299" lon="6.23884">
        <ele>655</ele>
        <time>2022-06-08T08:26:59.000Z</time>
      </trkpt>
      <trkpt lat="43.62985" lon="6.23882">
        <ele>651.7</ele>
        <time>2022-06-08T08:28:29.000Z</time>
      </trkpt>
      <trkpt lat="43.62981" lon="6.23879">
        <ele>651</ele>
        <time>2022-06-08T08:28:36.000Z</time>
      </trkpt>
      <trkpt lat="43.62976" lon="6.23878">
        <ele>650.2</ele>
        <time>2022-06-08T08:28:44.000Z</time>
      </trkpt>
      <trkpt lat="43.62972" lon="6.23876">
        <ele>649.6</ele>
        <time>2022-06-08T08:28:49.000Z</time>
      </trkpt>
      <trkpt lat="43.62967" lon="6.23871">
        <ele>648.9</ele>
        <time>2022-06-08T08:28:55.000Z</time>
      </trkpt>
      <trkpt lat="43.62963" lon="6.23867">
        <ele>648.5</ele>
        <time>2022-06-08T08:28:58.000Z</time>
      </trkpt>
      <trkpt lat="43.62959" lon="6.23864">
        <ele>647.1</ele>
        <time>2022-06-08T08:29:09.000Z</time>
      </trkpt>
      <trkpt lat="43.62955" lon="6.2386">
        <ele>645.7</ele>
        <time>2022-06-08T08:29:17.000Z</time>
      </trkpt>
      <trkpt lat="43.62952" lon="6.23856">
        <ele>642.9</ele>
        <time>2022-06-08T08:29:29.000Z</time>
      </trkpt>
      <trkpt lat="43.62947" lon="6.23853">
        <ele>642</ele>
        <time>2022-06-08T08:29:35.000Z</time>
      </trkpt>
      <trkpt lat="43.62943" lon="6.2385">
        <ele>641.5</ele>
        <time>2022-06-08T08:29:39.000Z</time>
      </trkpt>
      <trkpt lat="43.62938" lon="6.23845">
        <ele>640.6</ele>
        <time>2022-06-08T08:29:45.000Z</time>
      </trkpt>
      <trkpt lat="43.62934" lon="6.23842">
        <ele>639.9</ele>
        <time>2022-06-08T08:29:50.000Z</time>
      </trkpt>
      <trkpt lat="43.62929" lon="6.2384">
        <ele>638.8</ele>
        <time>2022-06-08T08:29:57.000Z</time>
      </trkpt>
      <trkpt lat="43.62925" lon="6.23839">
        <ele>638.3</ele>
        <time>2022-06-08T08:30:02.000Z</time>
      </trkpt>
      <trkpt lat="43.62921" lon="6.23835">
        <ele>637.4</ele>
        <time>2022-06-08T08:30:08.000Z</time>
      </trkpt>
      <trkpt lat="43.62916" lon="6.23831">
        <ele>636.3</ele>
        <time>2022-06-08T08:30:13.000Z</time>
      </trkpt>
      <trkpt lat="43.62912" lon="6.23826">
        <ele>635.9</ele>
        <time>2022-06-08T08:30:19.000Z</time>
      </trkpt>
      <trkpt lat="43.62908" lon="6.23821">
        <ele>635.1</ele>
        <time>2022-06-08T08:30:24.000Z</time>
      </trkpt>
      <trkpt lat="43.62904" lon="6.23816">
        <ele>634</ele>
        <time>2022-06-08T08:30:31.000Z</time>
      </trkpt>
      <trkpt lat="43.62899" lon="6.23814">
        <ele>633.4</ele>
        <time>2022-06-08T08:30:36.000Z</time>
      </trkpt>
      <trkpt lat="43.62897" lon="6.23807">
        <ele>631.8</ele>
        <time>2022-06-08T08:30:46.000Z</time>
      </trkpt>
      <trkpt lat="43.62893" lon="6.23802">
        <ele>630.4</ele>
        <time>2022-06-08T08:30:55.000Z</time>
      </trkpt>
      <trkpt lat="43.6289" lon="6.23797">
        <ele>629</ele>
        <time>2022-06-08T08:31:04.000Z</time>
      </trkpt>
      <trkpt lat="43.62888" lon="6.23791">
        <ele>627.8</ele>
        <time>2022-06-08T08:31:13.000Z</time>
      </trkpt>
      <trkpt lat="43.62885" lon="6.23786">
        <ele>627.4</ele>
        <time>2022-06-08T08:31:16.000Z</time>
      </trkpt>
      <trkpt lat="43.62882" lon="6.23781">
        <ele>626.7</ele>
        <time>2022-06-08T08:31:20.000Z</time>
      </trkpt>
      <trkpt lat="43.62881" lon="6.23775">
        <ele>625.6</ele>
        <time>2022-06-08T08:31:28.000Z</time>
      </trkpt>
      <trkpt lat="43.62878" lon="6.23768">
        <ele>625.2</ele>
        <time>2022-06-08T08:31:31.000Z</time>
      </trkpt>
      <trkpt lat="43.62875" lon="6.23763">
        <ele>624.5</ele>
        <time>2022-06-08T08:31:36.000Z</time>
      </trkpt>
      <trkpt lat="43.62873" lon="6.23757">
        <ele>623.5</ele>
        <time>2022-06-08T08:31:44.000Z</time>
      </trkpt>
      <trkpt lat="43.62872" lon="6.2375">
        <ele>622.9</ele>
        <time>2022-06-08T08:31:49.000Z</time>
      </trkpt>
      <trkpt lat="43.62868" lon="6.23746">
        <ele>622.5</ele>
        <time>2022-06-08T08:31:54.000Z</time>
      </trkpt>
      <trkpt lat="43.62868" lon="6.23738">
        <ele>621.7</ele>
        <time>2022-06-08T08:32:06.000Z</time>
      </trkpt>
      <trkpt lat="43.62865" lon="6.23733">
        <ele>621</ele>
        <time>2022-06-08T08:32:17.000Z</time>
      </trkpt>
      <trkpt lat="43.62866" lon="6.23725">
        <ele>620.2</ele>
        <time>2022-06-08T08:32:28.000Z</time>
      </trkpt>
      <trkpt lat="43.62864" lon="6.23719">
        <ele>619.4</ele>
        <time>2022-06-08T08:32:33.000Z</time>
      </trkpt>
      <trkpt lat="43.6286" lon="6.23713">
        <ele>618.4</ele>
        <time>2022-06-08T08:32:39.000Z</time>
      </trkpt>
      <trkpt lat="43.62857" lon="6.23709">
        <ele>618.2</ele>
        <time>2022-06-08T08:32:41.000Z</time>
      </trkpt>
      <trkpt lat="43.62855" lon="6.23702">
        <ele>617.5</ele>
        <time>2022-06-08T08:32:47.000Z</time>
      </trkpt>
      <trkpt lat="43.62853" lon="6.23695">
        <ele>616.6</ele>
        <time>2022-06-08T08:32:53.000Z</time>
      </trkpt>
      <trkpt lat="43.6285" lon="6.23689">
        <ele>616</ele>
        <time>2022-06-08T08:32:59.000Z</time>
      </trkpt>
      <trkpt lat="43.6285" lon="6.23683">
        <ele>615.2</ele>
        <time>2022-06-08T08:33:04.000Z</time>
      </trkpt>
      <trkpt lat="43.62854" lon="6.23676">
        <ele>614.5</ele>
        <time>2022-06-08T08:33:10.000Z</time>
      </trkpt>
      <trkpt lat="43.62855" lon="6.2367">
        <ele>613.2</ele>
        <time>2022-06-08T08:33:17.000Z</time>
      </trkpt>
      <trkpt lat="43.62859" lon="6.23665">
        <ele>611.9</ele>
        <time>2022-06-08T08:33:26.000Z</time>
      </trkpt>
      <trkpt lat="43.6286" lon="6.23659">
        <ele>610.8</ele>
        <time>2022-06-08T08:33:33.000Z</time>
      </trkpt>
      <trkpt lat="43.62863" lon="6.23654">
        <ele>609.7</ele>
        <time>2022-06-08T08:33:40.000Z</time>
      </trkpt>
      <trkpt lat="43.62868" lon="6.23654">
        <ele>609</ele>
        <time>2022-06-08T08:33:44.000Z</time>
      </trkpt>
      <trkpt lat="43.62872" lon="6.23652">
        <ele>608.5</ele>
        <time>2022-06-08T08:33:47.000Z</time>
      </trkpt>
      <trkpt lat="43.62872" lon="6.23646">
        <ele>608</ele>
        <time>2022-06-08T08:33:51.000Z</time>
      </trkpt>
      <trkpt lat="43.62872" lon="6.23638">
        <ele>607.4</ele>
        <time>2022-06-08T08:33:55.000Z</time>
      </trkpt>
      <trkpt lat="43.62877" lon="6.23633">
        <ele>606.8</ele>
        <time>2022-06-08T08:34:00.000Z</time>
      </trkpt>
      <trkpt lat="43.62877" lon="6.23626">
        <ele>606.2</ele>
        <time>2022-06-08T08:34:04.000Z</time>
      </trkpt>
      <trkpt lat="43.62875" lon="6.2362">
        <ele>605.3</ele>
        <time>2022-06-08T08:34:10.000Z</time>
      </trkpt>
      <trkpt lat="43.62873" lon="6.23614">
        <ele>604.8</ele>
        <time>2022-06-08T08:34:13.000Z</time>
      </trkpt>
      <trkpt lat="43.62868" lon="6.23611">
        <ele>603.8</ele>
        <time>2022-06-08T08:34:19.000Z</time>
      </trkpt>
      <trkpt lat="43.62866" lon="6.23604">
        <ele>603.1</ele>
        <time>2022-06-08T08:34:25.000Z</time>
      </trkpt>
      <trkpt lat="43.62865" lon="6.23597">
        <ele>601.8</ele>
        <time>2022-06-08T08:34:34.000Z</time>
      </trkpt>
      <trkpt lat="43.62863" lon="6.2359">
        <ele>600.9</ele>
        <time>2022-06-08T08:34:41.000Z</time>
      </trkpt>
      <trkpt lat="43.62863" lon="6.23583">
        <ele>600.2</ele>
        <time>2022-06-08T08:34:45.000Z</time>
      </trkpt>
      <trkpt lat="43.62862" lon="6.23576">
        <ele>598.6</ele>
        <time>2022-06-08T08:34:53.000Z</time>
      </trkpt>
      <trkpt lat="43.62861" lon="6.2357">
        <ele>597.5</ele>
        <time>2022-06-08T08:34:59.000Z</time>
      </trkpt>
      <trkpt lat="43.62862" lon="6.23563">
        <ele>596.9</ele>
        <time>2022-06-08T08:35:03.000Z</time>
      </trkpt>
      <trkpt lat="43.62861" lon="6.23556">
        <ele>596.1</ele>
        <time>2022-06-08T08:35:08.000Z</time>
      </trkpt>
      <trkpt lat="43.62857" lon="6.23554">
        <ele>594.7</ele>
        <time>2022-06-08T08:35:29.000Z</time>
      </trkpt>
      <trkpt lat="43.62853" lon="6.23551">
        <ele>594.5</ele>
        <time>2022-06-08T08:35:40.000Z</time>
      </trkpt>
      <trkpt lat="43.62852" lon="6.23544">
        <ele>594.4</ele>
        <time>2022-06-08T08:36:04.000Z</time>
      </trkpt>
      <trkpt lat="43.62851" lon="6.23538">
        <ele>593.6</ele>
        <time>2022-06-08T08:36:16.000Z</time>
      </trkpt>
      <trkpt lat="43.62848" lon="6.23532">
        <ele>593.3</ele>
        <time>2022-06-08T08:36:24.000Z</time>
      </trkpt>
      <trkpt lat="43.62846" lon="6.23526">
        <ele>593</ele>
        <time>2022-06-08T08:36:31.000Z</time>
      </trkpt>
      <trkpt lat="43.62843" lon="6.2352">
        <ele>592</ele>
        <time>2022-06-08T08:36:38.000Z</time>
      </trkpt>
      <trkpt lat="43.62839" lon="6.23516">
        <ele>591.6</ele>
        <time>2022-06-08T08:36:45.000Z</time>
      </trkpt>
      <trkpt lat="43.62837" lon="6.2351">
        <ele>590.8</ele>
        <time>2022-06-08T08:36:54.000Z</time>
      </trkpt>
      <trkpt lat="43.62834" lon="6.23504">
        <ele>590.1</ele>
        <time>2022-06-08T08:37:00.000Z</time>
      </trkpt>
      <trkpt lat="43.62831" lon="6.23499">
        <ele>589.5</ele>
        <time>2022-06-08T08:37:06.000Z</time>
      </trkpt>
      <trkpt lat="43.62829" lon="6.23493">
        <ele>589</ele>
        <time>2022-06-08T08:37:12.000Z</time>
      </trkpt>
      <trkpt lat="43.62825" lon="6.23489">
        <ele>588.3</ele>
        <time>2022-06-08T08:37:17.000Z</time>
      </trkpt>
      <trkpt lat="43.62821" lon="6.23485">
        <ele>587.7</ele>
        <time>2022-06-08T08:37:23.000Z</time>
      </trkpt>
      <trkpt lat="43.62817" lon="6.23482">
        <ele>587.3</ele>
        <time>2022-06-08T08:37:27.000Z</time>
      </trkpt>
      <trkpt lat="43.62812" lon="6.2348">
        <ele>587.3</ele>
        <time>2022-06-08T08:37:34.000Z</time>
      </trkpt>
      <trkpt lat="43.62807" lon="6.23482">
        <ele>587.5</ele>
        <time>2022-06-08T08:37:39.000Z</time>
      </trkpt>
      <trkpt lat="43.62802" lon="6.23481">
        <ele>587.5</ele>
        <time>2022-06-08T08:37:44.000Z</time>
      </trkpt>
      <trkpt lat="43.62797" lon="6.23479">
        <ele>587.7</ele>
        <time>2022-06-08T08:37:49.000Z</time>
      </trkpt>
      <trkpt lat="43.62793" lon="6.23476">
        <ele>587.8</ele>
        <time>2022-06-08T08:37:55.000Z</time>
      </trkpt>
      <trkpt lat="43.62789" lon="6.23473">
        <ele>587.7</ele>
        <time>2022-06-08T08:38:01.000Z</time>
      </trkpt>
      <trkpt lat="43.62786" lon="6.23468">
        <ele>587.2</ele>
        <time>2022-06-08T08:38:07.000Z</time>
      </trkpt>
      <trkpt lat="43.62782" lon="6.23463">
        <ele>586.5</ele>
        <time>2022-06-08T08:38:13.000Z</time>
      </trkpt>
      <trkpt lat="43.62781" lon="6.23457">
        <ele>586.2</ele>
        <time>2022-06-08T08:38:19.000Z</time>
      </trkpt>
      <trkpt lat="43.62783" lon="6.23451">
        <ele>585.4</ele>
        <time>2022-06-08T08:38:27.000Z</time>
      </trkpt>
      <trkpt lat="43.62785" lon="6.23446">
        <ele>584.2</ele>
        <time>2022-06-08T08:38:35.000Z</time>
      </trkpt>
      <trkpt lat="43.62789" lon="6.23441">
        <ele>583.1</ele>
        <time>2022-06-08T08:38:43.000Z</time>
      </trkpt>
      <trkpt lat="43.62791" lon="6.23435">
        <ele>582.1</ele>
        <time>2022-06-08T08:38:50.000Z</time>
      </trkpt>
      <trkpt lat="43.62794" lon="6.23429">
        <ele>580.9</ele>
        <time>2022-06-08T08:38:57.000Z</time>
      </trkpt>
      <trkpt lat="43.6279" lon="6.23426">
        <ele>578.8</ele>
        <time>2022-06-08T08:39:37.000Z</time>
      </trkpt>
      <trkpt lat="43.62785" lon="6.23426">
        <ele>578.7</ele>
        <time>2022-06-08T08:39:56.000Z</time>
      </trkpt>
      <trkpt lat="43.62785" lon="6.2342">
        <ele>578.5</ele>
        <time>2022-06-08T08:41:00.000Z</time>
      </trkpt>
      <trkpt lat="43.62782" lon="6.23413">
        <ele>578.1</ele>
        <time>2022-06-08T08:41:09.000Z</time>
      </trkpt>
      <trkpt lat="43.62779" lon="6.23408">
        <ele>577.7</ele>
        <time>2022-06-08T08:41:16.000Z</time>
      </trkpt>
      <trkpt lat="43.62777" lon="6.23402">
        <ele>577.4</ele>
        <time>2022-06-08T08:41:20.000Z</time>
      </trkpt>
      <trkpt lat="43.62777" lon="6.23395">
        <ele>576.8</ele>
        <time>2022-06-08T08:41:28.000Z</time>
      </trkpt>
      <trkpt lat="43.62773" lon="6.23389">
        <ele>576.3</ele>
        <time>2022-06-08T08:41:33.000Z</time>
      </trkpt>
      <trkpt lat="43.62772" lon="6.23381">
        <ele>575.6</ele>
        <time>2022-06-08T08:41:40.000Z</time>
      </trkpt>
      <trkpt lat="43.62773" lon="6.23374">
        <ele>575</ele>
        <time>2022-06-08T08:41:46.000Z</time>
      </trkpt>
      <trkpt lat="43.62778" lon="6.23371">
        <ele>573.9</ele>
        <time>2022-06-08T08:41:59.000Z</time>
      </trkpt>
      <trkpt lat="43.62783" lon="6.2337">
        <ele>573.2</ele>
        <time>2022-06-08T08:42:07.000Z</time>
      </trkpt>
      <trkpt lat="43.62787" lon="6.2337">
        <ele>573</ele>
        <time>2022-06-08T08:42:11.000Z</time>
      </trkpt>
      <trkpt lat="43.62792" lon="6.2337">
        <ele>572.9</ele>
        <time>2022-06-08T08:42:15.000Z</time>
      </trkpt>
      <trkpt lat="43.62797" lon="6.23369">
        <ele>572.8</ele>
        <time>2022-06-08T08:42:20.000Z</time>
      </trkpt>
      <trkpt lat="43.62797" lon="6.23362">
        <ele>572.7</ele>
        <time>2022-06-08T08:42:29.000Z</time>
      </trkpt>
      <trkpt lat="43.62799" lon="6.23355">
        <ele>572.5</ele>
        <time>2022-06-08T08:42:39.000Z</time>
      </trkpt>
      <trkpt lat="43.62801" lon="6.23349">
        <ele>571.8</ele>
        <time>2022-06-08T08:42:47.000Z</time>
      </trkpt>
      <trkpt lat="43.628" lon="6.23343">
        <ele>571.2</ele>
        <time>2022-06-08T08:42:53.000Z</time>
      </trkpt>
      <trkpt lat="43.62798" lon="6.23337">
        <ele>570.7</ele>
        <time>2022-06-08T08:42:57.000Z</time>
      </trkpt>
      <trkpt lat="43.62798" lon="6.23331">
        <ele>570</ele>
        <time>2022-06-08T08:43:02.000Z</time>
      </trkpt>
      <trkpt lat="43.62802" lon="6.23327">
        <ele>569.9</ele>
        <time>2022-06-08T08:43:31.000Z</time>
      </trkpt>
      <trkpt lat="43.62802" lon="6.23319">
        <ele>569.7</ele>
        <time>2022-06-08T08:43:39.000Z</time>
      </trkpt>
      <trkpt lat="43.62805" lon="6.23313">
        <ele>569.1</ele>
        <time>2022-06-08T08:43:45.000Z</time>
      </trkpt>
      <trkpt lat="43.62805" lon="6.23307">
        <ele>568.7</ele>
        <time>2022-06-08T08:43:54.000Z</time>
      </trkpt>
      <trkpt lat="43.62807" lon="6.233">
        <ele>569.4</ele>
        <time>2022-06-08T08:44:05.000Z</time>
      </trkpt>
      <trkpt lat="43.6281" lon="6.23295">
        <ele>569.8</ele>
        <time>2022-06-08T08:44:12.000Z</time>
      </trkpt>
      <trkpt lat="43.62812" lon="6.23289">
        <ele>569</ele>
        <time>2022-06-08T08:44:20.000Z</time>
      </trkpt>
      <trkpt lat="43.62817" lon="6.23285">
        <ele>569.3</ele>
        <time>2022-06-08T08:44:28.000Z</time>
      </trkpt>
      <trkpt lat="43.6282" lon="6.23281">
        <ele>569.1</ele>
        <time>2022-06-08T08:44:32.000Z</time>
      </trkpt>
      <trkpt lat="43.62821" lon="6.23275">
        <ele>568.9</ele>
        <time>2022-06-08T08:44:39.000Z</time>
      </trkpt>
      <trkpt lat="43.62819" lon="6.23269">
        <ele>568.5</ele>
        <time>2022-06-08T08:44:55.000Z</time>
      </trkpt>
      <trkpt lat="43.62823" lon="6.23267">
        <ele>567.8</ele>
        <time>2022-06-08T08:45:37.000Z</time>
      </trkpt>
      <trkpt lat="43.62819" lon="6.23264">
        <ele>568.4</ele>
        <time>2022-06-08T08:45:42.000Z</time>
      </trkpt>
      <trkpt lat="43.62815" lon="6.23259">
        <ele>568.1</ele>
        <time>2022-06-08T08:45:56.000Z</time>
      </trkpt>
      <trkpt lat="43.62811" lon="6.23261">
        <ele>567.7</ele>
        <time>2022-06-08T08:46:20.000Z</time>
      </trkpt>
      <trkpt lat="43.62807" lon="6.23264">
        <ele>567.8</ele>
        <time>2022-06-08T08:46:29.000Z</time>
      </trkpt>
      <trkpt lat="43.6281" lon="6.23269">
        <ele>567.7</ele>
        <time>2022-06-08T08:46:37.000Z</time>
      </trkpt>
      <trkpt lat="43.62814" lon="6.23272">
        <ele>567.8</ele>
        <time>2022-06-08T08:46:40.000Z</time>
      </trkpt>
      <trkpt lat="43.62813" lon="6.23265">
        <ele>568.8</ele>
        <time>2022-06-08T08:46:46.000Z</time>
      </trkpt>
      <trkpt lat="43.62818" lon="6.23265">
        <ele>568.3</ele>
        <time>2022-06-08T08:46:56.000Z</time>
      </trkpt>
      <trkpt lat="43.62823" lon="6.23264">
        <ele>568.9</ele>
        <time>2022-06-08T08:47:02.000Z</time>
      </trkpt>
      <trkpt lat="43.62828" lon="6.23266">
        <ele>567</ele>
        <time>2022-06-08T08:47:10.000Z</time>
      </trkpt>
      <trkpt lat="43.62833" lon="6.23265">
        <ele>568.7</ele>
        <time>2022-06-08T08:47:17.000Z</time>
      </trkpt>
      <trkpt lat="43.62838" lon="6.23263">
        <ele>569.1</ele>
        <time>2022-06-08T08:47:20.000Z</time>
      </trkpt>
      <trkpt lat="43.62843" lon="6.23263">
        <ele>569.4</ele>
        <time>2022-06-08T08:47:25.000Z</time>
      </trkpt>
      <trkpt lat="43.62848" lon="6.23264">
        <ele>569.4</ele>
        <time>2022-06-08T08:47:29.000Z</time>
      </trkpt>
      <trkpt lat="43.62853" lon="6.23263">
        <ele>569.8</ele>
        <time>2022-06-08T08:47:35.000Z</time>
      </trkpt>
      <trkpt lat="43.62857" lon="6.23259">
        <ele>568.8</ele>
        <time>2022-06-08T08:47:41.000Z</time>
      </trkpt>
      <trkpt lat="43.6286" lon="6.23254">
        <ele>568</ele>
        <time>2022-06-08T08:47:48.000Z</time>
      </trkpt>
      <trkpt lat="43.62861" lon="6.23247">
        <ele>569.1</ele>
        <time>2022-06-08T08:48:04.000Z</time>
      </trkpt>
      <trkpt lat="43.62857" lon="6.23245">
        <ele>569.3</ele>
        <time>2022-06-08T08:48:16.000Z</time>
      </trkpt>
      <trkpt lat="43.62861" lon="6.23247">
        <ele>571.1</ele>
        <time>2022-06-08T08:48:26.000Z</time>
      </trkpt>
      <trkpt lat="43.62866" lon="6.23245">
        <ele>571</ele>
        <time>2022-06-08T08:48:36.000Z</time>
      </trkpt>
      <trkpt lat="43.62861" lon="6.23238">
        <ele>571</ele>
        <time>2022-06-08T08:48:56.000Z</time>
      </trkpt>
      <trkpt lat="43.6287" lon="6.23245">
        <ele>570</ele>
        <time>2022-06-08T08:49:43.000Z</time>
      </trkpt>
      <trkpt lat="43.6287" lon="6.23239">
        <ele>568.9</ele>
        <time>2022-06-08T08:50:07.000Z</time>
      </trkpt>
      <trkpt lat="43.62874" lon="6.23241">
        <ele>568.4</ele>
        <time>2022-06-08T08:50:12.000Z</time>
      </trkpt>
      <trkpt lat="43.62877" lon="6.23245">
        <ele>567.8</ele>
        <time>2022-06-08T08:50:17.000Z</time>
      </trkpt>
      <trkpt lat="43.62882" lon="6.23245">
        <ele>567</ele>
        <time>2022-06-08T08:50:36.000Z</time>
      </trkpt>
      <trkpt lat="43.62881" lon="6.23238">
        <ele>566.4</ele>
        <time>2022-06-08T08:50:40.000Z</time>
      </trkpt>
      <trkpt lat="43.62885" lon="6.23242">
        <ele>569.2</ele>
        <time>2022-06-08T08:51:02.000Z</time>
      </trkpt>
      <trkpt lat="43.62887" lon="6.23235">
        <ele>569.3</ele>
        <time>2022-06-08T08:51:18.000Z</time>
      </trkpt>
      <trkpt lat="43.62887" lon="6.23227">
        <ele>569.2</ele>
        <time>2022-06-08T08:51:25.000Z</time>
      </trkpt>
      <trkpt lat="43.62887" lon="6.23221">
        <ele>568.5</ele>
        <time>2022-06-08T08:51:32.000Z</time>
      </trkpt>
      <trkpt lat="43.62886" lon="6.23213">
        <ele>566.9</ele>
        <time>2022-06-08T08:51:56.000Z</time>
      </trkpt>
      <trkpt lat="43.62889" lon="6.23206">
        <ele>567</ele>
        <time>2022-06-08T08:51:59.000Z</time>
      </trkpt>
      <trkpt lat="43.62894" lon="6.23205">
        <ele>566.9</ele>
        <time>2022-06-08T08:52:14.000Z</time>
      </trkpt>
      <trkpt lat="43.62898" lon="6.23203">
        <ele>567.2</ele>
        <time>2022-06-08T08:52:25.000Z</time>
      </trkpt>
      <trkpt lat="43.62902" lon="6.23205">
        <ele>567.3</ele>
        <time>2022-06-08T08:52:29.000Z</time>
      </trkpt>
      <trkpt lat="43.62908" lon="6.23207">
        <ele>571</ele>
        <time>2022-06-08T08:53:37.000Z</time>
      </trkpt>
      <trkpt lat="43.62917" lon="6.23212">
        <ele>571</ele>
        <time>2022-06-08T08:55:53.000Z</time>
      </trkpt>
      <trkpt lat="43.62918" lon="6.23205">
        <ele>570.4</ele>
        <time>2022-06-08T08:56:00.000Z</time>
      </trkpt>
      <trkpt lat="43.62921" lon="6.23211">
        <ele>567</ele>
        <time>2022-06-08T08:56:10.000Z</time>
      </trkpt>
      <trkpt lat="43.62921" lon="6.23219">
        <ele>567.3</ele>
        <time>2022-06-08T08:56:13.000Z</time>
      </trkpt>
      <trkpt lat="43.62923" lon="6.23226">
        <ele>566.9</ele>
        <time>2022-06-08T08:56:15.000Z</time>
      </trkpt>
      <trkpt lat="43.62924" lon="6.23233">
        <ele>566.8</ele>
        <time>2022-06-08T08:56:16.000Z</time>
      </trkpt>
      <trkpt lat="43.62926" lon="6.23242">
        <ele>566.5</ele>
        <time>2022-06-08T08:56:19.000Z</time>
      </trkpt>
      <trkpt lat="43.6293" lon="6.23245">
        <ele>566</ele>
        <time>2022-06-08T08:56:24.000Z</time>
      </trkpt>
      <trkpt lat="43.62935" lon="6.23246">
        <ele>565.7</ele>
        <time>2022-06-08T08:56:30.000Z</time>
      </trkpt>
      <trkpt lat="43.6294" lon="6.23245">
        <ele>565.7</ele>
        <time>2022-06-08T08:56:33.000Z</time>
      </trkpt>
      <trkpt lat="43.62944" lon="6.23249">
        <ele>565.8</ele>
        <time>2022-06-08T08:56:37.000Z</time>
      </trkpt>
      <trkpt lat="43.6295" lon="6.23247">
        <ele>565.5</ele>
        <time>2022-06-08T08:56:44.000Z</time>
      </trkpt>
      <trkpt lat="43.62951" lon="6.23241">
        <ele>566.1</ele>
        <time>2022-06-08T08:56:51.000Z</time>
      </trkpt>
      <trkpt lat="43.62956" lon="6.23239">
        <ele>566.3</ele>
        <time>2022-06-08T08:57:01.000Z</time>
      </trkpt>
      <trkpt lat="43.62959" lon="6.23234">
        <ele>566.5</ele>
        <time>2022-06-08T08:57:09.000Z</time>
      </trkpt>
      <trkpt lat="43.6296" lon="6.23228">
        <ele>566.2</ele>
        <time>2022-06-08T08:57:16.000Z</time>
      </trkpt>
      <trkpt lat="43.62961" lon="6.23222">
        <ele>566</ele>
        <time>2022-06-08T08:57:27.000Z</time>
      </trkpt>
      <trkpt lat="43.62965" lon="6.23217">
        <ele>565.7</ele>
        <time>2022-06-08T08:57:34.000Z</time>
      </trkpt>
      <trkpt lat="43.6297" lon="6.23213">
        <ele>566</ele>
        <time>2022-06-08T08:57:39.000Z</time>
      </trkpt>
      <trkpt lat="43.62974" lon="6.23208">
        <ele>566.7</ele>
        <time>2022-06-08T08:57:45.000Z</time>
      </trkpt>
      <trkpt lat="43.62976" lon="6.23202">
        <ele>567</ele>
        <time>2022-06-08T08:57:53.000Z</time>
      </trkpt>
      <trkpt lat="43.62977" lon="6.23196">
        <ele>567.8</ele>
        <time>2022-06-08T08:58:23.000Z</time>
      </trkpt>
      <trkpt lat="43.6298" lon="6.23191">
        <ele>567.6</ele>
        <time>2022-06-08T08:58:31.000Z</time>
      </trkpt>
      <trkpt lat="43.62982" lon="6.23185">
        <ele>568.1</ele>
        <time>2022-06-08T08:58:38.000Z</time>
      </trkpt>
      <trkpt lat="43.62983" lon="6.23178">
        <ele>569.2</ele>
        <time>2022-06-08T08:58:43.000Z</time>
      </trkpt>
      <trkpt lat="43.62984" lon="6.23171">
        <ele>569.7</ele>
        <time>2022-06-08T08:58:48.000Z</time>
      </trkpt>
      <trkpt lat="43.62984" lon="6.23165">
        <ele>570.3</ele>
        <time>2022-06-08T08:58:51.000Z</time>
      </trkpt>
      <trkpt lat="43.62984" lon="6.23158">
        <ele>570.9</ele>
        <time>2022-06-08T08:58:56.000Z</time>
      </trkpt>
      <trkpt lat="43.62985" lon="6.23151">
        <ele>573.4</ele>
        <time>2022-06-08T08:59:37.000Z</time>
      </trkpt>
      <trkpt lat="43.62981" lon="6.23145">
        <ele>573</ele>
        <time>2022-06-08T08:59:43.000Z</time>
      </trkpt>
      <trkpt lat="43.6298" lon="6.23151">
        <ele>574</ele>
        <time>2022-06-08T08:59:48.000Z</time>
      </trkpt>
      <trkpt lat="43.62979" lon="6.23157">
        <ele>573.1</ele>
        <time>2022-06-08T08:59:53.000Z</time>
      </trkpt>
      <trkpt lat="43.62977" lon="6.23162">
        <ele>574.6</ele>
        <time>2022-06-08T08:59:57.000Z</time>
      </trkpt>
      <trkpt lat="43.63" lon="6.23229">
        <ele>576</ele>
        <time>2022-06-08T09:00:27.000Z</time>
      </trkpt>
      <trkpt lat="43.63017" lon="6.23268">
        <ele>577</ele>
        <time>2022-06-08T09:00:43.000Z</time>
      </trkpt>
      <trkpt lat="43.63011" lon="6.23229">
        <ele>578</ele>
        <time>2022-06-08T09:00:47.000Z</time>
      </trkpt>
      <trkpt lat="43.63007" lon="6.23215">
        <ele>578.2</ele>
        <time>2022-06-08T09:00:50.000Z</time>
      </trkpt>
      <trkpt lat="43.63009" lon="6.232">
        <ele>578.1</ele>
        <time>2022-06-08T09:00:52.000Z</time>
      </trkpt>
      <trkpt lat="43.63009" lon="6.23193">
        <ele>578.3</ele>
        <time>2022-06-08T09:00:54.000Z</time>
      </trkpt>
      <trkpt lat="43.6301" lon="6.23186">
        <ele>578.4</ele>
        <time>2022-06-08T09:00:56.000Z</time>
      </trkpt>
      <trkpt lat="43.63012" lon="6.23179">
        <ele>578.5</ele>
        <time>2022-06-08T09:00:58.000Z</time>
      </trkpt>
      <trkpt lat="43.63012" lon="6.23172">
        <ele>578.6</ele>
        <time>2022-06-08T09:01:01.000Z</time>
      </trkpt>
      <trkpt lat="43.63012" lon="6.23164">
        <ele>578.5</ele>
        <time>2022-06-08T09:01:05.000Z</time>
      </trkpt>
      <trkpt lat="43.63006" lon="6.23154">
        <ele>578</ele>
        <time>2022-06-08T09:01:11.000Z</time>
      </trkpt>
      <trkpt lat="43.62998" lon="6.23134">
        <ele>578</ele>
        <time>2022-06-08T09:01:22.000Z</time>
      </trkpt>
      <trkpt lat="43.63022" lon="6.23134">
        <ele>579</ele>
        <time>2022-06-08T09:01:44.000Z</time>
      </trkpt>
      <trkpt lat="43.63022" lon="6.23144">
        <ele>581</ele>
        <time>2022-06-08T09:01:47.000Z</time>
      </trkpt>
      <trkpt lat="43.63026" lon="6.23148">
        <ele>581.4</ele>
        <time>2022-06-08T09:01:49.000Z</time>
      </trkpt>
      <trkpt lat="43.63031" lon="6.23151">
        <ele>581.8</ele>
        <time>2022-06-08T09:01:53.000Z</time>
      </trkpt>
      <trkpt lat="43.63033" lon="6.23158">
        <ele>581.9</ele>
        <time>2022-06-08T09:02:01.000Z</time>
      </trkpt>
      <trkpt lat="43.63036" lon="6.23162">
        <ele>581.9</ele>
        <time>2022-06-08T09:02:08.000Z</time>
      </trkpt>
      <trkpt lat="43.63041" lon="6.23162">
        <ele>581.9</ele>
        <time>2022-06-08T09:02:19.000Z</time>
      </trkpt>
      <trkpt lat="43.63039" lon="6.23156">
        <ele>578.7</ele>
        <time>2022-06-08T09:02:36.000Z</time>
      </trkpt>
      <trkpt lat="43.63036" lon="6.23149">
        <ele>576.9</ele>
        <time>2022-06-08T09:02:43.000Z</time>
      </trkpt>
      <trkpt lat="43.63032" lon="6.23145">
        <ele>575.3</ele>
        <time>2022-06-08T09:02:49.000Z</time>
      </trkpt>
      <trkpt lat="43.63028" lon="6.23143">
        <ele>574.3</ele>
        <time>2022-06-08T09:02:53.000Z</time>
      </trkpt>
      <trkpt lat="43.63023" lon="6.23145">
        <ele>573.6</ele>
        <time>2022-06-08T09:02:58.000Z</time>
      </trkpt>
      <trkpt lat="43.63018" lon="6.23147">
        <ele>573.7</ele>
        <time>2022-06-08T09:03:02.000Z</time>
      </trkpt>
      <trkpt lat="43.63013" lon="6.23148">
        <ele>573</ele>
        <time>2022-06-08T09:03:07.000Z</time>
      </trkpt>
      <trkpt lat="43.63008" lon="6.2315">
        <ele>571.5</ele>
        <time>2022-06-08T09:03:15.000Z</time>
      </trkpt>
      <trkpt lat="43.63002" lon="6.2315">
        <ele>570.7</ele>
        <time>2022-06-08T09:03:19.000Z</time>
      </trkpt>
      <trkpt lat="43.62996" lon="6.23151">
        <ele>570</ele>
        <time>2022-06-08T09:03:23.000Z</time>
      </trkpt>
      <trkpt lat="43.62991" lon="6.23154">
        <ele>569</ele>
        <time>2022-06-08T09:03:27.000Z</time>
      </trkpt>
      <trkpt lat="43.62987" lon="6.23157">
        <ele>568.3</ele>
        <time>2022-06-08T09:03:32.000Z</time>
      </trkpt>
      <trkpt lat="43.62984" lon="6.23163">
        <ele>567.9</ele>
        <time>2022-06-08T09:03:35.000Z</time>
      </trkpt>
      <trkpt lat="43.62981" lon="6.23169">
        <ele>568.1</ele>
        <time>2022-06-08T09:03:38.000Z</time>
      </trkpt>
      <trkpt lat="43.62977" lon="6.23173">
        <ele>567.7</ele>
        <time>2022-06-08T09:03:43.000Z</time>
      </trkpt>
      <trkpt lat="43.62976" lon="6.2318">
        <ele>567.7</ele>
        <time>2022-06-08T09:03:51.000Z</time>
      </trkpt>
      <trkpt lat="43.62976" lon="6.23186">
        <ele>567.4</ele>
        <time>2022-06-08T09:03:56.000Z</time>
      </trkpt>
      <trkpt lat="43.62975" lon="6.23193">
        <ele>567.3</ele>
        <time>2022-06-08T09:04:20.000Z</time>
      </trkpt>
      <trkpt lat="43.62972" lon="6.23188">
        <ele>567.3</ele>
        <time>2022-06-08T09:05:08.000Z</time>
      </trkpt>
      <trkpt lat="43.62977" lon="6.23186">
        <ele>567.8</ele>
        <time>2022-06-08T09:06:07.000Z</time>
      </trkpt>
      <trkpt lat="43.6298" lon="6.23182">
        <ele>568.1</ele>
        <time>2022-06-08T09:06:23.000Z</time>
      </trkpt>
      <trkpt lat="43.62981" lon="6.23176">
        <ele>568.4</ele>
        <time>2022-06-08T09:06:37.000Z</time>
      </trkpt>
      <trkpt lat="43.62984" lon="6.2317">
        <ele>568.1</ele>
        <time>2022-06-08T09:06:46.000Z</time>
      </trkpt>
      <trkpt lat="43.62986" lon="6.23163">
        <ele>567.9</ele>
        <time>2022-06-08T09:06:52.000Z</time>
      </trkpt>
      <trkpt lat="43.6299" lon="6.23159">
        <ele>567.6</ele>
        <time>2022-06-08T09:06:57.000Z</time>
      </trkpt>
      <trkpt lat="43.62995" lon="6.23154">
        <ele>567.4</ele>
        <time>2022-06-08T09:07:03.000Z</time>
      </trkpt>
      <trkpt lat="43.62998" lon="6.23148">
        <ele>567.2</ele>
        <time>2022-06-08T09:07:07.000Z</time>
      </trkpt>
      <trkpt lat="43.62997" lon="6.23141">
        <ele>566.9</ele>
        <time>2022-06-08T09:07:16.000Z</time>
      </trkpt>
      <trkpt lat="43.62996" lon="6.23134">
        <ele>566.7</ele>
        <time>2022-06-08T09:07:23.000Z</time>
      </trkpt>
      <trkpt lat="43.63" lon="6.23125">
        <ele>566.6</ele>
        <time>2022-06-08T09:07:27.000Z</time>
      </trkpt>
      <trkpt lat="43.62997" lon="6.23118">
        <ele>566.6</ele>
        <time>2022-06-08T09:07:30.000Z</time>
      </trkpt>
      <trkpt lat="43.62995" lon="6.23112">
        <ele>566.3</ele>
        <time>2022-06-08T09:07:35.000Z</time>
      </trkpt>
      <trkpt lat="43.62992" lon="6.23106">
        <ele>566.2</ele>
        <time>2022-06-08T09:07:38.000Z</time>
      </trkpt>
      <trkpt lat="43.62989" lon="6.23099">
        <ele>566.1</ele>
        <time>2022-06-08T09:07:43.000Z</time>
      </trkpt>
      <trkpt lat="43.62988" lon="6.23093">
        <ele>566.1</ele>
        <time>2022-06-08T09:07:50.000Z</time>
      </trkpt>
      <trkpt lat="43.62987" lon="6.23086">
        <ele>565.9</ele>
        <time>2022-06-08T09:07:55.000Z</time>
      </trkpt>
      <trkpt lat="43.62984" lon="6.2308">
        <ele>565.9</ele>
        <time>2022-06-08T09:07:58.000Z</time>
      </trkpt>
      <trkpt lat="43.62981" lon="6.23074">
        <ele>565.9</ele>
        <time>2022-06-08T09:08:03.000Z</time>
      </trkpt>
      <trkpt lat="43.62978" lon="6.23068">
        <ele>566</ele>
        <time>2022-06-08T09:08:07.000Z</time>
      </trkpt>
      <trkpt lat="43.62974" lon="6.23065">
        <ele>566</ele>
        <time>2022-06-08T09:08:09.000Z</time>
      </trkpt>
      <trkpt lat="43.62971" lon="6.23057">
        <ele>566</ele>
        <time>2022-06-08T09:08:14.000Z</time>
      </trkpt>
      <trkpt lat="43.62971" lon="6.23051">
        <ele>566</ele>
        <time>2022-06-08T09:08:18.000Z</time>
      </trkpt>
      <trkpt lat="43.62974" lon="6.23047">
        <ele>566.2</ele>
        <time>2022-06-08T09:08:26.000Z</time>
      </trkpt>
      <trkpt lat="43.62979" lon="6.23046">
        <ele>566.4</ele>
        <time>2022-06-08T09:08:47.000Z</time>
      </trkpt>
      <trkpt lat="43.62983" lon="6.23049">
        <ele>567.2</ele>
        <time>2022-06-08T09:08:53.000Z</time>
      </trkpt>
      <trkpt lat="43.62989" lon="6.23048">
        <ele>569.8</ele>
        <time>2022-06-08T09:09:01.000Z</time>
      </trkpt>
      <trkpt lat="43.62991" lon="6.23042">
        <ele>570.8</ele>
        <time>2022-06-08T09:09:07.000Z</time>
      </trkpt>
      <trkpt lat="43.62992" lon="6.23036">
        <ele>570.9</ele>
        <time>2022-06-08T09:09:12.000Z</time>
      </trkpt>
      <trkpt lat="43.62996" lon="6.23032">
        <ele>570.8</ele>
        <time>2022-06-08T09:09:18.000Z</time>
      </trkpt>
      <trkpt lat="43.62992" lon="6.23028">
        <ele>570.8</ele>
        <time>2022-06-08T09:09:26.000Z</time>
      </trkpt>
      <trkpt lat="43.6299" lon="6.23022">
        <ele>570.8</ele>
        <time>2022-06-08T09:09:50.000Z</time>
      </trkpt>
      <trkpt lat="43.62995" lon="6.23021">
        <ele>571.1</ele>
        <time>2022-06-08T09:10:08.000Z</time>
      </trkpt>
      <trkpt lat="43.62998" lon="6.23017">
        <ele>571.3</ele>
        <time>2022-06-08T09:10:18.000Z</time>
      </trkpt>
      <trkpt lat="43.62994" lon="6.23017">
        <ele>570.8</ele>
        <time>2022-06-08T09:10:32.000Z</time>
      </trkpt>
      <trkpt lat="43.62989" lon="6.23019">
        <ele>570.8</ele>
        <time>2022-06-08T09:10:38.000Z</time>
      </trkpt>
      <trkpt lat="43.62984" lon="6.23014">
        <ele>571.1</ele>
        <time>2022-06-08T09:10:45.000Z</time>
      </trkpt>
      <trkpt lat="43.62981" lon="6.2301">
        <ele>570.5</ele>
        <time>2022-06-08T09:10:53.000Z</time>
      </trkpt>
      <trkpt lat="43.6298" lon="6.23016">
        <ele>570.6</ele>
        <time>2022-06-08T09:11:08.000Z</time>
      </trkpt>
      <trkpt lat="43.62978" lon="6.23022">
        <ele>570.6</ele>
        <time>2022-06-08T09:11:18.000Z</time>
      </trkpt>
      <trkpt lat="43.62979" lon="6.23016">
        <ele>570.9</ele>
        <time>2022-06-08T09:12:00.000Z</time>
      </trkpt>
      <trkpt lat="43.62983" lon="6.2302">
        <ele>570.2</ele>
        <time>2022-06-08T09:12:57.000Z</time>
      </trkpt>
      <trkpt lat="43.62986" lon="6.23025">
        <ele>570.8</ele>
        <time>2022-06-08T09:13:07.000Z</time>
      </trkpt>
      <trkpt lat="43.6299" lon="6.23027">
        <ele>570.8</ele>
        <time>2022-06-08T09:13:33.000Z</time>
      </trkpt>
      <trkpt lat="43.62994" lon="6.23023">
        <ele>570.9</ele>
        <time>2022-06-08T09:13:41.000Z</time>
      </trkpt>
      <trkpt lat="43.62996" lon="6.23016">
        <ele>570.5</ele>
        <time>2022-06-08T09:13:57.000Z</time>
      </trkpt>
      <trkpt lat="43.62993" lon="6.23011">
        <ele>570.1</ele>
        <time>2022-06-08T09:14:06.000Z</time>
      </trkpt>
      <trkpt lat="43.62991" lon="6.23005">
        <ele>569.5</ele>
        <time>2022-06-08T09:14:12.000Z</time>
      </trkpt>
      <trkpt lat="43.62989" lon="6.22999">
        <ele>568.4</ele>
        <time>2022-06-08T09:14:20.000Z</time>
      </trkpt>
      <trkpt lat="43.62988" lon="6.22993">
        <ele>567.1</ele>
        <time>2022-06-08T09:14:52.000Z</time>
      </trkpt>
      <trkpt lat="43.62985" lon="6.22987">
        <ele>566.6</ele>
        <time>2022-06-08T09:14:59.000Z</time>
      </trkpt>
      <trkpt lat="43.62984" lon="6.22981">
        <ele>565.8</ele>
        <time>2022-06-08T09:15:04.000Z</time>
      </trkpt>
      <trkpt lat="43.62983" lon="6.22975">
        <ele>564.8</ele>
        <time>2022-06-08T09:15:09.000Z</time>
      </trkpt>
      <trkpt lat="43.62984" lon="6.22967">
        <ele>563.9</ele>
        <time>2022-06-08T09:15:15.000Z</time>
      </trkpt>
      <trkpt lat="43.62984" lon="6.2296">
        <ele>562.9</ele>
        <time>2022-06-08T09:15:23.000Z</time>
      </trkpt>
      <trkpt lat="43.62984" lon="6.22953">
        <ele>562.3</ele>
        <time>2022-06-08T09:15:30.000Z</time>
      </trkpt>
      <trkpt lat="43.62986" lon="6.22947">
        <ele>561.7</ele>
        <time>2022-06-08T09:15:35.000Z</time>
      </trkpt>
      <trkpt lat="43.62987" lon="6.22941">
        <ele>561</ele>
        <time>2022-06-08T09:15:41.000Z</time>
      </trkpt>
      <trkpt lat="43.62988" lon="6.22934">
        <ele>560.3</ele>
        <time>2022-06-08T09:15:47.000Z</time>
      </trkpt>
      <trkpt lat="43.6299" lon="6.22927">
        <ele>559.3</ele>
        <time>2022-06-08T09:15:52.000Z</time>
      </trkpt>
      <trkpt lat="43.62992" lon="6.22921">
        <ele>558.1</ele>
        <time>2022-06-08T09:15:58.000Z</time>
      </trkpt>
      <trkpt lat="43.62995" lon="6.22916">
        <ele>557.3</ele>
        <time>2022-06-08T09:16:03.000Z</time>
      </trkpt>
      <trkpt lat="43.62996" lon="6.2291">
        <ele>556</ele>
        <time>2022-06-08T09:16:12.000Z</time>
      </trkpt>
      <trkpt lat="43.62998" lon="6.22904">
        <ele>554.8</ele>
        <time>2022-06-08T09:16:38.000Z</time>
      </trkpt>
      <trkpt lat="43.62999" lon="6.22896">
        <ele>553.8</ele>
        <time>2022-06-08T09:16:44.000Z</time>
      </trkpt>
      <trkpt lat="43.62999" lon="6.2289">
        <ele>552.9</ele>
        <time>2022-06-08T09:16:49.000Z</time>
      </trkpt>
      <trkpt lat="43.62999" lon="6.22883">
        <ele>551.8</ele>
        <time>2022-06-08T09:16:55.000Z</time>
      </trkpt>
      <trkpt lat="43.63" lon="6.22876">
        <ele>550.6</ele>
        <time>2022-06-08T09:17:01.000Z</time>
      </trkpt>
      <trkpt lat="43.63002" lon="6.2287">
        <ele>549.6</ele>
        <time>2022-06-08T09:17:06.000Z</time>
      </trkpt>
      <trkpt lat="43.63003" lon="6.22862">
        <ele>548.5</ele>
        <time>2022-06-08T09:17:12.000Z</time>
      </trkpt>
      <trkpt lat="43.63004" lon="6.22856">
        <ele>547.5</ele>
        <time>2022-06-08T09:17:16.000Z</time>
      </trkpt>
      <trkpt lat="43.63005" lon="6.22849">
        <ele>546.6</ele>
        <time>2022-06-08T09:17:20.000Z</time>
      </trkpt>
      <trkpt lat="43.63007" lon="6.22843">
        <ele>545.9</ele>
        <time>2022-06-08T09:17:24.000Z</time>
      </trkpt>
      <trkpt lat="43.63009" lon="6.22837">
        <ele>545.5</ele>
        <time>2022-06-08T09:17:27.000Z</time>
      </trkpt>
      <trkpt lat="43.63011" lon="6.2283">
        <ele>544.6</ele>
        <time>2022-06-08T09:17:32.000Z</time>
      </trkpt>
      <trkpt lat="43.63016" lon="6.22829">
        <ele>543.8</ele>
        <time>2022-06-08T09:17:36.000Z</time>
      </trkpt>
      <trkpt lat="43.63018" lon="6.22823">
        <ele>543.2</ele>
        <time>2022-06-08T09:17:40.000Z</time>
      </trkpt>
      <trkpt lat="43.6302" lon="6.22816">
        <ele>542.4</ele>
        <time>2022-06-08T09:17:44.000Z</time>
      </trkpt>
      <trkpt lat="43.63022" lon="6.2281">
        <ele>541.9</ele>
        <time>2022-06-08T09:17:48.000Z</time>
      </trkpt>
      <trkpt lat="43.63023" lon="6.22803">
        <ele>541.3</ele>
        <time>2022-06-08T09:17:53.000Z</time>
      </trkpt>
      <trkpt lat="43.63025" lon="6.22796">
        <ele>540.5</ele>
        <time>2022-06-08T09:18:01.000Z</time>
      </trkpt>
      <trkpt lat="43.63026" lon="6.22789">
        <ele>539.8</ele>
        <time>2022-06-08T09:18:07.000Z</time>
      </trkpt>
      <trkpt lat="43.63029" lon="6.22784">
        <ele>539.3</ele>
        <time>2022-06-08T09:18:12.000Z</time>
      </trkpt>
      <trkpt lat="43.63031" lon="6.22777">
        <ele>539</ele>
        <time>2022-06-08T09:18:16.000Z</time>
      </trkpt>
      <trkpt lat="43.63033" lon="6.22771">
        <ele>538.6</ele>
        <time>2022-06-08T09:18:21.000Z</time>
      </trkpt>
      <trkpt lat="43.63035" lon="6.22763">
        <ele>537.7</ele>
        <time>2022-06-08T09:18:27.000Z</time>
      </trkpt>
      <trkpt lat="43.63038" lon="6.22758">
        <ele>537.8</ele>
        <time>2022-06-08T09:18:30.000Z</time>
      </trkpt>
      <trkpt lat="43.63039" lon="6.22751">
        <ele>537.8</ele>
        <time>2022-06-08T09:18:35.000Z</time>
      </trkpt>
      <trkpt lat="43.63039" lon="6.22743">
        <ele>537.6</ele>
        <time>2022-06-08T09:18:39.000Z</time>
      </trkpt>
      <trkpt lat="43.63042" lon="6.22736">
        <ele>537.3</ele>
        <time>2022-06-08T09:18:43.000Z</time>
      </trkpt>
      <trkpt lat="43.63042" lon="6.2273">
        <ele>536.1</ele>
        <time>2022-06-08T09:18:48.000Z</time>
      </trkpt>
      <trkpt lat="43.63043" lon="6.22723">
        <ele>535.4</ele>
        <time>2022-06-08T09:18:54.000Z</time>
      </trkpt>
      <trkpt lat="43.6304" lon="6.22719">
        <ele>534.4</ele>
        <time>2022-06-08T09:19:45.000Z</time>
      </trkpt>
      <trkpt lat="43.63035" lon="6.22715">
        <ele>534.2</ele>
        <time>2022-06-08T09:19:48.000Z</time>
      </trkpt>
      <trkpt lat="43.63032" lon="6.2271">
        <ele>533.3</ele>
        <time>2022-06-08T09:19:52.000Z</time>
      </trkpt>
      <trkpt lat="43.63029" lon="6.22704">
        <ele>532.5</ele>
        <time>2022-06-08T09:19:56.000Z</time>
      </trkpt>
      <trkpt lat="43.63026" lon="6.22698">
        <ele>531.6</ele>
        <time>2022-06-08T09:20:00.000Z</time>
      </trkpt>
      <trkpt lat="43.63023" lon="6.22692">
        <ele>530.9</ele>
        <time>2022-06-08T09:20:04.000Z</time>
      </trkpt>
      <trkpt lat="43.63021" lon="6.22686">
        <ele>530.1</ele>
        <time>2022-06-08T09:20:08.000Z</time>
      </trkpt>
      <trkpt lat="43.63017" lon="6.22682">
        <ele>528.8</ele>
        <time>2022-06-08T09:20:16.000Z</time>
      </trkpt>
      <trkpt lat="43.63013" lon="6.22679">
        <ele>528.6</ele>
        <time>2022-06-08T09:20:20.000Z</time>
      </trkpt>
      <trkpt lat="43.63009" lon="6.22675">
        <ele>528.2</ele>
        <time>2022-06-08T09:20:24.000Z</time>
      </trkpt>
      <trkpt lat="43.63004" lon="6.22671">
        <ele>527.4</ele>
        <time>2022-06-08T09:20:28.000Z</time>
      </trkpt>
      <trkpt lat="43.63001" lon="6.22666">
        <ele>526.6</ele>
        <time>2022-06-08T09:20:32.000Z</time>
      </trkpt>
      <trkpt lat="43.62997" lon="6.2266">
        <ele>526</ele>
        <time>2022-06-08T09:20:37.000Z</time>
      </trkpt>
      <trkpt lat="43.62994" lon="6.22654">
        <ele>524.9</ele>
        <time>2022-06-08T09:20:43.000Z</time>
      </trkpt>
      <trkpt lat="43.62989" lon="6.22649">
        <ele>524.1</ele>
        <time>2022-06-08T09:20:49.000Z</time>
      </trkpt>
      <trkpt lat="43.62985" lon="6.22645">
        <ele>523.7</ele>
        <time>2022-06-08T09:20:54.000Z</time>
      </trkpt>
      <trkpt lat="43.6298" lon="6.22642">
        <ele>523.2</ele>
        <time>2022-06-08T09:21:00.000Z</time>
      </trkpt>
      <trkpt lat="43.62976" lon="6.2264">
        <ele>522.9</ele>
        <time>2022-06-08T09:21:03.000Z</time>
      </trkpt>
      <trkpt lat="43.62972" lon="6.22638">
        <ele>522.5</ele>
        <time>2022-06-08T09:21:06.000Z</time>
      </trkpt>
      <trkpt lat="43.62966" lon="6.22637">
        <ele>522.4</ele>
        <time>2022-06-08T09:21:09.000Z</time>
      </trkpt>
      <trkpt lat="43.62962" lon="6.22633">
        <ele>521.4</ele>
        <time>2022-06-08T09:21:15.000Z</time>
      </trkpt>
      <trkpt lat="43.62958" lon="6.22628">
        <ele>521.3</ele>
        <time>2022-06-08T09:21:19.000Z</time>
      </trkpt>
      <trkpt lat="43.62954" lon="6.22623">
        <ele>521</ele>
        <time>2022-06-08T09:21:23.000Z</time>
      </trkpt>
      <trkpt lat="43.6295" lon="6.2262">
        <ele>520.9</ele>
        <time>2022-06-08T09:21:26.000Z</time>
      </trkpt>
      <trkpt lat="43.62946" lon="6.22616">
        <ele>520.4</ele>
        <time>2022-06-08T09:21:31.000Z</time>
      </trkpt>
      <trkpt lat="43.62942" lon="6.22611">
        <ele>520.3</ele>
        <time>2022-06-08T09:21:35.000Z</time>
      </trkpt>
      <trkpt lat="43.62939" lon="6.22606">
        <ele>520.3</ele>
        <time>2022-06-08T09:21:56.000Z</time>
      </trkpt>
      <trkpt lat="43.62935" lon="6.22602">
        <ele>520.3</ele>
        <time>2022-06-08T09:22:00.000Z</time>
      </trkpt>
      <trkpt lat="43.62931" lon="6.22598">
        <ele>520.8</ele>
        <time>2022-06-08T09:22:04.000Z</time>
      </trkpt>
      <trkpt lat="43.62927" lon="6.22594">
        <ele>521</ele>
        <time>2022-06-08T09:22:09.000Z</time>
      </trkpt>
      <trkpt lat="43.62922" lon="6.22594">
        <ele>520.7</ele>
        <time>2022-06-08T09:22:15.000Z</time>
      </trkpt>
      <trkpt lat="43.62916" lon="6.22593">
        <ele>520.9</ele>
        <time>2022-06-08T09:22:17.000Z</time>
      </trkpt>
      <trkpt lat="43.62911" lon="6.22591">
        <ele>521.1</ele>
        <time>2022-06-08T09:22:21.000Z</time>
      </trkpt>
      <trkpt lat="43.62906" lon="6.22589">
        <ele>521.2</ele>
        <time>2022-06-08T09:22:25.000Z</time>
      </trkpt>
      <trkpt lat="43.62901" lon="6.22586">
        <ele>521.3</ele>
        <time>2022-06-08T09:22:29.000Z</time>
      </trkpt>
      <trkpt lat="43.62898" lon="6.22581">
        <ele>521.2</ele>
        <time>2022-06-08T09:22:32.000Z</time>
      </trkpt>
      <trkpt lat="43.62893" lon="6.2258">
        <ele>520.7</ele>
        <time>2022-06-08T09:22:50.000Z</time>
      </trkpt>
      <trkpt lat="43.62897" lon="6.22579">
        <ele>521.1</ele>
        <time>2022-06-08T09:23:28.000Z</time>
      </trkpt>
      <trkpt lat="43.629" lon="6.22573">
        <ele>521</ele>
        <time>2022-06-08T09:23:34.000Z</time>
      </trkpt>
      <trkpt lat="43.62901" lon="6.22567">
        <ele>520.7</ele>
        <time>2022-06-08T09:23:38.000Z</time>
      </trkpt>
      <trkpt lat="43.62898" lon="6.22562">
        <ele>520.2</ele>
        <time>2022-06-08T09:23:43.000Z</time>
      </trkpt>
      <trkpt lat="43.62896" lon="6.22556">
        <ele>519.4</ele>
        <time>2022-06-08T09:23:57.000Z</time>
      </trkpt>
      <trkpt lat="43.62891" lon="6.22552">
        <ele>519.1</ele>
        <time>2022-06-08T09:24:16.000Z</time>
      </trkpt>
      <trkpt lat="43.62887" lon="6.22546">
        <ele>518.8</ele>
        <time>2022-06-08T09:24:21.000Z</time>
      </trkpt>
      <trkpt lat="43.62883" lon="6.22544">
        <ele>518.3</ele>
        <time>2022-06-08T09:24:25.000Z</time>
      </trkpt>
      <trkpt lat="43.6288" lon="6.22539">
        <ele>516.9</ele>
        <time>2022-06-08T09:24:38.000Z</time>
      </trkpt>
      <trkpt lat="43.62879" lon="6.22532">
        <ele>516.2</ele>
        <time>2022-06-08T09:24:46.000Z</time>
      </trkpt>
      <trkpt lat="43.62874" lon="6.2253">
        <ele>515.6</ele>
        <time>2022-06-08T09:24:51.000Z</time>
      </trkpt>
      <trkpt lat="43.62868" lon="6.2253">
        <ele>515</ele>
        <time>2022-06-08T09:24:56.000Z</time>
      </trkpt>
      <trkpt lat="43.62865" lon="6.22526">
        <ele>514.4</ele>
        <time>2022-06-08T09:25:05.000Z</time>
      </trkpt>
      <trkpt lat="43.6286" lon="6.22524">
        <ele>514.1</ele>
        <time>2022-06-08T09:25:11.000Z</time>
      </trkpt>
      <trkpt lat="43.62855" lon="6.22525">
        <ele>513.7</ele>
        <time>2022-06-08T09:25:16.000Z</time>
      </trkpt>
      <trkpt lat="43.62857" lon="6.22519">
        <ele>513</ele>
        <time>2022-06-08T09:25:26.000Z</time>
      </trkpt>
      <trkpt lat="43.62861" lon="6.22516">
        <ele>512.3</ele>
        <time>2022-06-08T09:25:33.000Z</time>
      </trkpt>
      <trkpt lat="43.62863" lon="6.2251">
        <ele>512.1</ele>
        <time>2022-06-08T09:25:45.000Z</time>
      </trkpt>
      <trkpt lat="43.62859" lon="6.22508">
        <ele>511.9</ele>
        <time>2022-06-08T09:25:54.000Z</time>
      </trkpt>
      <trkpt lat="43.62857" lon="6.22502">
        <ele>511.5</ele>
        <time>2022-06-08T09:26:03.000Z</time>
      </trkpt>
      <trkpt lat="43.62853" lon="6.22499">
        <ele>511.1</ele>
        <time>2022-06-08T09:26:10.000Z</time>
      </trkpt>
      <trkpt lat="43.62848" lon="6.225">
        <ele>510.8</ele>
        <time>2022-06-08T09:26:17.000Z</time>
      </trkpt>
      <trkpt lat="43.62843" lon="6.22499">
        <ele>510.5</ele>
        <time>2022-06-08T09:26:22.000Z</time>
      </trkpt>
      <trkpt lat="43.62838" lon="6.22499">
        <ele>510.3</ele>
        <time>2022-06-08T09:26:25.000Z</time>
      </trkpt>
      <trkpt lat="43.62833" lon="6.22498">
        <ele>510.1</ele>
        <time>2022-06-08T09:26:29.000Z</time>
      </trkpt>
      <trkpt lat="43.62828" lon="6.22495">
        <ele>509.8</ele>
        <time>2022-06-08T09:26:35.000Z</time>
      </trkpt>
      <trkpt lat="43.62824" lon="6.2249">
        <ele>509.6</ele>
        <time>2022-06-08T09:26:41.000Z</time>
      </trkpt>
      <trkpt lat="43.62825" lon="6.22484">
        <ele>508.9</ele>
        <time>2022-06-08T09:26:47.000Z</time>
      </trkpt>
      <trkpt lat="43.62821" lon="6.22478">
        <ele>508.7</ele>
        <time>2022-06-08T09:26:53.000Z</time>
      </trkpt>
      <trkpt lat="43.62819" lon="6.22472">
        <ele>508.4</ele>
        <time>2022-06-08T09:26:57.000Z</time>
      </trkpt>
      <trkpt lat="43.62815" lon="6.22468">
        <ele>508.1</ele>
        <time>2022-06-08T09:27:04.000Z</time>
      </trkpt>
      <trkpt lat="43.62812" lon="6.22463">
        <ele>507.6</ele>
        <time>2022-06-08T09:27:11.000Z</time>
      </trkpt>
      <trkpt lat="43.62814" lon="6.22454">
        <ele>507.5</ele>
        <time>2022-06-08T09:27:17.000Z</time>
      </trkpt>
      <trkpt lat="43.62818" lon="6.22448">
        <ele>507.5</ele>
        <time>2022-06-08T09:27:18.000Z</time>
      </trkpt>
      <trkpt lat="43.62821" lon="6.22444">
        <ele>507.3</ele>
        <time>2022-06-08T09:27:24.000Z</time>
      </trkpt>
      <trkpt lat="43.62818" lon="6.22438">
        <ele>506.9</ele>
        <time>2022-06-08T09:27:38.000Z</time>
      </trkpt>
      <trkpt lat="43.62813" lon="6.2244">
        <ele>506.7</ele>
        <time>2022-06-08T09:27:45.000Z</time>
      </trkpt>
      <trkpt lat="43.62808" lon="6.22439">
        <ele>506.3</ele>
        <time>2022-06-08T09:27:53.000Z</time>
      </trkpt>
      <trkpt lat="43.62802" lon="6.22438">
        <ele>506.2</ele>
        <time>2022-06-08T09:27:57.000Z</time>
      </trkpt>
      <trkpt lat="43.62798" lon="6.22436">
        <ele>506.2</ele>
        <time>2022-06-08T09:28:00.000Z</time>
      </trkpt>
      <trkpt lat="43.62793" lon="6.22435">
        <ele>505.8</ele>
        <time>2022-06-08T09:28:05.000Z</time>
      </trkpt>
      <trkpt lat="43.62789" lon="6.22431">
        <ele>505.8</ele>
        <time>2022-06-08T09:28:11.000Z</time>
      </trkpt>
      <trkpt lat="43.62784" lon="6.22431">
        <ele>505.8</ele>
        <time>2022-06-08T09:28:15.000Z</time>
      </trkpt>
      <trkpt lat="43.62779" lon="6.2243">
        <ele>505.8</ele>
        <time>2022-06-08T09:28:19.000Z</time>
      </trkpt>
      <trkpt lat="43.62773" lon="6.22429">
        <ele>505.7</ele>
        <time>2022-06-08T09:28:21.000Z</time>
      </trkpt>
      <trkpt lat="43.62766" lon="6.22426">
        <ele>505.6</ele>
        <time>2022-06-08T09:28:23.000Z</time>
      </trkpt>
      <trkpt lat="43.62761" lon="6.22424">
        <ele>505.5</ele>
        <time>2022-06-08T09:28:26.000Z</time>
      </trkpt>
      <trkpt lat="43.62756" lon="6.22423">
        <ele>505.3</ele>
        <time>2022-06-08T09:28:38.000Z</time>
      </trkpt>
      <trkpt lat="43.62751" lon="6.22421">
        <ele>505.2</ele>
        <time>2022-06-08T09:28:46.000Z</time>
      </trkpt>
      <trkpt lat="43.62752" lon="6.22414">
        <ele>505</ele>
        <time>2022-06-08T09:28:55.000Z</time>
      </trkpt>
      <trkpt lat="43.62751" lon="6.22408">
        <ele>505</ele>
        <time>2022-06-08T09:29:06.000Z</time>
      </trkpt>
      <trkpt lat="43.62748" lon="6.22413">
        <ele>505</ele>
        <time>2022-06-08T09:29:39.000Z</time>
      </trkpt>
      <trkpt lat="43.62745" lon="6.22407">
        <ele>505.1</ele>
        <time>2022-06-08T09:30:00.000Z</time>
      </trkpt>
      <trkpt lat="43.62742" lon="6.22402">
        <ele>505.1</ele>
        <time>2022-06-08T09:30:04.000Z</time>
      </trkpt>
      <trkpt lat="43.62737" lon="6.22401">
        <ele>505</ele>
        <time>2022-06-08T09:30:11.000Z</time>
      </trkpt>
      <trkpt lat="43.62733" lon="6.22405">
        <ele>505</ele>
        <time>2022-06-08T09:30:22.000Z</time>
      </trkpt>
      <trkpt lat="43.62728" lon="6.22404">
        <ele>505.1</ele>
        <time>2022-06-08T09:30:30.000Z</time>
      </trkpt>
      <trkpt lat="43.62725" lon="6.2241">
        <ele>505</ele>
        <time>2022-06-08T09:30:35.000Z</time>
      </trkpt>
      <trkpt lat="43.6272" lon="6.22414">
        <ele>504.9</ele>
        <time>2022-06-08T09:30:39.000Z</time>
      </trkpt>
      <trkpt lat="43.62715" lon="6.22418">
        <ele>504.9</ele>
        <time>2022-06-08T09:30:45.000Z</time>
      </trkpt>
      <trkpt lat="43.62711" lon="6.22419">
        <ele>504.5</ele>
        <time>2022-06-08T09:30:53.000Z</time>
      </trkpt>
      <trkpt lat="43.62706" lon="6.22422">
        <ele>504.3</ele>
        <time>2022-06-08T09:31:04.000Z</time>
      </trkpt>
      <trkpt lat="43.62705" lon="6.22428">
        <ele>503.9</ele>
        <time>2022-06-08T09:31:13.000Z</time>
      </trkpt>
      <trkpt lat="43.62702" lon="6.22434">
        <ele>503.7</ele>
        <time>2022-06-08T09:31:24.000Z</time>
      </trkpt>
      <trkpt lat="43.627" lon="6.2244">
        <ele>503.6</ele>
        <time>2022-06-08T09:31:30.000Z</time>
      </trkpt>
      <trkpt lat="43.62696" lon="6.22444">
        <ele>503.6</ele>
        <time>2022-06-08T09:31:36.000Z</time>
      </trkpt>
      <trkpt lat="43.62693" lon="6.22449">
        <ele>503.8</ele>
        <time>2022-06-08T09:31:43.000Z</time>
      </trkpt>
      <trkpt lat="43.62692" lon="6.22457">
        <ele>503.6</ele>
        <time>2022-06-08T09:31:49.000Z</time>
      </trkpt>
      <trkpt lat="43.6269" lon="6.22463">
        <ele>503.5</ele>
        <time>2022-06-08T09:31:53.000Z</time>
      </trkpt>
      <trkpt lat="43.6269" lon="6.2247">
        <ele>503.3</ele>
        <time>2022-06-08T09:31:57.000Z</time>
      </trkpt>
      <trkpt lat="43.62688" lon="6.22476">
        <ele>503.2</ele>
        <time>2022-06-08T09:32:12.000Z</time>
      </trkpt>
      <trkpt lat="43.62686" lon="6.22483">
        <ele>503.4</ele>
        <time>2022-06-08T09:32:40.000Z</time>
      </trkpt>
      <trkpt lat="43.62682" lon="6.22487">
        <ele>503.6</ele>
        <time>2022-06-08T09:32:48.000Z</time>
      </trkpt>
      <trkpt lat="43.62677" lon="6.22487">
        <ele>503.2</ele>
        <time>2022-06-08T09:32:55.000Z</time>
      </trkpt>
      <trkpt lat="43.62673" lon="6.2249">
        <ele>502.8</ele>
        <time>2022-06-08T09:33:02.000Z</time>
      </trkpt>
      <trkpt lat="43.62669" lon="6.22492">
        <ele>502.8</ele>
        <time>2022-06-08T09:33:08.000Z</time>
      </trkpt>
      <trkpt lat="43.62664" lon="6.22492">
        <ele>502.7</ele>
        <time>2022-06-08T09:33:14.000Z</time>
      </trkpt>
      <trkpt lat="43.6266" lon="6.22495">
        <ele>502.6</ele>
        <time>2022-06-08T09:33:19.000Z</time>
      </trkpt>
      <trkpt lat="43.62655" lon="6.22499">
        <ele>502.3</ele>
        <time>2022-06-08T09:33:25.000Z</time>
      </trkpt>
      <trkpt lat="43.62652" lon="6.22503">
        <ele>501.8</ele>
        <time>2022-06-08T09:33:30.000Z</time>
      </trkpt>
    </trkseg>
  </trk>
</gpx>